PWSweather.com
Personal Weather Stations
Station Observations
2450ARBOR
Round Rock, TX 78681

Round Rock, TX 78681

Lat: 30.535239, Lon: -97.728137

Elevation: 800

Station Type:

High Low Average
Temperature 41.7°F5.4°C 29.7°F-1.3°C 34.9°F1.6°C
Dew Point 35.2°F1.8°C 23.1°F-4.9°C 28.9°F-1.7°C
Winds 7.8 mph 12.6 kmh Calm Calm 1.0 mph SSW1.6 kmh SSW
Wind Gusts 7.8 mph12.6 kmh -- 3.0 mph4.8 kmh
Humidity 93% 60% 79%
Pressure 29.49 in998.6 mb 29.14 in986.8 mb -
Precipitation 0.02 in0.5 mm - -
Hour Temp Dew Point Humidity Winds Wind Gusts Pressure Precip Precip Rate Daily Precip Total
12:00 AM 38.1°F3.4°C 34.9°F1.6°C 88% 1.1 mph SSW1.8 kmh SSW 2.2 mph3.5 kmh 29.14 in986.8 mb 0.00 in0.0 mm 0.00 in0.0 mm 0.00 in0.0 mm
12:01 AM 38.1°F3.4°C 34.9°F1.6°C 88% 1.1 mph SSW1.8 kmh SSW 2.2 mph3.5 kmh 29.14 in986.8 mb 0.00 in0.0 mm 0.00 in0.0 mm 0.00 in0.0 mm
12:02 AM 38.1°F3.4°C 34.9°F1.6°C 88% 1.1 mph S1.8 kmh S 2.2 mph3.5 kmh 29.14 in986.8 mb 0.00 in0.0 mm 0.00 in0.0 mm 0.00 in0.0 mm
12:03 AM 38.1°F3.4°C 34.9°F1.6°C 88% 1.1 mph S1.8 kmh S 2.2 mph3.5 kmh 29.14 in986.8 mb 0.00 in0.0 mm 0.00 in0.0 mm 0.00 in0.0 mm
12:04 AM 38.1°F3.4°C 34.9°F1.6°C 88% 1.1 mph WNW1.8 kmh WNW 2.2 mph3.5 kmh 29.14 in986.8 mb 0.00 in0.0 mm 0.00 in0.0 mm 0.00 in0.0 mm
12:05 AM 38.1°F3.4°C 34.9°F1.6°C 88% Calm Calm 1.7 mph2.7 kmh 29.14 in986.8 mb 0.00 in0.0 mm 0.00 in0.0 mm 0.00 in0.0 mm
12:06 AM 38.1°F3.4°C 34.9°F1.6°C 88% Calm Calm 1.7 mph2.7 kmh 29.14 in986.8 mb 0.00 in0.0 mm 0.00 in0.0 mm 0.00 in0.0 mm
12:07 AM 38.1°F3.4°C 34.9°F1.6°C 88% 1.1 mph S1.8 kmh S 1.7 mph2.7 kmh 29.14 in986.8 mb 0.00 in0.0 mm 0.00 in0.0 mm 0.00 in0.0 mm
12:08 AM 38.1°F3.4°C 34.9°F1.6°C 88% Calm Calm 2.2 mph3.5 kmh 29.14 in986.8 mb 0.00 in0.0 mm 0.00 in0.0 mm 0.00 in0.0 mm
12:09 AM 38.1°F3.4°C 34.9°F1.6°C 88% Calm Calm 2.2 mph3.5 kmh 29.15 in987.1 mb 0.00 in0.0 mm 0.00 in0.0 mm 0.00 in0.0 mm
12:10 AM 37.9°F3.3°C 35.0°F1.7°C 89% Calm Calm 2.2 mph3.5 kmh 29.15 in987.1 mb 0.00 in0.0 mm 0.00 in0.0 mm 0.00 in0.0 mm
12:11 AM 37.9°F3.3°C 35.0°F1.7°C 89% Calm Calm 2.2 mph3.5 kmh 29.15 in987.1 mb 0.00 in0.0 mm 0.00 in0.0 mm 0.00 in0.0 mm
12:12 AM 37.9°F3.3°C 35.0°F1.7°C 89% Calm Calm 2.2 mph3.5 kmh 29.15 in987.1 mb 0.00 in0.0 mm 0.00 in0.0 mm 0.00 in0.0 mm
12:13 AM 37.9°F3.3°C 35.0°F1.7°C 89% 1.1 mph NNE1.8 kmh NNE 2.2 mph3.5 kmh 29.15 in987.1 mb 0.00 in0.0 mm 0.00 in0.0 mm 0.00 in0.0 mm
12:14 AM 37.9°F3.3°C 35.0°F1.7°C 89% Calm Calm 2.2 mph3.5 kmh 29.15 in987.1 mb 0.00 in0.0 mm 0.00 in0.0 mm 0.00 in0.0 mm
12:15 AM 37.9°F3.3°C 35.0°F1.7°C 89% 1.1 mph ESE1.8 kmh ESE 2.2 mph3.5 kmh 29.15 in987.1 mb 0.00 in0.0 mm 0.00 in0.0 mm 0.00 in0.0 mm
12:16 AM 37.9°F3.3°C 35.0°F1.7°C 89% Calm Calm 2.2 mph3.5 kmh 29.15 in987.1 mb 0.00 in0.0 mm 0.00 in0.0 mm 0.00 in0.0 mm
12:17 AM 37.9°F3.3°C 35.0°F1.7°C 89% Calm Calm 2.2 mph3.5 kmh 29.15 in987.1 mb 0.00 in0.0 mm 0.00 in0.0 mm 0.00 in0.0 mm
12:18 AM 37.9°F3.3°C 35.0°F1.7°C 89% 1.7 mph SSW2.7 kmh SSW 2.2 mph3.5 kmh 29.15 in987.1 mb 0.00 in0.0 mm 0.00 in0.0 mm 0.00 in0.0 mm
12:19 AM 37.9°F3.3°C 35.0°F1.7°C 89% Calm Calm 2.2 mph3.5 kmh 29.15 in987.1 mb 0.00 in0.0 mm 0.00 in0.0 mm 0.00 in0.0 mm
12:20 AM 37.9°F3.3°C 35.0°F1.7°C 89% 1.1 mph S1.8 kmh S 2.2 mph3.5 kmh 29.15 in987.1 mb 0.00 in0.0 mm 0.00 in0.0 mm 0.00 in0.0 mm
12:21 AM 37.9°F3.3°C 35.0°F1.7°C 89% 1.7 mph SSW2.7 kmh SSW 2.2 mph3.5 kmh 29.15 in987.1 mb 0.00 in0.0 mm 0.00 in0.0 mm 0.00 in0.0 mm
12:22 AM 37.8°F3.2°C 34.9°F1.6°C 89% Calm Calm 2.2 mph3.5 kmh 29.15 in987.1 mb 0.00 in0.0 mm 0.00 in0.0 mm 0.00 in0.0 mm
12:23 AM 37.8°F3.2°C 34.9°F1.6°C 89% Calm Calm 2.2 mph3.5 kmh 29.15 in987.1 mb 0.00 in0.0 mm 0.00 in0.0 mm 0.00 in0.0 mm
12:24 AM 37.8°F3.2°C 34.9°F1.6°C 89% Calm Calm 2.2 mph3.5 kmh 29.15 in987.1 mb 0.00 in0.0 mm 0.00 in0.0 mm 0.00 in0.0 mm
12:25 AM 37.8°F3.2°C 34.9°F1.6°C 89% Calm Calm 2.2 mph3.5 kmh 29.15 in987.1 mb 0.00 in0.0 mm 0.00 in0.0 mm 0.00 in0.0 mm
12:26 AM 37.8°F3.2°C 35.1°F1.7°C 90% Calm Calm 2.2 mph3.5 kmh 29.15 in987.1 mb 0.00 in0.0 mm 0.00 in0.0 mm 0.00 in0.0 mm
12:27 AM 37.8°F3.2°C 35.1°F1.7°C 90% Calm Calm 2.2 mph3.5 kmh 29.15 in987.1 mb 0.00 in0.0 mm 0.00 in0.0 mm 0.00 in0.0 mm
12:28 AM 37.8°F3.2°C 35.1°F1.7°C 90% 1.1 mph SSW1.8 kmh SSW 1.7 mph2.7 kmh 29.15 in987.1 mb 0.00 in0.0 mm 0.00 in0.0 mm 0.00 in0.0 mm
12:29 AM 37.8°F3.2°C 35.1°F1.7°C 90% 1.1 mph WSW1.8 kmh WSW 1.7 mph2.7 kmh 29.15 in987.1 mb 0.00 in0.0 mm 0.00 in0.0 mm 0.00 in0.0 mm
12:30 AM 37.8°F3.2°C 35.1°F1.7°C 90% Calm Calm 1.7 mph2.7 kmh 29.15 in987.1 mb 0.00 in0.0 mm 0.00 in0.0 mm 0.00 in0.0 mm
12:31 AM 37.8°F3.2°C 35.1°F1.7°C 90% Calm Calm 1.1 mph1.8 kmh 29.15 in987.1 mb 0.00 in0.0 mm 0.00 in0.0 mm 0.00 in0.0 mm
12:32 AM 37.8°F3.2°C 35.1°F1.7°C 90% Calm Calm 1.1 mph1.8 kmh 29.15 in987.1 mb 0.00 in0.0 mm 0.00 in0.0 mm 0.00 in0.0 mm
12:33 AM 37.8°F3.2°C 35.1°F1.7°C 90% Calm Calm 1.1 mph1.8 kmh 29.15 in987.1 mb 0.00 in0.0 mm 0.00 in0.0 mm 0.00 in0.0 mm
12:34 AM 37.8°F3.2°C 35.1°F1.7°C 90% Calm Calm 1.1 mph1.8 kmh 29.15 in987.1 mb 0.00 in0.0 mm 0.00 in0.0 mm 0.00 in0.0 mm
12:35 AM 37.8°F3.2°C 35.1°F1.7°C 90% Calm Calm 1.1 mph1.8 kmh 29.15 in987.1 mb 0.00 in0.0 mm 0.00 in0.0 mm 0.00 in0.0 mm
12:36 AM 37.8°F3.2°C 35.1°F1.7°C 90% 1.1 mph SSW1.8 kmh SSW 1.7 mph2.7 kmh 29.15 in987.1 mb 0.00 in0.0 mm 0.00 in0.0 mm 0.00 in0.0 mm
12:37 AM 37.8°F3.2°C 35.1°F1.7°C 90% 1.7 mph SW2.7 kmh SW 1.7 mph2.7 kmh 29.15 in987.1 mb 0.00 in0.0 mm 0.00 in0.0 mm 0.00 in0.0 mm
12:38 AM 37.8°F3.2°C 35.1°F1.7°C 90% 2.2 mph SW3.5 kmh SW 2.2 mph3.5 kmh 29.15 in987.1 mb 0.00 in0.0 mm 0.00 in0.0 mm 0.00 in0.0 mm
12:39 AM 37.8°F3.2°C 35.1°F1.7°C 90% 1.7 mph W2.7 kmh W 2.2 mph3.5 kmh 29.15 in987.1 mb 0.00 in0.0 mm 0.00 in0.0 mm 0.00 in0.0 mm
12:40 AM 37.8°F3.2°C 35.1°F1.7°C 90% 1.7 mph W2.7 kmh W 2.7 mph4.3 kmh 29.15 in987.1 mb 0.00 in0.0 mm 0.00 in0.0 mm 0.00 in0.0 mm
12:41 AM 37.6°F3.1°C 34.9°F1.6°C 90% 1.7 mph SW2.7 kmh SW 2.7 mph4.3 kmh 29.15 in987.1 mb 0.00 in0.0 mm 0.00 in0.0 mm 0.00 in0.0 mm
12:42 AM 37.6°F3.1°C 34.9°F1.6°C 90% 2.2 mph NW3.5 kmh NW 2.7 mph4.3 kmh 29.15 in987.1 mb 0.00 in0.0 mm 0.00 in0.0 mm 0.00 in0.0 mm
12:43 AM 37.6°F3.1°C 34.9°F1.6°C 90% 2.2 mph S3.5 kmh S 2.7 mph4.3 kmh 29.15 in987.1 mb 0.00 in0.0 mm 0.00 in0.0 mm 0.00 in0.0 mm
12:44 AM 37.6°F3.1°C 34.9°F1.6°C 90% 1.1 mph W1.8 kmh W 2.7 mph4.3 kmh 29.15 in987.1 mb 0.00 in0.0 mm 0.00 in0.0 mm 0.00 in0.0 mm
12:45 AM 37.6°F3.1°C 34.9°F1.6°C 90% 1.1 mph SSW1.8 kmh SSW 2.7 mph4.3 kmh 29.15 in987.1 mb 0.00 in0.0 mm 0.00 in0.0 mm 0.00 in0.0 mm
12:46 AM 37.4°F3.0°C 34.7°F1.5°C 90% 1.7 mph SW2.7 kmh SW 2.7 mph4.3 kmh 29.15 in987.1 mb 0.00 in0.0 mm 0.00 in0.0 mm 0.00 in0.0 mm
12:47 AM 37.4°F3.0°C 34.7°F1.5°C 90% 1.7 mph SSE2.7 kmh SSE 2.7 mph4.3 kmh 29.15 in987.1 mb 0.00 in0.0 mm 0.00 in0.0 mm 0.00 in0.0 mm
12:48 AM 37.4°F3.0°C 34.7°F1.5°C 90% 1.7 mph S2.7 kmh S 2.7 mph4.3 kmh 29.15 in987.1 mb 0.00 in0.0 mm 0.00 in0.0 mm 0.00 in0.0 mm
12:49 AM 37.2°F2.9°C 34.5°F1.4°C 90% 2.2 mph SSW3.5 kmh SSW 2.7 mph4.3 kmh 29.15 in987.1 mb 0.00 in0.0 mm 0.00 in0.0 mm 0.00 in0.0 mm
12:50 AM 37.2°F2.9°C 34.5°F1.4°C 90% 1.1 mph SSW1.8 kmh SSW 2.2 mph3.5 kmh 29.15 in987.1 mb 0.00 in0.0 mm 0.00 in0.0 mm 0.00 in0.0 mm
12:51 AM 37.2°F2.9°C 34.5°F1.4°C 90% 2.7 mph S4.3 kmh S 2.7 mph4.3 kmh 29.15 in987.1 mb 0.00 in0.0 mm 0.00 in0.0 mm 0.00 in0.0 mm
12:52 AM 37.2°F2.9°C 34.5°F1.4°C 90% 1.1 mph S1.8 kmh S 2.7 mph4.3 kmh 29.15 in987.1 mb 0.00 in0.0 mm 0.00 in0.0 mm 0.00 in0.0 mm
12:53 AM 37.2°F2.9°C 34.5°F1.4°C 90% 1.7 mph S2.7 kmh S 2.7 mph4.3 kmh 29.15 in987.1 mb 0.00 in0.0 mm 0.00 in0.0 mm 0.00 in0.0 mm
12:54 AM 37.2°F2.9°C 34.5°F1.4°C 90% Calm Calm 2.7 mph4.3 kmh 29.15 in987.1 mb 0.00 in0.0 mm 0.00 in0.0 mm 0.00 in0.0 mm
12:55 AM 37.2°F2.9°C 34.5°F1.4°C 90% 2.7 mph S4.3 kmh S 2.7 mph4.3 kmh 29.15 in987.1 mb 0.00 in0.0 mm 0.00 in0.0 mm 0.00 in0.0 mm
12:56 AM 37.0°F2.8°C 34.3°F1.3°C 90% 1.1 mph SSW1.8 kmh SSW 2.7 mph4.3 kmh 29.15 in987.1 mb 0.00 in0.0 mm 0.00 in0.0 mm 0.00 in0.0 mm
12:57 AM 37.0°F2.8°C 34.3°F1.3°C 90% 1.7 mph SSW2.7 kmh SSW 2.7 mph4.3 kmh 29.15 in987.1 mb 0.00 in0.0 mm 0.00 in0.0 mm 0.00 in0.0 mm
12:58 AM 36.9°F2.7°C 34.2°F1.2°C 90% 1.1 mph SW1.8 kmh SW 2.7 mph4.3 kmh 29.15 in987.1 mb 0.00 in0.0 mm 0.00 in0.0 mm 0.00 in0.0 mm
12:59 AM 36.9°F2.7°C 34.2°F1.2°C 90% 1.7 mph SSE2.7 kmh SSE 2.7 mph4.3 kmh 29.15 in987.1 mb 0.00 in0.0 mm 0.00 in0.0 mm 0.00 in0.0 mm
01:00 AM 36.9°F2.7°C 34.2°F1.2°C 90% 2.2 mph SW3.5 kmh SW 2.7 mph4.3 kmh 29.15 in987.1 mb 0.00 in0.0 mm 0.00 in0.0 mm 0.00 in0.0 mm
01:01 AM 36.7°F2.6°C 34.0°F1.1°C 90% 1.1 mph SW1.8 kmh SW 2.7 mph4.3 kmh 29.15 in987.1 mb 0.00 in0.0 mm 0.00 in0.0 mm 0.00 in0.0 mm
01:02 AM 36.7°F2.6°C 34.0°F1.1°C 90% 1.7 mph SW2.7 kmh SW 3.2 mph5.1 kmh 29.15 in987.1 mb 0.00 in0.0 mm 0.00 in0.0 mm 0.00 in0.0 mm
01:03 AM 36.5°F2.5°C 33.9°F1.1°C 90% 1.1 mph W1.8 kmh W 3.2 mph5.1 kmh 29.15 in987.1 mb 0.00 in0.0 mm 0.00 in0.0 mm 0.00 in0.0 mm
01:04 AM 36.5°F2.5°C 33.9°F1.1°C 90% 1.7 mph W2.7 kmh W 3.2 mph5.1 kmh 29.15 in987.1 mb 0.00 in0.0 mm 0.00 in0.0 mm 0.00 in0.0 mm
01:05 AM 36.5°F2.5°C 33.9°F1.1°C 90% 1.7 mph S2.7 kmh S 3.2 mph5.1 kmh 29.15 in987.1 mb 0.00 in0.0 mm 0.00 in0.0 mm 0.00 in0.0 mm
01:06 AM 36.5°F2.5°C 33.9°F1.1°C 90% Calm Calm 3.2 mph5.1 kmh 29.15 in987.1 mb 0.00 in0.0 mm 0.00 in0.0 mm 0.00 in0.0 mm
01:07 AM 36.5°F2.5°C 33.9°F1.1°C 90% 1.7 mph S2.7 kmh S 3.2 mph5.1 kmh 29.15 in987.1 mb 0.00 in0.0 mm 0.00 in0.0 mm 0.00 in0.0 mm
01:08 AM 36.5°F2.5°C 33.9°F1.1°C 90% 1.1 mph S1.8 kmh S 3.2 mph5.1 kmh 29.15 in987.1 mb 0.00 in0.0 mm 0.00 in0.0 mm 0.00 in0.0 mm
01:09 AM 36.5°F2.5°C 33.9°F1.1°C 90% Calm Calm 3.2 mph5.1 kmh 29.15 in987.1 mb 0.00 in0.0 mm 0.00 in0.0 mm 0.00 in0.0 mm
01:10 AM 36.5°F2.5°C 34.1°F1.2°C 91% 1.7 mph SSW2.7 kmh SSW 3.2 mph5.1 kmh 29.16 in987.5 mb 0.00 in0.0 mm 0.00 in0.0 mm 0.00 in0.0 mm
01:11 AM 36.5°F2.5°C 34.1°F1.2°C 91% 1.1 mph SSW1.8 kmh SSW 3.2 mph5.1 kmh 29.16 in987.5 mb 0.00 in0.0 mm 0.00 in0.0 mm 0.00 in0.0 mm
01:12 AM 36.5°F2.5°C 34.1°F1.2°C 91% 1.7 mph SW2.7 kmh SW 2.2 mph3.5 kmh 29.16 in987.5 mb 0.00 in0.0 mm 0.00 in0.0 mm 0.00 in0.0 mm
01:13 AM 36.5°F2.5°C 34.1°F1.2°C 91% 1.7 mph ESE2.7 kmh ESE 2.2 mph3.5 kmh 29.16 in987.5 mb 0.00 in0.0 mm 0.00 in0.0 mm 0.00 in0.0 mm
01:14 AM 36.5°F2.5°C 34.1°F1.2°C 91% 1.7 mph S2.7 kmh S 2.2 mph3.5 kmh 29.16 in987.5 mb 0.00 in0.0 mm 0.00 in0.0 mm 0.00 in0.0 mm
01:15 AM 36.3°F2.4°C 33.9°F1.1°C 91% Calm Calm 2.2 mph3.5 kmh 29.16 in987.5 mb 0.00 in0.0 mm 0.00 in0.0 mm 0.00 in0.0 mm
01:16 AM 36.3°F2.4°C 33.9°F1.1°C 91% 1.7 mph WNW2.7 kmh WNW 2.2 mph3.5 kmh 29.16 in987.5 mb 0.00 in0.0 mm 0.00 in0.0 mm 0.00 in0.0 mm
01:17 AM 36.3°F2.4°C 33.9°F1.1°C 91% Calm Calm 2.2 mph3.5 kmh 29.16 in987.5 mb 0.00 in0.0 mm 0.00 in0.0 mm 0.00 in0.0 mm
01:18 AM 36.3°F2.4°C 33.9°F1.1°C 91% Calm Calm 2.2 mph3.5 kmh 29.16 in987.5 mb 0.00 in0.0 mm 0.00 in0.0 mm 0.00 in0.0 mm
01:19 AM 36.3°F2.4°C 33.9°F1.1°C 91% Calm Calm 2.2 mph3.5 kmh 29.16 in987.5 mb 0.00 in0.0 mm 0.00 in0.0 mm 0.00 in0.0 mm
01:20 AM 36.3°F2.4°C 33.9°F1.1°C 91% 1.1 mph S1.8 kmh S 2.2 mph3.5 kmh 29.16 in987.5 mb 0.00 in0.0 mm 0.00 in0.0 mm 0.00 in0.0 mm
01:21 AM 36.3°F2.4°C 33.9°F1.1°C 91% Calm Calm 2.2 mph3.5 kmh 29.16 in987.5 mb 0.00 in0.0 mm 0.00 in0.0 mm 0.00 in0.0 mm
01:22 AM 36.3°F2.4°C 33.9°F1.1°C 91% Calm Calm 1.7 mph2.7 kmh 29.16 in987.5 mb 0.00 in0.0 mm 0.00 in0.0 mm 0.00 in0.0 mm
01:23 AM 36.3°F2.4°C 33.9°F1.1°C 91% Calm Calm 1.7 mph2.7 kmh 29.16 in987.5 mb 0.00 in0.0 mm 0.00 in0.0 mm 0.00 in0.0 mm
01:24 AM 36.3°F2.4°C 33.9°F1.1°C 91% Calm Calm 1.7 mph2.7 kmh 29.16 in987.5 mb 0.00 in0.0 mm 0.00 in0.0 mm 0.00 in0.0 mm
01:25 AM 36.3°F2.4°C 34.2°F1.2°C 92% Calm Calm 1.7 mph2.7 kmh 29.16 in987.5 mb 0.00 in0.0 mm 0.00 in0.0 mm 0.00 in0.0 mm
01:26 AM 36.3°F2.4°C 34.2°F1.2°C 92% Calm Calm 1.7 mph2.7 kmh 29.16 in987.5 mb 0.00 in0.0 mm 0.00 in0.0 mm 0.00 in0.0 mm
01:27 AM 36.3°F2.4°C 34.2°F1.2°C 92% Calm Calm 1.7 mph2.7 kmh 29.16 in987.5 mb 0.00 in0.0 mm 0.00 in0.0 mm 0.00 in0.0 mm
01:28 AM 36.3°F2.4°C 34.2°F1.2°C 92% 1.1 mph SW1.8 kmh SW 1.7 mph2.7 kmh 29.16 in987.5 mb 0.00 in0.0 mm 0.00 in0.0 mm 0.00 in0.0 mm
01:29 AM 36.3°F2.4°C 34.2°F1.2°C 92% 1.7 mph W2.7 kmh W 1.7 mph2.7 kmh 29.16 in987.5 mb 0.00 in0.0 mm 0.00 in0.0 mm 0.00 in0.0 mm
01:30 AM 36.3°F2.4°C 34.2°F1.2°C 92% 1.1 mph SW1.8 kmh SW 1.7 mph2.7 kmh 29.16 in987.5 mb 0.00 in0.0 mm 0.00 in0.0 mm 0.00 in0.0 mm
01:31 AM 36.3°F2.4°C 34.2°F1.2°C 92% Calm Calm 1.7 mph2.7 kmh 29.16 in987.5 mb 0.00 in0.0 mm 0.00 in0.0 mm 0.00 in0.0 mm
01:32 AM 36.3°F2.4°C 34.2°F1.2°C 92% Calm Calm 1.7 mph2.7 kmh 29.16 in987.5 mb 0.00 in0.0 mm 0.00 in0.0 mm 0.00 in0.0 mm
01:33 AM 36.3°F2.4°C 34.2°F1.2°C 92% 2.7 mph SE4.3 kmh SE 2.7 mph4.3 kmh 29.17 in987.8 mb 0.00 in0.0 mm 0.00 in0.0 mm 0.00 in0.0 mm
01:34 AM 36.3°F2.4°C 34.2°F1.2°C 92% 1.1 mph S1.8 kmh S 2.7 mph4.3 kmh 29.17 in987.8 mb 0.00 in0.0 mm 0.00 in0.0 mm 0.00 in0.0 mm
01:35 AM 36.3°F2.4°C 34.2°F1.2°C 92% 1.7 mph SSW2.7 kmh SSW 2.7 mph4.3 kmh 29.17 in987.8 mb 0.00 in0.0 mm 0.00 in0.0 mm 0.00 in0.0 mm
01:36 AM 36.3°F2.4°C 34.2°F1.2°C 92% 2.2 mph SSW3.5 kmh SSW 2.7 mph4.3 kmh 29.17 in987.8 mb 0.00 in0.0 mm 0.00 in0.0 mm 0.00 in0.0 mm
01:37 AM 36.3°F2.4°C 34.2°F1.2°C 92% 1.1 mph SW1.8 kmh SW 2.7 mph4.3 kmh 29.17 in987.8 mb 0.00 in0.0 mm 0.00 in0.0 mm 0.00 in0.0 mm
01:38 AM 36.3°F2.4°C 34.2°F1.2°C 92% 1.7 mph SW2.7 kmh SW 2.7 mph4.3 kmh 29.17 in987.8 mb 0.00 in0.0 mm 0.00 in0.0 mm 0.00 in0.0 mm
01:39 AM 36.3°F2.4°C 34.2°F1.2°C 92% 1.7 mph SW2.7 kmh SW 2.7 mph4.3 kmh 29.17 in987.8 mb 0.00 in0.0 mm 0.00 in0.0 mm 0.00 in0.0 mm
01:40 AM 36.3°F2.4°C 34.2°F1.2°C 92% 1.7 mph S2.7 kmh S 2.7 mph4.3 kmh 29.17 in987.8 mb 0.00 in0.0 mm 0.00 in0.0 mm 0.00 in0.0 mm
01:41 AM 36.3°F2.4°C 34.2°F1.2°C 92% 1.7 mph E2.7 kmh E 2.7 mph4.3 kmh 29.17 in987.8 mb 0.00 in0.0 mm 0.00 in0.0 mm 0.00 in0.0 mm
01:42 AM 36.3°F2.4°C 34.2°F1.2°C 92% 1.7 mph SSW2.7 kmh SSW 2.7 mph4.3 kmh 29.17 in987.8 mb 0.00 in0.0 mm 0.00 in0.0 mm 0.00 in0.0 mm
01:43 AM 36.1°F2.3°C 34.0°F1.1°C 92% 2.7 mph NNE4.3 kmh NNE 2.7 mph4.3 kmh 29.17 in987.8 mb 0.00 in0.0 mm 0.00 in0.0 mm 0.00 in0.0 mm
01:44 AM 36.1°F2.3°C 34.0°F1.1°C 92% 2.2 mph S3.5 kmh S 2.7 mph4.3 kmh 29.17 in987.8 mb 0.00 in0.0 mm 0.00 in0.0 mm 0.00 in0.0 mm
01:45 AM 36.1°F2.3°C 34.0°F1.1°C 92% 2.7 mph SW4.3 kmh SW 2.7 mph4.3 kmh 29.17 in987.8 mb 0.00 in0.0 mm 0.00 in0.0 mm 0.00 in0.0 mm
01:46 AM 36.1°F2.3°C 34.0°F1.1°C 92% 1.1 mph S1.8 kmh S 2.7 mph4.3 kmh 29.18 in988.1 mb 0.00 in0.0 mm 0.00 in0.0 mm 0.00 in0.0 mm
01:47 AM 36.1°F2.3°C 34.0°F1.1°C 92% 2.2 mph SSW3.5 kmh SSW 2.7 mph4.3 kmh 29.18 in988.1 mb 0.00 in0.0 mm 0.00 in0.0 mm 0.00 in0.0 mm
01:48 AM 36.1°F2.3°C 34.0°F1.1°C 92% 1.7 mph S2.7 kmh S 2.7 mph4.3 kmh 29.18 in988.1 mb 0.00 in0.0 mm 0.00 in0.0 mm 0.00 in0.0 mm
01:49 AM 36.1°F2.3°C 34.0°F1.1°C 92% 1.1 mph SW1.8 kmh SW 2.7 mph4.3 kmh 29.18 in988.1 mb 0.00 in0.0 mm 0.00 in0.0 mm 0.00 in0.0 mm
01:50 AM 36.0°F2.2°C 33.9°F1.1°C 92% 2.2 mph S3.5 kmh S 2.7 mph4.3 kmh 29.18 in988.1 mb 0.00 in0.0 mm 0.00 in0.0 mm 0.00 in0.0 mm
01:51 AM 36.0°F2.2°C 33.9°F1.1°C 92% 1.7 mph WSW2.7 kmh WSW 2.7 mph4.3 kmh 29.18 in988.1 mb 0.00 in0.0 mm 0.00 in0.0 mm 0.00 in0.0 mm
01:52 AM 36.0°F2.2°C 33.9°F1.1°C 92% 2.2 mph SSW3.5 kmh SSW 2.7 mph4.3 kmh 29.18 in988.1 mb 0.00 in0.0 mm 0.00 in0.0 mm 0.00 in0.0 mm
01:53 AM 36.0°F2.2°C 33.9°F1.1°C 92% 1.1 mph SSW1.8 kmh SSW 2.7 mph4.3 kmh 29.18 in988.1 mb 0.00 in0.0 mm 0.00 in0.0 mm 0.00 in0.0 mm
01:54 AM 36.0°F2.2°C 33.9°F1.1°C 92% 1.1 mph SSW1.8 kmh SSW 2.7 mph4.3 kmh 29.18 in988.1 mb 0.00 in0.0 mm 0.00 in0.0 mm 0.00 in0.0 mm
01:55 AM 36.0°F2.2°C 33.9°F1.1°C 92% 1.1 mph S1.8 kmh S 2.2 mph3.5 kmh 29.18 in988.1 mb 0.00 in0.0 mm 0.00 in0.0 mm 0.00 in0.0 mm
01:56 AM 36.0°F2.2°C 33.9°F1.1°C 92% 2.2 mph S3.5 kmh S 2.2 mph3.5 kmh 29.18 in988.1 mb 0.00 in0.0 mm 0.00 in0.0 mm 0.00 in0.0 mm
01:57 AM 36.0°F2.2°C 33.9°F1.1°C 92% Calm Calm 2.2 mph3.5 kmh 29.18 in988.1 mb 0.00 in0.0 mm 0.00 in0.0 mm 0.00 in0.0 mm
01:58 AM 36.0°F2.2°C 33.9°F1.1°C 92% 1.7 mph SSW2.7 kmh SSW 2.2 mph3.5 kmh 29.18 in988.1 mb 0.00 in0.0 mm 0.00 in0.0 mm 0.00 in0.0 mm
01:59 AM 36.0°F2.2°C 33.9°F1.1°C 92% 1.1 mph SSW1.8 kmh SSW 2.2 mph3.5 kmh 29.18 in988.1 mb 0.00 in0.0 mm 0.00 in0.0 mm 0.00 in0.0 mm
02:00 AM 36.0°F2.2°C 33.9°F1.1°C 92% 2.7 mph ENE4.3 kmh ENE 2.7 mph4.3 kmh 29.18 in988.1 mb 0.00 in0.0 mm 0.00 in0.0 mm 0.00 in0.0 mm
02:01 AM 36.0°F2.2°C 33.9°F1.1°C 92% 1.1 mph SSW1.8 kmh SSW 3.2 mph5.1 kmh 29.18 in988.1 mb 0.00 in0.0 mm 0.00 in0.0 mm 0.00 in0.0 mm
02:02 AM 36.0°F2.2°C 33.9°F1.1°C 92% 1.1 mph SW1.8 kmh SW 3.2 mph5.1 kmh 29.18 in988.1 mb 0.00 in0.0 mm 0.00 in0.0 mm 0.00 in0.0 mm
02:03 AM 36.0°F2.2°C 33.9°F1.1°C 92% Calm Calm 3.2 mph5.1 kmh 29.18 in988.1 mb 0.00 in0.0 mm 0.00 in0.0 mm 0.00 in0.0 mm
02:04 AM 36.0°F2.2°C 33.9°F1.1°C 92% Calm Calm 3.2 mph5.1 kmh 29.18 in988.1 mb 0.00 in0.0 mm 0.00 in0.0 mm 0.00 in0.0 mm
02:05 AM 36.0°F2.2°C 33.9°F1.1°C 92% 1.7 mph SSW2.7 kmh SSW 3.2 mph5.1 kmh 29.18 in988.1 mb 0.00 in0.0 mm 0.00 in0.0 mm 0.00 in0.0 mm
02:06 AM 36.0°F2.2°C 33.9°F1.1°C 92% 1.1 mph SW1.8 kmh SW 3.2 mph5.1 kmh 29.18 in988.1 mb 0.00 in0.0 mm 0.00 in0.0 mm 0.00 in0.0 mm
02:07 AM 36.0°F2.2°C 33.9°F1.1°C 92% 1.7 mph SW2.7 kmh SW 3.2 mph5.1 kmh 29.18 in988.1 mb 0.00 in0.0 mm 0.00 in0.0 mm 0.00 in0.0 mm
02:08 AM 36.0°F2.2°C 33.9°F1.1°C 92% 1.1 mph SSW1.8 kmh SSW 3.2 mph5.1 kmh 29.18 in988.1 mb 0.00 in0.0 mm 0.00 in0.0 mm 0.00 in0.0 mm
02:09 AM 36.0°F2.2°C 33.9°F1.1°C 92% 1.7 mph SSW2.7 kmh SSW 3.2 mph5.1 kmh 29.18 in988.1 mb 0.00 in0.0 mm 0.00 in0.0 mm 0.00 in0.0 mm
02:10 AM 36.0°F2.2°C 33.9°F1.1°C 92% 1.1 mph SSW1.8 kmh SSW 3.2 mph5.1 kmh 29.18 in988.1 mb 0.00 in0.0 mm 0.00 in0.0 mm 0.00 in0.0 mm
02:11 AM 36.0°F2.2°C 33.9°F1.1°C 92% 1.7 mph SSE2.7 kmh SSE 1.7 mph2.7 kmh 29.18 in988.1 mb 0.00 in0.0 mm 0.00 in0.0 mm 0.00 in0.0 mm
02:12 AM 36.0°F2.2°C 33.9°F1.1°C 92% Calm Calm 1.7 mph2.7 kmh 29.18 in988.1 mb 0.00 in0.0 mm 0.00 in0.0 mm 0.00 in0.0 mm
02:13 AM 36.0°F2.2°C 33.9°F1.1°C 92% Calm Calm 1.7 mph2.7 kmh 29.18 in988.1 mb 0.00 in0.0 mm 0.00 in0.0 mm 0.00 in0.0 mm
02:14 AM 36.0°F2.2°C 33.9°F1.1°C 92% Calm Calm 1.7 mph2.7 kmh 29.18 in988.1 mb 0.00 in0.0 mm 0.00 in0.0 mm 0.00 in0.0 mm
02:15 AM 36.0°F2.2°C 33.9°F1.1°C 92% Calm Calm 1.7 mph2.7 kmh 29.18 in988.1 mb 0.00 in0.0 mm 0.00 in0.0 mm 0.00 in0.0 mm
02:16 AM 36.0°F2.2°C 33.9°F1.1°C 92% Calm Calm 1.7 mph2.7 kmh 29.18 in988.1 mb 0.00 in0.0 mm 0.00 in0.0 mm 0.00 in0.0 mm
02:17 AM 36.0°F2.2°C 33.9°F1.1°C 92% Calm Calm 1.7 mph2.7 kmh 29.18 in988.1 mb 0.00 in0.0 mm 0.00 in0.0 mm 0.00 in0.0 mm
02:18 AM 36.0°F2.2°C 33.9°F1.1°C 92% 2.2 mph W3.5 kmh W 2.2 mph3.5 kmh 29.18 in988.1 mb 0.00 in0.0 mm 0.00 in0.0 mm 0.00 in0.0 mm
02:19 AM 36.0°F2.2°C 33.9°F1.1°C 92% Calm Calm 2.2 mph3.5 kmh 29.18 in988.1 mb 0.00 in0.0 mm 0.00 in0.0 mm 0.00 in0.0 mm
02:20 AM 36.0°F2.2°C 34.2°F1.2°C 93% Calm Calm 2.2 mph3.5 kmh 29.18 in988.1 mb 0.00 in0.0 mm 0.00 in0.0 mm 0.00 in0.0 mm
02:21 AM 36.0°F2.2°C 34.2°F1.2°C 93% Calm Calm 2.2 mph3.5 kmh 29.18 in988.1 mb 0.00 in0.0 mm 0.00 in0.0 mm 0.00 in0.0 mm
02:22 AM 36.0°F2.2°C 34.2°F1.2°C 93% Calm Calm 2.2 mph3.5 kmh 29.18 in988.1 mb 0.00 in0.0 mm 0.00 in0.0 mm 0.00 in0.0 mm
02:23 AM 36.0°F2.2°C 34.2°F1.2°C 93% 1.1 mph SSW1.8 kmh SSW 2.2 mph3.5 kmh 29.18 in988.1 mb 0.00 in0.0 mm 0.00 in0.0 mm 0.00 in0.0 mm
02:24 AM 36.0°F2.2°C 34.2°F1.2°C 93% 1.1 mph SSE1.8 kmh SSE 2.2 mph3.5 kmh 29.18 in988.1 mb 0.00 in0.0 mm 0.00 in0.0 mm 0.00 in0.0 mm
02:25 AM 36.0°F2.2°C 34.2°F1.2°C 93% 1.7 mph W2.7 kmh W 2.2 mph3.5 kmh 29.18 in988.1 mb 0.00 in0.0 mm 0.00 in0.0 mm 0.00 in0.0 mm
02:26 AM 35.8°F2.1°C 34.0°F1.1°C 93% 1.1 mph SSW1.8 kmh SSW 2.2 mph3.5 kmh 29.18 in988.1 mb 0.00 in0.0 mm 0.00 in0.0 mm 0.00 in0.0 mm
02:27 AM 35.6°F2.0°C 33.8°F1.0°C 93% Calm Calm 2.2 mph3.5 kmh 29.18 in988.1 mb 0.00 in0.0 mm 0.00 in0.0 mm 0.00 in0.0 mm
02:28 AM 35.6°F2.0°C 33.8°F1.0°C 93% 1.7 mph S2.7 kmh S 2.2 mph3.5 kmh 29.18 in988.1 mb 0.00 in0.0 mm 0.00 in0.0 mm 0.00 in0.0 mm
02:29 AM 35.6°F2.0°C 33.8°F1.0°C 93% 1.7 mph W2.7 kmh W 1.7 mph2.7 kmh 29.18 in988.1 mb 0.00 in0.0 mm 0.00 in0.0 mm 0.00 in0.0 mm
02:30 AM 35.6°F2.0°C 33.8°F1.0°C 93% 1.7 mph SSW2.7 kmh SSW 1.7 mph2.7 kmh 29.18 in988.1 mb 0.00 in0.0 mm 0.00 in0.0 mm 0.00 in0.0 mm
02:31 AM 35.6°F2.0°C 33.8°F1.0°C 93% 1.1 mph W1.8 kmh W 1.7 mph2.7 kmh 29.18 in988.1 mb 0.00 in0.0 mm 0.00 in0.0 mm 0.00 in0.0 mm
02:32 AM 35.6°F2.0°C 33.8°F1.0°C 93% 1.7 mph NW2.7 kmh NW 1.7 mph2.7 kmh 29.18 in988.1 mb 0.00 in0.0 mm 0.00 in0.0 mm 0.00 in0.0 mm
02:33 AM 35.4°F1.9°C 33.6°F0.9°C 93% 1.7 mph SW2.7 kmh SW 1.7 mph2.7 kmh 29.18 in988.1 mb 0.00 in0.0 mm 0.00 in0.0 mm 0.00 in0.0 mm
02:34 AM 35.4°F1.9°C 33.6°F0.9°C 93% 1.1 mph S1.8 kmh S 1.7 mph2.7 kmh 29.18 in988.1 mb 0.00 in0.0 mm 0.00 in0.0 mm 0.00 in0.0 mm
02:35 AM 35.4°F1.9°C 33.6°F0.9°C 93% 1.7 mph SSW2.7 kmh SSW 1.7 mph2.7 kmh 29.18 in988.1 mb 0.00 in0.0 mm 0.00 in0.0 mm 0.00 in0.0 mm
02:36 AM 35.4°F1.9°C 33.6°F0.9°C 93% 1.7 mph SSW2.7 kmh SSW 2.7 mph4.3 kmh 29.18 in988.1 mb 0.00 in0.0 mm 0.00 in0.0 mm 0.00 in0.0 mm
02:37 AM 35.4°F1.9°C 33.6°F0.9°C 93% 1.1 mph SW1.8 kmh SW 2.7 mph4.3 kmh 29.18 in988.1 mb 0.00 in0.0 mm 0.00 in0.0 mm 0.00 in0.0 mm
02:38 AM 35.4°F1.9°C 33.6°F0.9°C 93% 1.7 mph S2.7 kmh S 2.7 mph4.3 kmh 29.18 in988.1 mb 0.00 in0.0 mm 0.00 in0.0 mm 0.00 in0.0 mm
02:39 AM 35.4°F1.9°C 33.6°F0.9°C 93% 1.7 mph SSW2.7 kmh SSW 2.7 mph4.3 kmh 29.18 in988.1 mb 0.00 in0.0 mm 0.00 in0.0 mm 0.00 in0.0 mm
02:40 AM 35.4°F1.9°C 33.6°F0.9°C 93% 1.1 mph SSW1.8 kmh SSW 2.7 mph4.3 kmh 29.18 in988.1 mb 0.00 in0.0 mm 0.00 in0.0 mm 0.00 in0.0 mm
02:41 AM 35.4°F1.9°C 33.6°F0.9°C 93% 1.1 mph WSW1.8 kmh WSW 2.7 mph4.3 kmh 29.18 in988.1 mb 0.00 in0.0 mm 0.00 in0.0 mm 0.00 in0.0 mm
02:42 AM 35.4°F1.9°C 33.6°F0.9°C 93% 2.2 mph NNE3.5 kmh NNE 2.7 mph4.3 kmh 29.18 in988.1 mb 0.00 in0.0 mm 0.00 in0.0 mm 0.00 in0.0 mm
02:43 AM 35.4°F1.9°C 33.6°F0.9°C 93% 2.7 mph S4.3 kmh S 2.7 mph4.3 kmh 29.18 in988.1 mb 0.00 in0.0 mm 0.00 in0.0 mm 0.00 in0.0 mm
02:44 AM 35.4°F1.9°C 33.6°F0.9°C 93% 2.2 mph SW3.5 kmh SW 2.7 mph4.3 kmh 29.18 in988.1 mb 0.00 in0.0 mm 0.00 in0.0 mm 0.00 in0.0 mm
02:45 AM 35.4°F1.9°C 33.6°F0.9°C 93% 2.2 mph NNE3.5 kmh NNE 2.7 mph4.3 kmh 29.18 in988.1 mb 0.00 in0.0 mm 0.00 in0.0 mm 0.00 in0.0 mm
02:46 AM 35.4°F1.9°C 33.6°F0.9°C 93% 1.7 mph WSW2.7 kmh WSW 2.7 mph4.3 kmh 29.18 in988.1 mb 0.00 in0.0 mm 0.00 in0.0 mm 0.00 in0.0 mm
02:47 AM 35.4°F1.9°C 33.6°F0.9°C 93% 1.7 mph WSW2.7 kmh WSW 2.7 mph4.3 kmh 29.18 in988.1 mb 0.00 in0.0 mm 0.00 in0.0 mm 0.00 in0.0 mm
02:48 AM 35.4°F1.9°C 33.6°F0.9°C 93% 1.1 mph S1.8 kmh S 2.7 mph4.3 kmh 29.18 in988.1 mb 0.00 in0.0 mm 0.00 in0.0 mm 0.00 in0.0 mm
02:49 AM 35.4°F1.9°C 33.6°F0.9°C 93% 1.7 mph S2.7 kmh S 2.7 mph4.3 kmh 29.18 in988.1 mb 0.00 in0.0 mm 0.00 in0.0 mm 0.00 in0.0 mm
02:50 AM 35.4°F1.9°C 33.6°F0.9°C 93% 1.1 mph SW1.8 kmh SW 2.7 mph4.3 kmh 29.18 in988.1 mb 0.00 in0.0 mm 0.00 in0.0 mm 0.00 in0.0 mm
02:51 AM 35.2°F1.8°C 33.4°F0.8°C 93% 1.1 mph W1.8 kmh W 2.7 mph4.3 kmh 29.18 in988.1 mb 0.00 in0.0 mm 0.00 in0.0 mm 0.00 in0.0 mm
02:52 AM 35.2°F1.8°C 33.4°F0.8°C 93% Calm Calm 2.7 mph4.3 kmh 29.18 in988.1 mb 0.00 in0.0 mm 0.00 in0.0 mm 0.00 in0.0 mm
02:53 AM 35.2°F1.8°C 33.4°F0.8°C 93% 1.7 mph S2.7 kmh S 2.2 mph3.5 kmh 29.18 in988.1 mb 0.00 in0.0 mm 0.00 in0.0 mm 0.00 in0.0 mm
02:54 AM 35.2°F1.8°C 33.4°F0.8°C 93% 1.1 mph SSW1.8 kmh SSW 2.2 mph3.5 kmh 29.18 in988.1 mb 0.00 in0.0 mm 0.00 in0.0 mm 0.00 in0.0 mm
02:55 AM 35.2°F1.8°C 33.4°F0.8°C 93% 2.2 mph SW3.5 kmh SW 2.2 mph3.5 kmh 29.18 in988.1 mb 0.00 in0.0 mm 0.00 in0.0 mm 0.00 in0.0 mm
02:56 AM 35.2°F1.8°C 33.4°F0.8°C 93% 1.1 mph SSW1.8 kmh SSW 2.2 mph3.5 kmh 29.18 in988.1 mb 0.00 in0.0 mm 0.00 in0.0 mm 0.00 in0.0 mm
02:57 AM 35.2°F1.8°C 33.4°F0.8°C 93% 1.7 mph S2.7 kmh S 2.2 mph3.5 kmh 29.18 in988.1 mb 0.00 in0.0 mm 0.00 in0.0 mm 0.00 in0.0 mm
02:58 AM 35.2°F1.8°C 33.4°F0.8°C 93% 1.7 mph W2.7 kmh W 2.2 mph3.5 kmh 29.18 in988.1 mb 0.00 in0.0 mm 0.00 in0.0 mm 0.00 in0.0 mm
02:59 AM 35.2°F1.8°C 33.4°F0.8°C 93% 1.1 mph SW1.8 kmh SW 2.2 mph3.5 kmh 29.18 in988.1 mb 0.00 in0.0 mm 0.00 in0.0 mm 0.00 in0.0 mm
03:00 AM 35.2°F1.8°C 33.4°F0.8°C 93% 2.7 mph SSW4.3 kmh SSW 2.7 mph4.3 kmh 29.18 in988.1 mb 0.00 in0.0 mm 0.00 in0.0 mm 0.00 in0.0 mm
03:01 AM 35.2°F1.8°C 33.4°F0.8°C 93% 2.7 mph ESE4.3 kmh ESE 2.7 mph4.3 kmh 29.18 in988.1 mb 0.00 in0.0 mm 0.00 in0.0 mm 0.00 in0.0 mm
03:02 AM 35.2°F1.8°C 33.4°F0.8°C 93% 1.7 mph S2.7 kmh S 2.7 mph4.3 kmh 29.18 in988.1 mb 0.00 in0.0 mm 0.00 in0.0 mm 0.00 in0.0 mm
03:03 AM 35.2°F1.8°C 33.4°F0.8°C 93% 1.1 mph SSW1.8 kmh SSW 2.7 mph4.3 kmh 29.18 in988.1 mb 0.00 in0.0 mm 0.00 in0.0 mm 0.00 in0.0 mm
03:04 AM 35.2°F1.8°C 33.4°F0.8°C 93% Calm Calm 2.7 mph4.3 kmh 29.18 in988.1 mb 0.00 in0.0 mm 0.00 in0.0 mm 0.00 in0.0 mm
03:05 AM 35.2°F1.8°C 33.4°F0.8°C 93% 1.7 mph SSW2.7 kmh SSW 2.7 mph4.3 kmh 29.18 in988.1 mb 0.00 in0.0 mm 0.00 in0.0 mm 0.00 in0.0 mm
03:06 AM 35.2°F1.8°C 33.4°F0.8°C 93% 1.7 mph S2.7 kmh S 2.7 mph4.3 kmh 29.18 in988.1 mb 0.00 in0.0 mm 0.00 in0.0 mm 0.00 in0.0 mm
03:07 AM 35.2°F1.8°C 33.4°F0.8°C 93% 2.2 mph WSW3.5 kmh WSW 2.7 mph4.3 kmh 29.18 in988.1 mb 0.00 in0.0 mm 0.00 in0.0 mm 0.00 in0.0 mm
03:08 AM 35.2°F1.8°C 33.4°F0.8°C 93% 2.2 mph SW3.5 kmh SW 3.7 mph6.0 kmh 29.18 in988.1 mb 0.00 in0.0 mm 0.00 in0.0 mm 0.00 in0.0 mm
03:09 AM 35.1°F1.7°C 33.3°F0.7°C 93% 2.7 mph S4.3 kmh S 3.7 mph6.0 kmh 29.18 in988.1 mb 0.00 in0.0 mm 0.00 in0.0 mm 0.00 in0.0 mm
03:10 AM 35.1°F1.7°C 33.3°F0.7°C 93% 1.7 mph SW2.7 kmh SW 3.7 mph6.0 kmh 29.18 in988.1 mb 0.00 in0.0 mm 0.00 in0.0 mm 0.00 in0.0 mm
03:11 AM 35.1°F1.7°C 33.3°F0.7°C 93% 2.2 mph SSW3.5 kmh SSW 3.7 mph6.0 kmh 29.18 in988.1 mb 0.00 in0.0 mm 0.00 in0.0 mm 0.00 in0.0 mm
03:12 AM 35.1°F1.7°C 33.3°F0.7°C 93% 2.2 mph SSW3.5 kmh SSW 3.7 mph6.0 kmh 29.18 in988.1 mb 0.00 in0.0 mm 0.00 in0.0 mm 0.00 in0.0 mm
03:13 AM 35.1°F1.7°C 33.3°F0.7°C 93% 2.7 mph SSE4.3 kmh SSE 3.7 mph6.0 kmh 29.18 in988.1 mb 0.00 in0.0 mm 0.00 in0.0 mm 0.00 in0.0 mm
03:14 AM 35.1°F1.7°C 33.3°F0.7°C 93% 1.7 mph ENE2.7 kmh ENE 3.7 mph6.0 kmh 29.18 in988.1 mb 0.00 in0.0 mm 0.00 in0.0 mm 0.00 in0.0 mm
03:15 AM 35.1°F1.7°C 33.3°F0.7°C 93% 1.7 mph SSW2.7 kmh SSW 3.7 mph6.0 kmh 29.18 in988.1 mb 0.00 in0.0 mm 0.00 in0.0 mm 0.00 in0.0 mm
03:16 AM 35.1°F1.7°C 33.3°F0.7°C 93% 1.7 mph SSW2.7 kmh SSW 3.7 mph6.0 kmh 29.18 in988.1 mb 0.00 in0.0 mm 0.00 in0.0 mm 0.00 in0.0 mm
03:17 AM 35.1°F1.7°C 33.3°F0.7°C 93% 1.7 mph SSW2.7 kmh SSW 3.7 mph6.0 kmh 29.18 in988.1 mb 0.00 in0.0 mm 0.00 in0.0 mm 0.00 in0.0 mm
03:18 AM 35.1°F1.7°C 33.3°F0.7°C 93% 2.2 mph S3.5 kmh S 3.2 mph5.1 kmh 29.18 in988.1 mb 0.00 in0.0 mm 0.00 in0.0 mm 0.00 in0.0 mm
03:19 AM 35.1°F1.7°C 33.3°F0.7°C 93% 1.7 mph W2.7 kmh W 3.2 mph5.1 kmh 29.18 in988.1 mb 0.00 in0.0 mm 0.00 in0.0 mm 0.00 in0.0 mm
03:20 AM 35.1°F1.7°C 33.3°F0.7°C 93% 1.7 mph SSW2.7 kmh SSW 3.2 mph5.1 kmh 29.18 in988.1 mb 0.00 in0.0 mm 0.00 in0.0 mm 0.00 in0.0 mm
03:21 AM 35.1°F1.7°C 33.3°F0.7°C 93% 2.2 mph SSE3.5 kmh SSE 3.2 mph5.1 kmh 29.18 in988.1 mb 0.00 in0.0 mm 0.00 in0.0 mm 0.00 in0.0 mm
03:22 AM 34.9°F1.6°C 33.1°F0.6°C 93% 1.1 mph SSW1.8 kmh SSW 3.2 mph5.1 kmh 29.18 in988.1 mb 0.00 in0.0 mm 0.00 in0.0 mm 0.00 in0.0 mm
03:23 AM 34.9°F1.6°C 33.1°F0.6°C 93% 1.7 mph SW2.7 kmh SW 3.2 mph5.1 kmh 29.18 in988.1 mb 0.00 in0.0 mm 0.00 in0.0 mm 0.00 in0.0 mm
03:24 AM 34.9°F1.6°C 33.1°F0.6°C 93% 1.1 mph SSW1.8 kmh SSW 2.7 mph4.3 kmh 29.18 in988.1 mb 0.00 in0.0 mm 0.00 in0.0 mm 0.00 in0.0 mm
03:25 AM 34.9°F1.6°C 33.1°F0.6°C 93% 2.2 mph WNW3.5 kmh WNW 2.2 mph3.5 kmh 29.18 in988.1 mb 0.00 in0.0 mm 0.00 in0.0 mm 0.00 in0.0 mm
03:26 AM 34.9°F1.6°C 33.1°F0.6°C 93% Calm Calm 2.2 mph3.5 kmh 29.18 in988.1 mb 0.00 in0.0 mm 0.00 in0.0 mm 0.00 in0.0 mm
03:27 AM 34.9°F1.6°C 33.1°F0.6°C 93% 1.7 mph SW2.7 kmh SW 2.2 mph3.5 kmh 29.18 in988.1 mb 0.00 in0.0 mm 0.00 in0.0 mm 0.00 in0.0 mm
03:28 AM 34.9°F1.6°C 33.1°F0.6°C 93% 1.7 mph SW2.7 kmh SW 2.2 mph3.5 kmh 29.18 in988.1 mb 0.00 in0.0 mm 0.00 in0.0 mm 0.00 in0.0 mm
03:29 AM 34.9°F1.6°C 33.1°F0.6°C 93% 1.7 mph W2.7 kmh W 2.2 mph3.5 kmh 29.18 in988.1 mb 0.00 in0.0 mm 0.00 in0.0 mm 0.00 in0.0 mm
03:30 AM 34.9°F1.6°C 33.1°F0.6°C 93% Calm Calm 2.2 mph3.5 kmh 29.18 in988.1 mb 0.00 in0.0 mm 0.00 in0.0 mm 0.00 in0.0 mm
03:31 AM 34.9°F1.6°C 33.1°F0.6°C 93% 1.7 mph SW2.7 kmh SW 2.2 mph3.5 kmh 29.18 in988.1 mb 0.00 in0.0 mm 0.00 in0.0 mm 0.00 in0.0 mm
03:32 AM 34.9°F1.6°C 33.1°F0.6°C 93% 1.7 mph SSW2.7 kmh SSW 2.2 mph3.5 kmh 29.18 in988.1 mb 0.00 in0.0 mm 0.00 in0.0 mm 0.00 in0.0 mm
03:33 AM 34.9°F1.6°C 33.1°F0.6°C 93% Calm Calm 2.2 mph3.5 kmh 29.18 in988.1 mb 0.00 in0.0 mm 0.00 in0.0 mm 0.00 in0.0 mm
03:34 AM 34.9°F1.6°C 33.1°F0.6°C 93% Calm Calm 2.2 mph3.5 kmh 29.18 in988.1 mb 0.00 in0.0 mm 0.00 in0.0 mm 0.00 in0.0 mm
03:35 AM 34.9°F1.6°C 33.1°F0.6°C 93% Calm Calm 2.2 mph3.5 kmh 29.18 in988.1 mb 0.00 in0.0 mm 0.00 in0.0 mm 0.00 in0.0 mm
03:36 AM 34.9°F1.6°C 33.1°F0.6°C 93% Calm Calm 1.7 mph2.7 kmh 29.18 in988.1 mb 0.00 in0.0 mm 0.00 in0.0 mm 0.00 in0.0 mm
03:37 AM 34.9°F1.6°C 33.1°F0.6°C 93% 1.7 mph SSW2.7 kmh SSW 1.7 mph2.7 kmh 29.18 in988.1 mb 0.00 in0.0 mm 0.00 in0.0 mm 0.00 in0.0 mm
03:38 AM 34.7°F1.5°C 32.9°F0.5°C 93% 1.7 mph SE2.7 kmh SE 2.2 mph3.5 kmh 29.18 in988.1 mb 0.00 in0.0 mm 0.00 in0.0 mm 0.00 in0.0 mm
03:39 AM 34.7°F1.5°C 32.9°F0.5°C 93% 2.2 mph SW3.5 kmh SW 2.2 mph3.5 kmh 29.18 in988.1 mb 0.00 in0.0 mm 0.00 in0.0 mm 0.00 in0.0 mm
03:40 AM 34.7°F1.5°C 32.9°F0.5°C 93% 1.7 mph SSW2.7 kmh SSW 2.7 mph4.3 kmh 29.18 in988.1 mb 0.00 in0.0 mm 0.00 in0.0 mm 0.00 in0.0 mm
03:41 AM 34.7°F1.5°C 32.9°F0.5°C 93% 1.1 mph SSW1.8 kmh SSW 2.7 mph4.3 kmh 29.18 in988.1 mb 0.00 in0.0 mm 0.00 in0.0 mm 0.00 in0.0 mm
03:42 AM 34.7°F1.5°C 32.9°F0.5°C 93% 1.1 mph SSW1.8 kmh SSW 2.7 mph4.3 kmh 29.18 in988.1 mb 0.00 in0.0 mm 0.00 in0.0 mm 0.00 in0.0 mm
03:43 AM 34.5°F1.4°C 32.7°F0.4°C 93% 1.7 mph WSW2.7 kmh WSW 2.7 mph4.3 kmh 29.18 in988.1 mb 0.00 in0.0 mm 0.00 in0.0 mm 0.00 in0.0 mm
03:44 AM 34.5°F1.4°C 32.7°F0.4°C 93% 1.1 mph SSE1.8 kmh SSE 2.7 mph4.3 kmh 29.18 in988.1 mb 0.00 in0.0 mm 0.00 in0.0 mm 0.00 in0.0 mm
03:45 AM 34.5°F1.4°C 32.7°F0.4°C 93% 1.7 mph S2.7 kmh S 2.7 mph4.3 kmh 29.18 in988.1 mb 0.00 in0.0 mm 0.00 in0.0 mm 0.00 in0.0 mm
03:46 AM 34.5°F1.4°C 32.7°F0.4°C 93% 2.7 mph W4.3 kmh W 2.7 mph4.3 kmh 29.18 in988.1 mb 0.00 in0.0 mm 0.00 in0.0 mm 0.00 in0.0 mm
03:47 AM 34.5°F1.4°C 32.7°F0.4°C 93% 1.1 mph SW1.8 kmh SW 2.7 mph4.3 kmh 29.18 in988.1 mb 0.00 in0.0 mm 0.00 in0.0 mm 0.00 in0.0 mm
03:48 AM 34.5°F1.4°C 32.7°F0.4°C 93% 1.7 mph WSW2.7 kmh WSW 2.7 mph4.3 kmh 29.18 in988.1 mb 0.00 in0.0 mm 0.00 in0.0 mm 0.00 in0.0 mm
03:49 AM 34.5°F1.4°C 32.7°F0.4°C 93% Calm Calm 2.7 mph4.3 kmh 29.18 in988.1 mb 0.00 in0.0 mm 0.00 in0.0 mm 0.00 in0.0 mm
03:50 AM 34.5°F1.4°C 32.7°F0.4°C 93% Calm Calm 2.7 mph4.3 kmh 29.18 in988.1 mb 0.00 in0.0 mm 0.00 in0.0 mm 0.00 in0.0 mm
03:51 AM 34.5°F1.4°C 32.7°F0.4°C 93% Calm Calm 2.7 mph4.3 kmh 29.18 in988.1 mb 0.00 in0.0 mm 0.00 in0.0 mm 0.00 in0.0 mm
03:52 AM 34.5°F1.4°C 32.7°F0.4°C 93% Calm Calm 2.7 mph4.3 kmh 29.18 in988.1 mb 0.00 in0.0 mm 0.00 in0.0 mm 0.00 in0.0 mm
03:53 AM 34.5°F1.4°C 32.7°F0.4°C 93% 2.2 mph SW3.5 kmh SW 2.7 mph4.3 kmh 29.18 in988.1 mb 0.00 in0.0 mm 0.00 in0.0 mm 0.00 in0.0 mm
03:54 AM 34.3°F1.3°C 32.5°F0.3°C 93% 2.7 mph W4.3 kmh W 3.7 mph6.0 kmh 29.18 in988.1 mb 0.00 in0.0 mm 0.00 in0.0 mm 0.00 in0.0 mm
03:55 AM 34.3°F1.3°C 32.5°F0.3°C 93% 2.7 mph SSW4.3 kmh SSW 3.7 mph6.0 kmh 29.18 in988.1 mb 0.00 in0.0 mm 0.00 in0.0 mm 0.00 in0.0 mm
03:56 AM 34.3°F1.3°C 32.5°F0.3°C 93% 2.7 mph SSE4.3 kmh SSE 3.7 mph6.0 kmh 29.18 in988.1 mb 0.00 in0.0 mm 0.00 in0.0 mm 0.00 in0.0 mm
03:57 AM 34.3°F1.3°C 32.5°F0.3°C 93% 1.1 mph SSW1.8 kmh SSW 3.7 mph6.0 kmh 29.18 in988.1 mb 0.00 in0.0 mm 0.00 in0.0 mm 0.00 in0.0 mm
03:58 AM 34.3°F1.3°C 32.5°F0.3°C 93% 1.7 mph SSW2.7 kmh SSW 3.7 mph6.0 kmh 29.19 in988.5 mb 0.00 in0.0 mm 0.00 in0.0 mm 0.00 in0.0 mm
03:59 AM 34.3°F1.3°C 32.5°F0.3°C 93% 2.7 mph ESE4.3 kmh ESE 3.7 mph6.0 kmh 29.19 in988.5 mb 0.00 in0.0 mm 0.00 in0.0 mm 0.00 in0.0 mm
04:00 AM 34.2°F1.2°C 32.4°F0.2°C 93% 1.7 mph SSE2.7 kmh SSE 3.7 mph6.0 kmh 29.19 in988.5 mb 0.00 in0.0 mm 0.00 in0.0 mm 0.00 in0.0 mm
04:01 AM 34.2°F1.2°C 32.4°F0.2°C 93% Calm Calm 3.7 mph6.0 kmh 29.19 in988.5 mb 0.00 in0.0 mm 0.00 in0.0 mm 0.00 in0.0 mm
04:02 AM 34.2°F1.2°C 32.4°F0.2°C 93% 1.7 mph SSE2.7 kmh SSE 3.7 mph6.0 kmh 29.19 in988.5 mb 0.00 in0.0 mm 0.00 in0.0 mm 0.00 in0.0 mm
04:03 AM 34.2°F1.2°C 32.4°F0.2°C 93% 2.2 mph SSW3.5 kmh SSW 3.7 mph6.0 kmh 29.19 in988.5 mb 0.00 in0.0 mm 0.00 in0.0 mm 0.00 in0.0 mm
04:04 AM 34.2°F1.2°C 32.4°F0.2°C 93% 1.7 mph SSW2.7 kmh SSW 2.7 mph4.3 kmh 29.19 in988.5 mb 0.00 in0.0 mm 0.00 in0.0 mm 0.00 in0.0 mm
04:05 AM 34.2°F1.2°C 32.4°F0.2°C 93% 1.7 mph SW2.7 kmh SW 2.7 mph4.3 kmh 29.19 in988.5 mb 0.00 in0.0 mm 0.00 in0.0 mm 0.00 in0.0 mm
04:06 AM 34.2°F1.2°C 32.4°F0.2°C 93% 1.7 mph SW2.7 kmh SW 2.7 mph4.3 kmh 29.19 in988.5 mb 0.00 in0.0 mm 0.00 in0.0 mm 0.00 in0.0 mm
04:07 AM 34.2°F1.2°C 32.4°F0.2°C 93% Calm Calm 2.7 mph4.3 kmh 29.19 in988.5 mb 0.00 in0.0 mm 0.00 in0.0 mm 0.00 in0.0 mm
04:08 AM 34.2°F1.2°C 32.4°F0.2°C 93% 1.7 mph S2.7 kmh S 2.7 mph4.3 kmh 29.19 in988.5 mb 0.00 in0.0 mm 0.00 in0.0 mm 0.00 in0.0 mm
04:09 AM 34.2°F1.2°C 32.4°F0.2°C 93% Calm Calm 2.7 mph4.3 kmh 29.19 in988.5 mb 0.00 in0.0 mm 0.00 in0.0 mm 0.00 in0.0 mm
04:10 AM 34.2°F1.2°C 32.4°F0.2°C 93% 2.7 mph W4.3 kmh W 2.7 mph4.3 kmh 29.19 in988.5 mb 0.00 in0.0 mm 0.00 in0.0 mm 0.00 in0.0 mm
04:11 AM 34.0°F1.1°C 31.9°F-0.1°C 92% 2.2 mph W3.5 kmh W 2.7 mph4.3 kmh 29.19 in988.5 mb 0.00 in0.0 mm 0.00 in0.0 mm 0.00 in0.0 mm
04:12 AM 34.0°F1.1°C 31.9°F-0.1°C 92% 2.2 mph S3.5 kmh S 2.7 mph4.3 kmh 29.19 in988.5 mb 0.00 in0.0 mm 0.00 in0.0 mm 0.00 in0.0 mm
04:13 AM 34.0°F1.1°C 31.9°F-0.1°C 92% 2.2 mph SW3.5 kmh SW 2.7 mph4.3 kmh 29.19 in988.5 mb 0.00 in0.0 mm 0.00 in0.0 mm 0.00 in0.0 mm
04:14 AM 34.0°F1.1°C 31.9°F-0.1°C 92% 2.7 mph SSW4.3 kmh SSW 4.2 mph6.8 kmh 29.19 in988.5 mb 0.00 in0.0 mm 0.00 in0.0 mm 0.00 in0.0 mm
04:15 AM 33.8°F1.0°C 31.7°F-0.2°C 92% 2.2 mph SSW3.5 kmh SSW 4.2 mph6.8 kmh 29.19 in988.5 mb 0.00 in0.0 mm 0.00 in0.0 mm 0.00 in0.0 mm
04:16 AM 33.8°F1.0°C 31.7°F-0.2°C 92% 2.2 mph S3.5 kmh S 4.2 mph6.8 kmh 29.19 in988.5 mb 0.00 in0.0 mm 0.00 in0.0 mm 0.00 in0.0 mm
04:17 AM 33.8°F1.0°C 31.7°F-0.2°C 92% 1.7 mph E2.7 kmh E 4.2 mph6.8 kmh 29.19 in988.5 mb 0.00 in0.0 mm 0.00 in0.0 mm 0.00 in0.0 mm
04:18 AM 33.8°F1.0°C 31.7°F-0.2°C 92% 2.2 mph SW3.5 kmh SW 4.2 mph6.8 kmh 29.19 in988.5 mb 0.00 in0.0 mm 0.00 in0.0 mm 0.00 in0.0 mm
04:19 AM 33.8°F1.0°C 31.7°F-0.2°C 92% 2.7 mph SSW4.3 kmh SSW 4.2 mph6.8 kmh 29.19 in988.5 mb 0.00 in0.0 mm 0.00 in0.0 mm 0.00 in0.0 mm
04:20 AM 33.8°F1.0°C 31.7°F-0.2°C 92% 2.7 mph SW4.3 kmh SW 4.2 mph6.8 kmh 29.19 in988.5 mb 0.00 in0.0 mm 0.00 in0.0 mm 0.00 in0.0 mm
04:21 AM 33.6°F0.9°C 31.5°F-0.3°C 92% 1.7 mph S2.7 kmh S 4.2 mph6.8 kmh 29.19 in988.5 mb 0.00 in0.0 mm 0.00 in0.0 mm 0.00 in0.0 mm
04:22 AM 33.6°F0.9°C 31.3°F-0.4°C 91% 2.2 mph W3.5 kmh W 4.2 mph6.8 kmh 29.19 in988.5 mb 0.00 in0.0 mm 0.00 in0.0 mm 0.00 in0.0 mm
04:23 AM 33.6°F0.9°C 31.3°F-0.4°C 91% 1.7 mph SSW2.7 kmh SSW 4.2 mph6.8 kmh 29.19 in988.5 mb 0.00 in0.0 mm 0.00 in0.0 mm 0.00 in0.0 mm
04:24 AM 33.6°F0.9°C 31.3°F-0.4°C 91% 1.7 mph SSW2.7 kmh SSW 2.7 mph4.3 kmh 29.19 in988.5 mb 0.00 in0.0 mm 0.00 in0.0 mm 0.00 in0.0 mm
04:25 AM 33.6°F0.9°C 31.3°F-0.4°C 91% 2.7 mph S4.3 kmh S 2.7 mph4.3 kmh 29.19 in988.5 mb 0.00 in0.0 mm 0.00 in0.0 mm 0.00 in0.0 mm
04:26 AM 33.6°F0.9°C 31.3°F-0.4°C 91% 1.1 mph SW1.8 kmh SW 2.7 mph4.3 kmh 29.19 in988.5 mb 0.00 in0.0 mm 0.00 in0.0 mm 0.00 in0.0 mm
04:27 AM 33.6°F0.9°C 31.3°F-0.4°C 91% 1.1 mph WSW1.8 kmh WSW 2.7 mph4.3 kmh 29.19 in988.5 mb 0.00 in0.0 mm 0.00 in0.0 mm 0.00 in0.0 mm
04:28 AM 33.6°F0.9°C 31.3°F-0.4°C 91% 2.2 mph SSW3.5 kmh SSW 2.7 mph4.3 kmh 29.19 in988.5 mb 0.00 in0.0 mm 0.00 in0.0 mm 0.00 in0.0 mm
04:29 AM 33.6°F0.9°C 31.3°F-0.4°C 91% Calm Calm 2.7 mph4.3 kmh 29.19 in988.5 mb 0.00 in0.0 mm 0.00 in0.0 mm 0.00 in0.0 mm
04:30 AM 33.6°F0.9°C 31.3°F-0.4°C 91% 1.7 mph SSW2.7 kmh SSW 2.7 mph4.3 kmh 29.19 in988.5 mb 0.00 in0.0 mm 0.00 in0.0 mm 0.00 in0.0 mm
04:31 AM 33.6°F0.9°C 31.3°F-0.4°C 91% 1.7 mph SW2.7 kmh SW 2.7 mph4.3 kmh 29.19 in988.5 mb 0.00 in0.0 mm 0.00 in0.0 mm 0.00 in0.0 mm
04:32 AM 33.6°F0.9°C 31.3°F-0.4°C 91% 2.7 mph SSW4.3 kmh SSW 2.7 mph4.3 kmh 29.19 in988.5 mb 0.00 in0.0 mm 0.00 in0.0 mm 0.00 in0.0 mm
04:33 AM 33.6°F0.9°C 31.3°F-0.4°C 91% 1.7 mph SW2.7 kmh SW 2.7 mph4.3 kmh 29.19 in988.5 mb 0.00 in0.0 mm 0.00 in0.0 mm 0.00 in0.0 mm
04:34 AM 33.6°F0.9°C 31.5°F-0.3°C 92% 1.7 mph S2.7 kmh S 2.7 mph4.3 kmh 29.19 in988.5 mb 0.00 in0.0 mm 0.00 in0.0 mm 0.00 in0.0 mm
04:35 AM 33.6°F0.9°C 31.5°F-0.3°C 92% 1.1 mph SW1.8 kmh SW 2.7 mph4.3 kmh 29.19 in988.5 mb 0.00 in0.0 mm 0.00 in0.0 mm 0.00 in0.0 mm
04:36 AM 33.6°F0.9°C 31.5°F-0.3°C 92% 1.7 mph SSW2.7 kmh SSW 2.7 mph4.3 kmh 29.19 in988.5 mb 0.00 in0.0 mm 0.00 in0.0 mm 0.00 in0.0 mm
04:37 AM 33.6°F0.9°C 31.5°F-0.3°C 92% 2.7 mph SSE4.3 kmh SSE 2.7 mph4.3 kmh 29.19 in988.5 mb 0.00 in0.0 mm 0.00 in0.0 mm 0.00 in0.0 mm
04:38 AM 33.6°F0.9°C 31.5°F-0.3°C 92% 2.2 mph S3.5 kmh S 2.7 mph4.3 kmh 29.19 in988.5 mb 0.00 in0.0 mm 0.00 in0.0 mm 0.00 in0.0 mm
04:39 AM 33.4°F0.8°C 31.3°F-0.4°C 92% 2.2 mph SSW3.5 kmh SSW 2.7 mph4.3 kmh 29.19 in988.5 mb 0.00 in0.0 mm 0.00 in0.0 mm 0.00 in0.0 mm
04:40 AM 33.4°F0.8°C 31.3°F-0.4°C 92% 1.7 mph S2.7 kmh S 2.7 mph4.3 kmh 29.19 in988.5 mb 0.00 in0.0 mm 0.00 in0.0 mm 0.00 in0.0 mm
04:41 AM 33.4°F0.8°C 31.3°F-0.4°C 92% 1.7 mph SSW2.7 kmh SSW 2.7 mph4.3 kmh 29.19 in988.5 mb 0.00 in0.0 mm 0.00 in0.0 mm 0.00 in0.0 mm
04:42 AM 33.4°F0.8°C 31.3°F-0.4°C 92% 1.7 mph SSW2.7 kmh SSW 2.7 mph4.3 kmh 29.19 in988.5 mb 0.00 in0.0 mm 0.00 in0.0 mm 0.00 in0.0 mm
04:43 AM 33.4°F0.8°C 31.3°F-0.4°C 92% 3.7 mph NW6.0 kmh NW 3.7 mph6.0 kmh 29.19 in988.5 mb 0.00 in0.0 mm 0.00 in0.0 mm 0.00 in0.0 mm
04:44 AM 33.3°F0.7°C 31.2°F-0.4°C 92% 1.1 mph S1.8 kmh S 3.7 mph6.0 kmh 29.19 in988.5 mb 0.00 in0.0 mm 0.00 in0.0 mm 0.00 in0.0 mm
04:45 AM 33.3°F0.7°C 31.2°F-0.4°C 92% 2.2 mph WSW3.5 kmh WSW 3.7 mph6.0 kmh 29.20 in988.8 mb 0.00 in0.0 mm 0.00 in0.0 mm 0.00 in0.0 mm
04:46 AM 33.3°F0.7°C 31.2°F-0.4°C 92% 1.1 mph SSW1.8 kmh SSW 3.7 mph6.0 kmh 29.20 in988.8 mb 0.00 in0.0 mm 0.00 in0.0 mm 0.00 in0.0 mm
04:47 AM 33.3°F0.7°C 31.2°F-0.4°C 92% 2.2 mph WNW3.5 kmh WNW 3.7 mph6.0 kmh 29.20 in988.8 mb 0.00 in0.0 mm 0.00 in0.0 mm 0.00 in0.0 mm
04:48 AM 33.3°F0.7°C 31.2°F-0.4°C 92% 2.2 mph SE3.5 kmh SE 3.7 mph6.0 kmh 29.20 in988.8 mb 0.00 in0.0 mm 0.00 in0.0 mm 0.00 in0.0 mm
04:49 AM 33.3°F0.7°C 31.2°F-0.4°C 92% 2.7 mph SSW4.3 kmh SSW 3.7 mph6.0 kmh 29.20 in988.8 mb 0.00 in0.0 mm 0.00 in0.0 mm 0.00 in0.0 mm
04:50 AM 33.3°F0.7°C 31.2°F-0.4°C 92% 2.7 mph WSW4.3 kmh WSW 3.7 mph6.0 kmh 29.20 in988.8 mb 0.00 in0.0 mm 0.00 in0.0 mm 0.00 in0.0 mm
04:51 AM 33.3°F0.7°C 31.2°F-0.4°C 92% 1.1 mph SSW1.8 kmh SSW 3.7 mph6.0 kmh 29.20 in988.8 mb 0.00 in0.0 mm 0.00 in0.0 mm 0.00 in0.0 mm
04:52 AM 33.3°F0.7°C 31.2°F-0.4°C 92% 1.7 mph SSW2.7 kmh SSW 4.2 mph6.8 kmh 29.20 in988.8 mb 0.00 in0.0 mm 0.00 in0.0 mm 0.00 in0.0 mm
04:53 AM 33.3°F0.7°C 31.2°F-0.4°C 92% 1.7 mph SE2.7 kmh SE 4.2 mph6.8 kmh 29.20 in988.8 mb 0.00 in0.0 mm 0.00 in0.0 mm 0.00 in0.0 mm
04:54 AM 33.3°F0.7°C 31.2°F-0.4°C 92% 2.2 mph W3.5 kmh W 4.2 mph6.8 kmh 29.20 in988.8 mb 0.00 in0.0 mm 0.00 in0.0 mm 0.00 in0.0 mm
04:55 AM 33.3°F0.7°C 31.2°F-0.4°C 92% 1.7 mph S2.7 kmh S 4.2 mph6.8 kmh 29.20 in988.8 mb 0.00 in0.0 mm 0.00 in0.0 mm 0.00 in0.0 mm
04:56 AM 33.3°F0.7°C 31.2°F-0.4°C 92% 1.7 mph SSW2.7 kmh SSW 4.2 mph6.8 kmh 29.20 in988.8 mb 0.00 in0.0 mm 0.00 in0.0 mm 0.00 in0.0 mm
04:57 AM 33.3°F0.7°C 31.2°F-0.4°C 92% 1.1 mph S1.8 kmh S 4.2 mph6.8 kmh 29.20 in988.8 mb 0.00 in0.0 mm 0.00 in0.0 mm 0.00 in0.0 mm
04:58 AM 33.3°F0.7°C 31.2°F-0.4°C 92% 1.1 mph E1.8 kmh E 4.2 mph6.8 kmh 29.20 in988.8 mb 0.00 in0.0 mm 0.00 in0.0 mm 0.00 in0.0 mm
04:59 AM 33.3°F0.7°C 31.2°F-0.4°C 92% 2.2 mph SSW3.5 kmh SSW 4.2 mph6.8 kmh 29.20 in988.8 mb 0.00 in0.0 mm 0.00 in0.0 mm 0.00 in0.0 mm
05:00 AM 33.3°F0.7°C 31.2°F-0.4°C 92% 1.1 mph SW1.8 kmh SW 4.2 mph6.8 kmh 29.20 in988.8 mb 0.00 in0.0 mm 0.00 in0.0 mm 0.00 in0.0 mm
05:01 AM 33.3°F0.7°C 31.2°F-0.4°C 92% 1.7 mph SW2.7 kmh SW 4.2 mph6.8 kmh 29.20 in988.8 mb 0.00 in0.0 mm 0.00 in0.0 mm 0.00 in0.0 mm
05:02 AM 33.3°F0.7°C 31.2°F-0.4°C 92% 1.7 mph E2.7 kmh E 2.7 mph4.3 kmh 29.20 in988.8 mb 0.00 in0.0 mm 0.00 in0.0 mm 0.00 in0.0 mm
05:03 AM 33.1°F0.6°C 31.0°F-0.6°C 92% 3.7 mph SW6.0 kmh SW 3.7 mph6.0 kmh 29.20 in988.8 mb 0.00 in0.0 mm 0.00 in0.0 mm 0.00 in0.0 mm
05:04 AM 33.1°F0.6°C 31.0°F-0.6°C 92% 2.7 mph E4.3 kmh E 3.7 mph6.0 kmh 29.20 in988.8 mb 0.00 in0.0 mm 0.00 in0.0 mm 0.00 in0.0 mm
05:05 AM 32.9°F0.5°C 30.8°F-0.7°C 92% 2.2 mph SSE3.5 kmh SSE 3.7 mph6.0 kmh 29.20 in988.8 mb 0.00 in0.0 mm 0.00 in0.0 mm 0.00 in0.0 mm
05:06 AM 32.9°F0.5°C 30.8°F-0.7°C 92% 1.7 mph SE2.7 kmh SE 3.7 mph6.0 kmh 29.20 in988.8 mb 0.00 in0.0 mm 0.00 in0.0 mm 0.00 in0.0 mm
05:07 AM 32.9°F0.5°C 30.8°F-0.7°C 92% 2.2 mph WSW3.5 kmh WSW 3.7 mph6.0 kmh 29.20 in988.8 mb 0.00 in0.0 mm 0.00 in0.0 mm 0.00 in0.0 mm
05:08 AM 32.9°F0.5°C 30.8°F-0.7°C 92% 1.7 mph S2.7 kmh S 3.7 mph6.0 kmh 29.20 in988.8 mb 0.00 in0.0 mm 0.00 in0.0 mm 0.00 in0.0 mm
05:09 AM 32.9°F0.5°C 30.8°F-0.7°C 92% 2.7 mph S4.3 kmh S 3.7 mph6.0 kmh 29.20 in988.8 mb 0.00 in0.0 mm 0.00 in0.0 mm 0.00 in0.0 mm
05:10 AM 32.9°F0.5°C 30.8°F-0.7°C 92% 2.2 mph SW3.5 kmh SW 3.7 mph6.0 kmh 29.20 in988.8 mb 0.00 in0.0 mm 0.00 in0.0 mm 0.00 in0.0 mm
05:11 AM 32.9°F0.5°C 30.8°F-0.7°C 92% 1.7 mph SW2.7 kmh SW 3.7 mph6.0 kmh 29.20 in988.8 mb 0.00 in0.0 mm 0.00 in0.0 mm 0.00 in0.0 mm
05:12 AM 32.9°F0.5°C 30.8°F-0.7°C 92% 1.1 mph ESE1.8 kmh ESE 3.7 mph6.0 kmh 29.20 in988.8 mb 0.00 in0.0 mm 0.00 in0.0 mm 0.00 in0.0 mm
05:13 AM 32.9°F0.5°C 30.8°F-0.7°C 92% 1.7 mph SW2.7 kmh SW 3.2 mph5.1 kmh 29.20 in988.8 mb 0.00 in0.0 mm 0.00 in0.0 mm 0.00 in0.0 mm
05:14 AM 32.9°F0.5°C 30.8°F-0.7°C 92% 1.7 mph SW2.7 kmh SW 3.2 mph5.1 kmh 29.20 in988.8 mb 0.00 in0.0 mm 0.00 in0.0 mm 0.00 in0.0 mm
05:15 AM 32.9°F0.5°C 30.8°F-0.7°C 92% 2.2 mph S3.5 kmh S 3.2 mph5.1 kmh 29.20 in988.8 mb 0.00 in0.0 mm 0.00 in0.0 mm 0.00 in0.0 mm
05:16 AM 32.9°F0.5°C 30.8°F-0.7°C 92% 1.7 mph WSW2.7 kmh WSW 3.2 mph5.1 kmh 29.20 in988.8 mb 0.00 in0.0 mm 0.00 in0.0 mm 0.00 in0.0 mm
05:17 AM 32.9°F0.5°C 30.8°F-0.7°C 92% 2.2 mph SSW3.5 kmh SSW 3.2 mph5.1 kmh 29.20 in988.8 mb 0.00 in0.0 mm 0.00 in0.0 mm 0.00 in0.0 mm
05:18 AM 32.9°F0.5°C 30.8°F-0.7°C 92% 2.2 mph SW3.5 kmh SW 3.2 mph5.1 kmh 29.20 in988.8 mb 0.00 in0.0 mm 0.00 in0.0 mm 0.00 in0.0 mm
05:19 AM 32.9°F0.5°C 30.8°F-0.7°C 92% 2.2 mph NNW3.5 kmh NNW 3.2 mph5.1 kmh 29.20 in988.8 mb 0.00 in0.0 mm 0.00 in0.0 mm 0.00 in0.0 mm
05:20 AM 32.9°F0.5°C 30.8°F-0.7°C 92% 2.7 mph SE4.3 kmh SE 3.2 mph5.1 kmh 29.20 in988.8 mb 0.00 in0.0 mm 0.00 in0.0 mm 0.00 in0.0 mm
05:21 AM 32.9°F0.5°C 30.8°F-0.7°C 92% 1.7 mph SW2.7 kmh SW 3.2 mph5.1 kmh 29.20 in988.8 mb 0.00 in0.0 mm 0.00 in0.0 mm 0.00 in0.0 mm
05:22 AM 32.9°F0.5°C 30.8°F-0.7°C 92% 1.1 mph S1.8 kmh S 3.2 mph5.1 kmh 29.21 in989.2 mb 0.00 in0.0 mm 0.00 in0.0 mm 0.00 in0.0 mm
05:23 AM 32.9°F0.5°C 30.8°F-0.7°C 92% 1.7 mph S2.7 kmh S 3.2 mph5.1 kmh 29.21 in989.2 mb 0.00 in0.0 mm 0.00 in0.0 mm 0.00 in0.0 mm
05:24 AM 32.9°F0.5°C 30.8°F-0.7°C 92% 2.2 mph S3.5 kmh S 3.2 mph5.1 kmh 29.21 in989.2 mb 0.00 in0.0 mm 0.00 in0.0 mm 0.00 in0.0 mm
05:25 AM 32.9°F0.5°C 30.8°F-0.7°C 92% 1.7 mph W2.7 kmh W 2.7 mph4.3 kmh 29.21 in989.2 mb 0.00 in0.0 mm 0.00 in0.0 mm 0.00 in0.0 mm
05:26 AM 32.9°F0.5°C 30.8°F-0.7°C 92% 2.2 mph S3.5 kmh S 2.7 mph4.3 kmh 29.21 in989.2 mb 0.00 in0.0 mm 0.00 in0.0 mm 0.00 in0.0 mm
05:27 AM 32.9°F0.5°C 30.8°F-0.7°C 92% 2.2 mph S3.5 kmh S 2.7 mph4.3 kmh 29.21 in989.2 mb 0.00 in0.0 mm 0.00 in0.0 mm 0.00 in0.0 mm
05:28 AM 32.9°F0.5°C 30.8°F-0.7°C 92% 1.7 mph S2.7 kmh S 2.7 mph4.3 kmh 29.21 in989.2 mb 0.00 in0.0 mm 0.00 in0.0 mm 0.00 in0.0 mm
05:29 AM 32.9°F0.5°C 30.8°F-0.7°C 92% 1.1 mph SSW1.8 kmh SSW 2.7 mph4.3 kmh 29.21 in989.2 mb 0.00 in0.0 mm 0.00 in0.0 mm 0.00 in0.0 mm
05:30 AM 32.9°F0.5°C 30.8°F-0.7°C 92% 1.1 mph SW1.8 kmh SW 2.7 mph4.3 kmh 29.21 in989.2 mb 0.00 in0.0 mm 0.00 in0.0 mm 0.00 in0.0 mm
05:31 AM 32.9°F0.5°C 30.8°F-0.7°C 92% 1.1 mph SSE1.8 kmh SSE 2.7 mph4.3 kmh 29.21 in989.2 mb 0.00 in0.0 mm 0.00 in0.0 mm 0.00 in0.0 mm
05:32 AM 32.9°F0.5°C 30.8°F-0.7°C 92% Calm Calm 2.7 mph4.3 kmh 29.21 in989.2 mb 0.00 in0.0 mm 0.00 in0.0 mm 0.00 in0.0 mm
05:33 AM 32.9°F0.5°C 30.8°F-0.7°C 92% Calm Calm 2.2 mph3.5 kmh 29.21 in989.2 mb 0.00 in0.0 mm 0.00 in0.0 mm 0.00 in0.0 mm
05:34 AM 32.9°F0.5°C 30.8°F-0.7°C 92% 1.7 mph ESE2.7 kmh ESE 2.2 mph3.5 kmh 29.22 in989.5 mb 0.00 in0.0 mm 0.00 in0.0 mm 0.00 in0.0 mm
05:35 AM 32.9°F0.5°C 30.6°F-0.8°C 91% 2.2 mph S3.5 kmh S 2.2 mph3.5 kmh 29.22 in989.5 mb 0.00 in0.0 mm 0.00 in0.0 mm 0.00 in0.0 mm
05:36 AM 32.7°F0.4°C 30.4°F-0.9°C 91% 2.7 mph SW4.3 kmh SW 2.7 mph4.3 kmh 29.22 in989.5 mb 0.00 in0.0 mm 0.00 in0.0 mm 0.00 in0.0 mm
05:37 AM 32.7°F0.4°C 30.4°F-0.9°C 91% 2.7 mph W4.3 kmh W 4.7 mph7.6 kmh 29.22 in989.5 mb 0.00 in0.0 mm 0.00 in0.0 mm 0.00 in0.0 mm
05:38 AM 32.7°F0.4°C 30.4°F-0.9°C 91% 1.1 mph S1.8 kmh S 4.7 mph7.6 kmh 29.22 in989.5 mb 0.00 in0.0 mm 0.00 in0.0 mm 0.00 in0.0 mm
05:39 AM 32.7°F0.4°C 30.4°F-0.9°C 91% 2.2 mph SW3.5 kmh SW 4.7 mph7.6 kmh 29.22 in989.5 mb 0.00 in0.0 mm 0.00 in0.0 mm 0.00 in0.0 mm
05:40 AM 32.7°F0.4°C 30.1°F-1.1°C 90% 2.7 mph ESE4.3 kmh ESE 4.7 mph7.6 kmh 29.22 in989.5 mb 0.00 in0.0 mm 0.00 in0.0 mm 0.00 in0.0 mm
05:41 AM 32.7°F0.4°C 30.1°F-1.1°C 90% 2.2 mph S3.5 kmh S 4.7 mph7.6 kmh 29.22 in989.5 mb 0.00 in0.0 mm 0.00 in0.0 mm 0.00 in0.0 mm
05:42 AM 32.7°F0.4°C 29.8°F-1.2°C 89% 1.7 mph SW2.7 kmh SW 4.7 mph7.6 kmh 29.22 in989.5 mb 0.00 in0.0 mm 0.00 in0.0 mm 0.00 in0.0 mm
05:43 AM 32.7°F0.4°C 29.8°F-1.2°C 89% Calm Calm 4.7 mph7.6 kmh 29.22 in989.5 mb 0.00 in0.0 mm 0.00 in0.0 mm 0.00 in0.0 mm
05:44 AM 32.7°F0.4°C 29.8°F-1.2°C 89% 2.2 mph SSW3.5 kmh SSW 4.7 mph7.6 kmh 29.22 in989.5 mb 0.00 in0.0 mm 0.00 in0.0 mm 0.00 in0.0 mm
05:45 AM 32.5°F0.3°C 29.3°F-1.5°C 88% 3.7 mph WSW6.0 kmh WSW 4.7 mph7.6 kmh 29.22 in989.5 mb 0.00 in0.0 mm 0.00 in0.0 mm 0.00 in0.0 mm
05:46 AM 32.5°F0.3°C 29.3°F-1.5°C 88% 2.2 mph SSW3.5 kmh SSW 4.7 mph7.6 kmh 29.22 in989.5 mb 0.00 in0.0 mm 0.00 in0.0 mm 0.00 in0.0 mm
05:47 AM 32.5°F0.3°C 29.3°F-1.5°C 88% 2.2 mph W3.5 kmh W 3.7 mph6.0 kmh 29.22 in989.5 mb 0.00 in0.0 mm 0.00 in0.0 mm 0.00 in0.0 mm
05:48 AM 32.4°F0.2°C 29.0°F-1.7°C 87% 2.2 mph W3.5 kmh W 3.7 mph6.0 kmh 29.22 in989.5 mb 0.00 in0.0 mm 0.00 in0.0 mm 0.00 in0.0 mm
05:49 AM 32.4°F0.2°C 29.0°F-1.7°C 87% 2.7 mph SSE4.3 kmh SSE 3.7 mph6.0 kmh 29.22 in989.5 mb 0.00 in0.0 mm 0.00 in0.0 mm 0.00 in0.0 mm
05:50 AM 32.4°F0.2°C 29.0°F-1.7°C 87% 1.7 mph SSW2.7 kmh SSW 3.7 mph6.0 kmh 29.22 in989.5 mb 0.00 in0.0 mm 0.00 in0.0 mm 0.00 in0.0 mm
05:51 AM 32.4°F0.2°C 29.0°F-1.7°C 87% 1.7 mph SW2.7 kmh SW 3.7 mph6.0 kmh 29.22 in989.5 mb 0.00 in0.0 mm 0.00 in0.0 mm 0.00 in0.0 mm
05:52 AM 32.4°F0.2°C 29.0°F-1.7°C 87% 2.2 mph S3.5 kmh S 3.7 mph6.0 kmh 29.22 in989.5 mb 0.00 in0.0 mm 0.00 in0.0 mm 0.00 in0.0 mm
05:53 AM 32.4°F0.2°C 29.0°F-1.7°C 87% 2.7 mph S4.3 kmh S 3.7 mph6.0 kmh 29.22 in989.5 mb 0.00 in0.0 mm 0.00 in0.0 mm 0.00 in0.0 mm
05:54 AM 32.4°F0.2°C 28.7°F-1.8°C 86% 2.2 mph SW3.5 kmh SW 3.7 mph6.0 kmh 29.22 in989.5 mb 0.00 in0.0 mm 0.00 in0.0 mm 0.00 in0.0 mm
05:55 AM 32.2°F0.1°C 28.5°F-1.9°C 86% 2.2 mph W3.5 kmh W 3.7 mph6.0 kmh 29.22 in989.5 mb 0.00 in0.0 mm 0.00 in0.0 mm 0.00 in0.0 mm
05:56 AM 32.2°F0.1°C 28.5°F-1.9°C 86% 1.1 mph SSW1.8 kmh SSW 3.2 mph5.1 kmh 29.22 in989.5 mb 0.00 in0.0 mm 0.00 in0.0 mm 0.00 in0.0 mm
05:57 AM 32.2°F0.1°C 28.5°F-1.9°C 86% 2.2 mph SSW3.5 kmh SSW 3.2 mph5.1 kmh 29.22 in989.5 mb 0.00 in0.0 mm 0.00 in0.0 mm 0.00 in0.0 mm
05:58 AM 32.2°F0.1°C 28.5°F-1.9°C 86% 3.7 mph W6.0 kmh W 3.7 mph6.0 kmh 29.23 in989.8 mb 0.00 in0.0 mm 0.00 in0.0 mm 0.00 in0.0 mm
05:59 AM 32.2°F0.1°C 28.5°F-1.9°C 86% Calm Calm 3.7 mph6.0 kmh 29.23 in989.8 mb 0.00 in0.0 mm 0.00 in0.0 mm 0.00 in0.0 mm
06:00 AM 32.2°F0.1°C 28.5°F-1.9°C 86% 2.7 mph S4.3 kmh S 3.7 mph6.0 kmh 29.23 in989.8 mb 0.00 in0.0 mm 0.00 in0.0 mm 0.00 in0.0 mm
06:01 AM 32.2°F0.1°C 28.5°F-1.9°C 86% 2.2 mph S3.5 kmh S 3.7 mph6.0 kmh 29.23 in989.8 mb 0.00 in0.0 mm 0.00 in0.0 mm 0.00 in0.0 mm
06:02 AM 32.2°F0.1°C 28.5°F-1.9°C 86% 1.7 mph SW2.7 kmh SW 3.7 mph6.0 kmh 29.23 in989.8 mb 0.00 in0.0 mm 0.00 in0.0 mm 0.00 in0.0 mm
06:03 AM 32.2°F0.1°C 28.5°F-1.9°C 86% 2.2 mph SSW3.5 kmh SSW 3.7 mph6.0 kmh 29.23 in989.8 mb 0.00 in0.0 mm 0.00 in0.0 mm 0.00 in0.0 mm
06:04 AM 32.2°F0.1°C 28.5°F-1.9°C 86% 4.2 mph N6.8 kmh N 4.2 mph6.8 kmh 29.23 in989.8 mb 0.00 in0.0 mm 0.00 in0.0 mm 0.00 in0.0 mm
06:05 AM 32.2°F0.1°C 28.5°F-1.9°C 86% 2.2 mph SSW3.5 kmh SSW 4.2 mph6.8 kmh 29.23 in989.8 mb 0.00 in0.0 mm 0.00 in0.0 mm 0.00 in0.0 mm
06:06 AM 32.2°F0.1°C 28.5°F-1.9°C 86% 2.2 mph S3.5 kmh S 4.2 mph6.8 kmh 29.23 in989.8 mb 0.00 in0.0 mm 0.00 in0.0 mm 0.00 in0.0 mm
06:07 AM 32.2°F0.1°C 28.5°F-1.9°C 86% 2.7 mph W4.3 kmh W 4.2 mph6.8 kmh 29.23 in989.8 mb 0.00 in0.0 mm 0.00 in0.0 mm 0.00 in0.0 mm
06:08 AM 32.0°F0.0°C 28.3°F-2.1°C 86% 2.2 mph SSE3.5 kmh SSE 4.2 mph6.8 kmh 29.23 in989.8 mb 0.00 in0.0 mm 0.00 in0.0 mm 0.00 in0.0 mm
06:09 AM 32.0°F0.0°C 28.3°F-2.1°C 86% 1.7 mph WSW2.7 kmh WSW 4.2 mph6.8 kmh 29.23 in989.8 mb 0.00 in0.0 mm 0.00 in0.0 mm 0.00 in0.0 mm
06:10 AM 32.0°F0.0°C 28.3°F-2.1°C 86% 2.7 mph SSW4.3 kmh SSW 4.2 mph6.8 kmh 29.23 in989.8 mb 0.00 in0.0 mm 0.00 in0.0 mm 0.00 in0.0 mm
06:11 AM 32.0°F0.0°C 28.3°F-2.1°C 86% 1.1 mph SW1.8 kmh SW 4.2 mph6.8 kmh 29.23 in989.8 mb 0.00 in0.0 mm 0.00 in0.0 mm 0.00 in0.0 mm
06:12 AM 32.0°F0.0°C 28.6°F-1.9°C 87% 2.2 mph WSW3.5 kmh WSW 4.2 mph6.8 kmh 29.23 in989.8 mb 0.00 in0.0 mm 0.00 in0.0 mm 0.00 in0.0 mm
06:13 AM 32.0°F0.0°C 28.6°F-1.9°C 87% 2.7 mph SSE4.3 kmh SSE 4.2 mph6.8 kmh 29.23 in989.8 mb 0.00 in0.0 mm 0.00 in0.0 mm 0.00 in0.0 mm
06:14 AM 32.0°F0.0°C 28.6°F-1.9°C 87% 2.2 mph ESE3.5 kmh ESE 4.2 mph6.8 kmh 29.23 in989.8 mb 0.00 in0.0 mm 0.00 in0.0 mm 0.00 in0.0 mm
06:15 AM 32.0°F0.0°C 28.6°F-1.9°C 87% 1.1 mph SSW1.8 kmh SSW 3.7 mph6.0 kmh 29.23 in989.8 mb 0.00 in0.0 mm 0.00 in0.0 mm 0.00 in0.0 mm
06:16 AM 32.0°F0.0°C 28.6°F-1.9°C 87% 2.7 mph WSW4.3 kmh WSW 3.2 mph5.1 kmh 29.23 in989.8 mb 0.00 in0.0 mm 0.00 in0.0 mm 0.00 in0.0 mm
06:17 AM 32.0°F0.0°C 28.6°F-1.9°C 87% 1.7 mph SW2.7 kmh SW 3.2 mph5.1 kmh 29.23 in989.8 mb 0.00 in0.0 mm 0.00 in0.0 mm 0.00 in0.0 mm
06:18 AM 32.0°F0.0°C 28.6°F-1.9°C 87% 2.2 mph SW3.5 kmh SW 2.7 mph4.3 kmh 29.23 in989.8 mb 0.00 in0.0 mm 0.00 in0.0 mm 0.00 in0.0 mm
06:19 AM 32.0°F0.0°C 28.6°F-1.9°C 87% 1.7 mph SSW2.7 kmh SSW 2.7 mph4.3 kmh 29.23 in989.8 mb 0.00 in0.0 mm 0.00 in0.0 mm 0.00 in0.0 mm
06:20 AM 32.0°F0.0°C 28.6°F-1.9°C 87% 2.2 mph W3.5 kmh W 2.7 mph4.3 kmh 29.23 in989.8 mb 0.00 in0.0 mm 0.00 in0.0 mm 0.00 in0.0 mm
06:21 AM 31.8°F-0.1°C 28.1°F-2.2°C 86% 2.2 mph N3.5 kmh N 2.7 mph4.3 kmh 29.24 in990.2 mb 0.00 in0.0 mm 0.00 in0.0 mm 0.00 in0.0 mm
06:22 AM 31.8°F-0.1°C 28.1°F-2.2°C 86% 2.7 mph WSW4.3 kmh WSW 3.2 mph5.1 kmh 29.24 in990.2 mb 0.00 in0.0 mm 0.00 in0.0 mm 0.00 in0.0 mm
06:23 AM 31.8°F-0.1°C 28.1°F-2.2°C 86% 2.2 mph SW3.5 kmh SW 3.2 mph5.1 kmh 29.24 in990.2 mb 0.00 in0.0 mm 0.00 in0.0 mm 0.00 in0.0 mm
06:24 AM 31.8°F-0.1°C 28.1°F-2.2°C 86% 2.7 mph S4.3 kmh S 3.2 mph5.1 kmh 29.24 in990.2 mb 0.00 in0.0 mm 0.00 in0.0 mm 0.00 in0.0 mm
06:25 AM 31.8°F-0.1°C 28.1°F-2.2°C 86% 1.7 mph WSW2.7 kmh WSW 3.2 mph5.1 kmh 29.24 in990.2 mb 0.00 in0.0 mm 0.00 in0.0 mm 0.00 in0.0 mm
06:26 AM 31.8°F-0.1°C 28.1°F-2.2°C 86% 1.7 mph SSW2.7 kmh SSW 3.2 mph5.1 kmh 29.24 in990.2 mb 0.00 in0.0 mm 0.00 in0.0 mm 0.00 in0.0 mm
06:27 AM 31.8°F-0.1°C 28.1°F-2.2°C 86% 1.7 mph SW2.7 kmh SW 3.2 mph5.1 kmh 29.24 in990.2 mb 0.00 in0.0 mm 0.00 in0.0 mm 0.00 in0.0 mm
06:28 AM 31.8°F-0.1°C 28.1°F-2.2°C 86% 1.7 mph ESE2.7 kmh ESE 3.2 mph5.1 kmh 29.24 in990.2 mb 0.00 in0.0 mm 0.00 in0.0 mm 0.00 in0.0 mm
06:29 AM 31.8°F-0.1°C 28.1°F-2.2°C 86% 2.7 mph S4.3 kmh S 3.2 mph5.1 kmh 29.24 in990.2 mb 0.00 in0.0 mm 0.00 in0.0 mm 0.00 in0.0 mm
06:30 AM 31.8°F-0.1°C 28.1°F-2.2°C 86% 2.7 mph SSW4.3 kmh SSW 3.2 mph5.1 kmh 29.24 in990.2 mb 0.00 in0.0 mm 0.00 in0.0 mm 0.00 in0.0 mm
06:31 AM 31.8°F-0.1°C 28.1°F-2.2°C 86% 2.7 mph SSW4.3 kmh SSW 3.2 mph5.1 kmh 29.24 in990.2 mb 0.00 in0.0 mm 0.00 in0.0 mm 0.00 in0.0 mm
06:32 AM 31.8°F-0.1°C 28.1°F-2.2°C 86% 2.7 mph NE4.3 kmh NE 2.7 mph4.3 kmh 29.24 in990.2 mb 0.00 in0.0 mm 0.00 in0.0 mm 0.00 in0.0 mm
06:33 AM 31.8°F-0.1°C 27.8°F-2.3°C 85% 2.2 mph SE3.5 kmh SE 2.7 mph4.3 kmh 29.25 in990.5 mb 0.00 in0.0 mm 0.00 in0.0 mm 0.00 in0.0 mm
06:34 AM 31.8°F-0.1°C 27.8°F-2.3°C 85% 1.7 mph SSW2.7 kmh SSW 2.7 mph4.3 kmh 29.25 in990.5 mb 0.00 in0.0 mm 0.00 in0.0 mm 0.00 in0.0 mm
06:35 AM 31.8°F-0.1°C 27.8°F-2.3°C 85% 2.2 mph SSW3.5 kmh SSW 2.7 mph4.3 kmh 29.25 in990.5 mb 0.00 in0.0 mm 0.00 in0.0 mm 0.00 in0.0 mm
06:36 AM 31.8°F-0.1°C 27.8°F-2.3°C 85% 1.7 mph SSW2.7 kmh SSW 2.7 mph4.3 kmh 29.25 in990.5 mb 0.00 in0.0 mm 0.00 in0.0 mm 0.00 in0.0 mm
06:37 AM 31.8°F-0.1°C 27.5°F-2.5°C 84% 1.7 mph W2.7 kmh W 2.7 mph4.3 kmh 29.25 in990.5 mb 0.00 in0.0 mm 0.00 in0.0 mm 0.00 in0.0 mm
06:38 AM 31.8°F-0.1°C 27.5°F-2.5°C 84% 3.2 mph WNW5.1 kmh WNW 3.2 mph5.1 kmh 29.25 in990.5 mb 0.00 in0.0 mm 0.00 in0.0 mm 0.00 in0.0 mm
06:39 AM 31.8°F-0.1°C 27.5°F-2.5°C 84% 2.2 mph SW3.5 kmh SW 3.2 mph5.1 kmh 29.25 in990.5 mb 0.00 in0.0 mm 0.00 in0.0 mm 0.00 in0.0 mm
06:40 AM 31.8°F-0.1°C 27.5°F-2.5°C 84% 1.7 mph SW2.7 kmh SW 3.2 mph5.1 kmh 29.25 in990.5 mb 0.00 in0.0 mm 0.00 in0.0 mm 0.00 in0.0 mm
06:41 AM 31.8°F-0.1°C 27.5°F-2.5°C 84% 2.7 mph SW4.3 kmh SW 3.2 mph5.1 kmh 29.25 in990.5 mb 0.00 in0.0 mm 0.00 in0.0 mm 0.00 in0.0 mm
06:42 AM 31.6°F-0.2°C 27.3°F-2.6°C 84% 1.1 mph SSW1.8 kmh SSW 3.2 mph5.1 kmh 29.25 in990.5 mb 0.00 in0.0 mm 0.00 in0.0 mm 0.00 in0.0 mm
06:43 AM 31.6°F-0.2°C 27.3°F-2.6°C 84% 2.2 mph SSW3.5 kmh SSW 3.2 mph5.1 kmh 29.25 in990.5 mb 0.00 in0.0 mm 0.00 in0.0 mm 0.00 in0.0 mm
06:44 AM 31.6°F-0.2°C 27.0°F-2.8°C 83% 2.2 mph SSW3.5 kmh SSW 3.7 mph6.0 kmh 29.25 in990.5 mb 0.00 in0.0 mm 0.00 in0.0 mm 0.00 in0.0 mm
06:45 AM 31.6°F-0.2°C 27.0°F-2.8°C 83% 2.2 mph SSE3.5 kmh SSE 3.7 mph6.0 kmh 29.26 in990.9 mb 0.00 in0.0 mm 0.00 in0.0 mm 0.00 in0.0 mm
06:46 AM 31.6°F-0.2°C 27.0°F-2.8°C 83% 3.2 mph E5.1 kmh E 3.7 mph6.0 kmh 29.26 in990.9 mb 0.00 in0.0 mm 0.00 in0.0 mm 0.00 in0.0 mm
06:47 AM 31.6°F-0.2°C 27.0°F-2.8°C 83% 2.7 mph WNW4.3 kmh WNW 4.2 mph6.8 kmh 29.26 in990.9 mb 0.00 in0.0 mm 0.00 in0.0 mm 0.00 in0.0 mm
06:48 AM 31.6°F-0.2°C 26.7°F-2.9°C 82% 2.2 mph SW3.5 kmh SW 4.2 mph6.8 kmh 29.26 in990.9 mb 0.00 in0.0 mm 0.00 in0.0 mm 0.00 in0.0 mm
06:49 AM 31.6°F-0.2°C 26.7°F-2.9°C 82% 2.7 mph S4.3 kmh S 4.2 mph6.8 kmh 29.26 in990.9 mb 0.00 in0.0 mm 0.00 in0.0 mm 0.00 in0.0 mm
06:50 AM 31.6°F-0.2°C 26.7°F-2.9°C 82% 2.7 mph S4.3 kmh S 4.2 mph6.8 kmh 29.26 in990.9 mb 0.00 in0.0 mm 0.00 in0.0 mm 0.00 in0.0 mm
06:51 AM 31.6°F-0.2°C 26.7°F-2.9°C 82% 4.7 mph SSW7.6 kmh SSW 4.7 mph7.6 kmh 29.26 in990.9 mb 0.00 in0.0 mm 0.00 in0.0 mm 0.00 in0.0 mm
06:52 AM 31.6°F-0.2°C 26.7°F-2.9°C 82% 3.2 mph SW5.1 kmh SW 5.3 mph8.5 kmh 29.26 in990.9 mb 0.00 in0.0 mm 0.00 in0.0 mm 0.00 in0.0 mm
06:53 AM 31.6°F-0.2°C 26.5°F-3.1°C 81% 1.7 mph WSW2.7 kmh WSW 5.3 mph8.5 kmh 29.26 in990.9 mb 0.00 in0.0 mm 0.00 in0.0 mm 0.00 in0.0 mm
06:54 AM 31.6°F-0.2°C 26.5°F-3.1°C 81% 2.2 mph WSW3.5 kmh WSW 5.3 mph8.5 kmh 29.26 in990.9 mb 0.00 in0.0 mm 0.00 in0.0 mm 0.00 in0.0 mm
06:55 AM 31.6°F-0.2°C 26.5°F-3.1°C 81% 2.7 mph W4.3 kmh W 5.3 mph8.5 kmh 29.26 in990.9 mb 0.00 in0.0 mm 0.00 in0.0 mm 0.00 in0.0 mm
06:56 AM 31.6°F-0.2°C 26.5°F-3.1°C 81% 3.2 mph WSW5.1 kmh WSW 5.3 mph8.5 kmh 29.26 in990.9 mb 0.00 in0.0 mm 0.00 in0.0 mm 0.00 in0.0 mm
06:57 AM 31.5°F-0.3°C 26.4°F-3.1°C 81% 2.2 mph WSW3.5 kmh WSW 5.3 mph8.5 kmh 29.26 in990.9 mb 0.00 in0.0 mm 0.00 in0.0 mm 0.00 in0.0 mm
06:58 AM 31.5°F-0.3°C 26.4°F-3.1°C 81% 2.7 mph SSW4.3 kmh SSW 5.3 mph8.5 kmh 29.26 in990.9 mb 0.00 in0.0 mm 0.00 in0.0 mm 0.00 in0.0 mm
06:59 AM 31.5°F-0.3°C 26.4°F-3.1°C 81% 2.2 mph SSW3.5 kmh SSW 5.3 mph8.5 kmh 29.26 in990.9 mb 0.00 in0.0 mm 0.00 in0.0 mm 0.00 in0.0 mm
07:00 AM 31.5°F-0.3°C 26.4°F-3.1°C 81% 2.2 mph S3.5 kmh S 5.3 mph8.5 kmh 29.26 in990.9 mb 0.00 in0.0 mm 0.00 in0.0 mm 0.00 in0.0 mm
07:01 AM 31.5°F-0.3°C 26.4°F-3.1°C 81% 2.7 mph N4.3 kmh N 5.3 mph8.5 kmh 29.26 in990.9 mb 0.00 in0.0 mm 0.00 in0.0 mm 0.00 in0.0 mm
07:02 AM 31.5°F-0.3°C 26.4°F-3.1°C 81% 1.7 mph SSW2.7 kmh SSW 3.2 mph5.1 kmh 29.26 in990.9 mb 0.00 in0.0 mm 0.00 in0.0 mm 0.00 in0.0 mm
07:03 AM 31.5°F-0.3°C 26.4°F-3.1°C 81% 1.7 mph SSW2.7 kmh SSW 3.2 mph5.1 kmh 29.26 in990.9 mb 0.00 in0.0 mm 0.00 in0.0 mm 0.00 in0.0 mm
07:04 AM 31.5°F-0.3°C 26.4°F-3.1°C 81% 1.7 mph SW2.7 kmh SW 3.2 mph5.1 kmh 29.26 in990.9 mb 0.00 in0.0 mm 0.00 in0.0 mm 0.00 in0.0 mm
07:05 AM 31.5°F-0.3°C 26.4°F-3.1°C 81% 1.1 mph SW1.8 kmh SW 3.2 mph5.1 kmh 29.26 in990.9 mb 0.00 in0.0 mm 0.00 in0.0 mm 0.00 in0.0 mm
07:06 AM 31.5°F-0.3°C 26.4°F-3.1°C 81% 1.7 mph ESE2.7 kmh ESE 3.2 mph5.1 kmh 29.26 in990.9 mb 0.00 in0.0 mm 0.00 in0.0 mm 0.00 in0.0 mm
07:07 AM 31.5°F-0.3°C 26.4°F-3.1°C 81% 1.7 mph SSW2.7 kmh SSW 2.7 mph4.3 kmh 29.26 in990.9 mb 0.00 in0.0 mm 0.00 in0.0 mm 0.00 in0.0 mm
07:08 AM 31.5°F-0.3°C 26.4°F-3.1°C 81% 1.7 mph S2.7 kmh S 2.7 mph4.3 kmh 29.26 in990.9 mb 0.00 in0.0 mm 0.00 in0.0 mm 0.00 in0.0 mm
07:09 AM 31.5°F-0.3°C 26.4°F-3.1°C 81% 1.7 mph SW2.7 kmh SW 2.7 mph4.3 kmh 29.26 in990.9 mb 0.00 in0.0 mm 0.00 in0.0 mm 0.00 in0.0 mm
07:10 AM 31.5°F-0.3°C 26.4°F-3.1°C 81% 1.7 mph ENE2.7 kmh ENE 2.7 mph4.3 kmh 29.28 in991.5 mb 0.00 in0.0 mm 0.00 in0.0 mm 0.00 in0.0 mm
07:11 AM 31.5°F-0.3°C 26.4°F-3.1°C 81% 2.2 mph SW3.5 kmh SW 2.7 mph4.3 kmh 29.28 in991.5 mb 0.00 in0.0 mm 0.00 in0.0 mm 0.00 in0.0 mm
07:12 AM 31.5°F-0.3°C 26.4°F-3.1°C 81% 1.7 mph SSE2.7 kmh SSE 2.7 mph4.3 kmh 29.28 in991.5 mb 0.00 in0.0 mm 0.00 in0.0 mm 0.00 in0.0 mm
07:13 AM 31.5°F-0.3°C 26.1°F-3.3°C 80% 2.2 mph S3.5 kmh S 2.7 mph4.3 kmh 29.28 in991.5 mb 0.00 in0.0 mm 0.00 in0.0 mm 0.00 in0.0 mm
07:14 AM 31.5°F-0.3°C 26.1°F-3.3°C 80% 2.2 mph S3.5 kmh S 2.2 mph3.5 kmh 29.28 in991.5 mb 0.00 in0.0 mm 0.00 in0.0 mm 0.00 in0.0 mm
07:15 AM 31.5°F-0.3°C 26.1°F-3.3°C 80% 1.7 mph SW2.7 kmh SW 2.2 mph3.5 kmh 29.28 in991.5 mb 0.00 in0.0 mm 0.00 in0.0 mm 0.00 in0.0 mm
07:16 AM 31.5°F-0.3°C 26.1°F-3.3°C 80% 2.2 mph SW3.5 kmh SW 3.2 mph5.1 kmh 29.28 in991.5 mb 0.00 in0.0 mm 0.00 in0.0 mm 0.00 in0.0 mm
07:17 AM 31.5°F-0.3°C 26.1°F-3.3°C 80% Calm Calm 3.2 mph5.1 kmh 29.28 in991.5 mb 0.00 in0.0 mm 0.00 in0.0 mm 0.00 in0.0 mm
07:18 AM 31.5°F-0.3°C 26.1°F-3.3°C 80% 2.2 mph W3.5 kmh W 3.2 mph5.1 kmh 29.28 in991.5 mb 0.00 in0.0 mm 0.00 in0.0 mm 0.00 in0.0 mm
07:19 AM 31.5°F-0.3°C 26.1°F-3.3°C 80% 1.7 mph SSW2.7 kmh SSW 3.2 mph5.1 kmh 29.28 in991.5 mb 0.00 in0.0 mm 0.00 in0.0 mm 0.00 in0.0 mm
07:20 AM 31.5°F-0.3°C 26.1°F-3.3°C 80% 3.2 mph SW5.1 kmh SW 3.2 mph5.1 kmh 29.28 in991.5 mb 0.00 in0.0 mm 0.00 in0.0 mm 0.00 in0.0 mm
07:21 AM 31.5°F-0.3°C 25.8°F-3.4°C 79% Calm Calm 3.2 mph5.1 kmh 29.28 in991.5 mb 0.00 in0.0 mm 0.00 in0.0 mm 0.00 in0.0 mm
07:22 AM 31.5°F-0.3°C 25.8°F-3.4°C 79% 2.2 mph SSW3.5 kmh SSW 3.2 mph5.1 kmh 29.29 in991.9 mb 0.00 in0.0 mm 0.00 in0.0 mm 0.00 in0.0 mm
07:23 AM 31.5°F-0.3°C 25.8°F-3.4°C 79% 2.2 mph N3.5 kmh N 3.2 mph5.1 kmh 29.29 in991.9 mb 0.00 in0.0 mm 0.00 in0.0 mm 0.00 in0.0 mm
07:24 AM 31.5°F-0.3°C 25.8°F-3.4°C 79% 2.7 mph SW4.3 kmh SW 3.2 mph5.1 kmh 29.29 in991.9 mb 0.00 in0.0 mm 0.00 in0.0 mm 0.00 in0.0 mm
07:25 AM 31.5°F-0.3°C 25.8°F-3.4°C 79% 2.7 mph SSW4.3 kmh SSW 3.7 mph6.0 kmh 29.29 in991.9 mb 0.00 in0.0 mm 0.00 in0.0 mm 0.00 in0.0 mm
07:26 AM 31.5°F-0.3°C 25.8°F-3.4°C 79% 1.7 mph SW2.7 kmh SW 3.7 mph6.0 kmh 29.29 in991.9 mb 0.00 in0.0 mm 0.00 in0.0 mm 0.00 in0.0 mm
07:27 AM 31.5°F-0.3°C 25.8°F-3.4°C 79% 2.2 mph SSW3.5 kmh SSW 3.7 mph6.0 kmh 29.29 in991.9 mb 0.00 in0.0 mm 0.00 in0.0 mm 0.00 in0.0 mm
07:28 AM 31.5°F-0.3°C 25.8°F-3.4°C 79% 2.2 mph SW3.5 kmh SW 3.7 mph6.0 kmh 29.29 in991.9 mb 0.00 in0.0 mm 0.00 in0.0 mm 0.00 in0.0 mm
07:29 AM 31.5°F-0.3°C 25.8°F-3.4°C 79% 3.2 mph WNW5.1 kmh WNW 3.7 mph6.0 kmh 29.29 in991.9 mb 0.00 in0.0 mm 0.00 in0.0 mm 0.00 in0.0 mm
07:30 AM 31.5°F-0.3°C 25.8°F-3.4°C 79% 2.2 mph S3.5 kmh S 3.7 mph6.0 kmh 29.29 in991.9 mb 0.00 in0.0 mm 0.00 in0.0 mm 0.00 in0.0 mm
07:31 AM 31.3°F-0.4°C 25.6°F-3.6°C 79% 2.7 mph SW4.3 kmh SW 3.7 mph6.0 kmh 29.29 in991.9 mb 0.00 in0.0 mm 0.00 in0.0 mm 0.00 in0.0 mm
07:32 AM 31.3°F-0.4°C 25.6°F-3.6°C 79% 2.2 mph SSW3.5 kmh SSW 3.7 mph6.0 kmh 29.29 in991.9 mb 0.00 in0.0 mm 0.00 in0.0 mm 0.00 in0.0 mm
07:33 AM 31.3°F-0.4°C 25.6°F-3.6°C 79% 4.7 mph SSW7.6 kmh SSW 4.7 mph7.6 kmh 29.29 in991.9 mb 0.00 in0.0 mm 0.00 in0.0 mm 0.00 in0.0 mm
07:34 AM 31.3°F-0.4°C 25.6°F-3.6°C 79% 1.7 mph SSW2.7 kmh SSW 4.7 mph7.6 kmh 29.29 in991.9 mb 0.00 in0.0 mm 0.00 in0.0 mm 0.00 in0.0 mm
07:35 AM 31.3°F-0.4°C 25.6°F-3.6°C 79% 2.2 mph SSW3.5 kmh SSW 4.7 mph7.6 kmh 29.29 in991.9 mb 0.00 in0.0 mm 0.00 in0.0 mm 0.00 in0.0 mm
07:36 AM 31.3°F-0.4°C 25.6°F-3.6°C 79% 2.7 mph SW4.3 kmh SW 4.7 mph7.6 kmh 29.29 in991.9 mb 0.00 in0.0 mm 0.00 in0.0 mm 0.00 in0.0 mm
07:37 AM 31.3°F-0.4°C 25.6°F-3.6°C 79% 2.2 mph SSW3.5 kmh SSW 4.7 mph7.6 kmh 29.29 in991.9 mb 0.00 in0.0 mm 0.00 in0.0 mm 0.00 in0.0 mm
07:38 AM 31.3°F-0.4°C 25.6°F-3.6°C 79% 1.7 mph SW2.7 kmh SW 4.7 mph7.6 kmh 29.29 in991.9 mb 0.00 in0.0 mm 0.00 in0.0 mm 0.00 in0.0 mm
07:39 AM 31.3°F-0.4°C 25.6°F-3.6°C 79% 1.1 mph SSW1.8 kmh SSW 4.7 mph7.6 kmh 29.29 in991.9 mb 0.00 in0.0 mm 0.00 in0.0 mm 0.00 in0.0 mm
07:40 AM 31.3°F-0.4°C 25.6°F-3.6°C 79% 1.7 mph SSW2.7 kmh SSW 4.7 mph7.6 kmh 29.29 in991.9 mb 0.00 in0.0 mm 0.00 in0.0 mm 0.00 in0.0 mm
07:41 AM 31.3°F-0.4°C 25.6°F-3.6°C 79% 2.2 mph WSW3.5 kmh WSW 4.7 mph7.6 kmh 29.29 in991.9 mb 0.00 in0.0 mm 0.00 in0.0 mm 0.00 in0.0 mm
07:42 AM 31.3°F-0.4°C 25.6°F-3.6°C 79% 1.1 mph SSW1.8 kmh SSW 4.7 mph7.6 kmh 29.29 in991.9 mb 0.00 in0.0 mm 0.00 in0.0 mm 0.00 in0.0 mm
07:43 AM 31.3°F-0.4°C 25.6°F-3.6°C 79% 1.7 mph S2.7 kmh S 3.7 mph6.0 kmh 29.29 in991.9 mb 0.00 in0.0 mm 0.00 in0.0 mm 0.00 in0.0 mm
07:44 AM 31.3°F-0.4°C 25.6°F-3.6°C 79% 2.2 mph S3.5 kmh S 3.7 mph6.0 kmh 29.29 in991.9 mb 0.00 in0.0 mm 0.00 in0.0 mm 0.00 in0.0 mm
07:45 AM 31.3°F-0.4°C 25.3°F-3.7°C 78% 1.7 mph NE2.7 kmh NE 3.7 mph6.0 kmh 29.29 in991.9 mb 0.00 in0.0 mm 0.00 in0.0 mm 0.00 in0.0 mm
07:46 AM 31.3°F-0.4°C 25.3°F-3.7°C 78% 2.2 mph SSW3.5 kmh SSW 3.7 mph6.0 kmh 29.29 in991.9 mb 0.00 in0.0 mm 0.00 in0.0 mm 0.00 in0.0 mm
07:47 AM 31.3°F-0.4°C 25.3°F-3.7°C 78% 3.2 mph NNW5.1 kmh NNW 5.3 mph8.5 kmh 29.29 in991.9 mb 0.00 in0.0 mm 0.00 in0.0 mm 0.00 in0.0 mm
07:48 AM 31.1°F-0.5°C 25.1°F-3.8°C 78% 3.2 mph NNW5.1 kmh NNW 5.3 mph8.5 kmh 29.29 in991.9 mb 0.00 in0.0 mm 0.00 in0.0 mm 0.00 in0.0 mm
07:49 AM 31.1°F-0.5°C 25.1°F-3.8°C 78% 3.2 mph S5.1 kmh S 5.3 mph8.5 kmh 29.29 in991.9 mb 0.00 in0.0 mm 0.00 in0.0 mm 0.00 in0.0 mm
07:50 AM 31.1°F-0.5°C 25.4°F-3.7°C 79% 2.7 mph SW4.3 kmh SW 5.3 mph8.5 kmh 29.29 in991.9 mb 0.00 in0.0 mm 0.00 in0.0 mm 0.00 in0.0 mm
07:51 AM 31.1°F-0.5°C 25.4°F-3.7°C 79% 2.7 mph ENE4.3 kmh ENE 5.3 mph8.5 kmh 29.29 in991.9 mb 0.00 in0.0 mm 0.00 in0.0 mm 0.00 in0.0 mm
07:52 AM 31.1°F-0.5°C 25.4°F-3.7°C 79% 1.7 mph SSW2.7 kmh SSW 5.3 mph8.5 kmh 29.29 in991.9 mb 0.00 in0.0 mm 0.00 in0.0 mm 0.00 in0.0 mm
07:53 AM 31.1°F-0.5°C 25.4°F-3.7°C 79% 2.2 mph SW3.5 kmh SW 5.3 mph8.5 kmh 29.29 in991.9 mb 0.00 in0.0 mm 0.00 in0.0 mm 0.00 in0.0 mm
07:54 AM 31.1°F-0.5°C 25.4°F-3.7°C 79% 1.7 mph SW2.7 kmh SW 5.3 mph8.5 kmh 29.29 in991.9 mb 0.00 in0.0 mm 0.00 in0.0 mm 0.00 in0.0 mm
07:55 AM 30.9°F-0.6°C 25.2°F-3.8°C 79% 2.7 mph SSW4.3 kmh SSW 5.3 mph8.5 kmh 29.29 in991.9 mb 0.00 in0.0 mm 0.00 in0.0 mm 0.00 in0.0 mm
07:56 AM 30.9°F-0.6°C 25.2°F-3.8°C 79% 2.7 mph SW4.3 kmh SW 5.3 mph8.5 kmh 29.29 in991.9 mb 0.00 in0.0 mm 0.00 in0.0 mm 0.00 in0.0 mm
07:57 AM 30.9°F-0.6°C 25.2°F-3.8°C 79% 2.2 mph SW3.5 kmh SW 4.2 mph6.8 kmh 29.29 in991.9 mb 0.00 in0.0 mm 0.00 in0.0 mm 0.00 in0.0 mm
07:58 AM 30.7°F-0.7°C 25.0°F-3.9°C 79% 1.7 mph W2.7 kmh W 4.2 mph6.8 kmh 29.30 in992.2 mb 0.00 in0.0 mm 0.00 in0.0 mm 0.00 in0.0 mm
07:59 AM 30.7°F-0.7°C 25.0°F-3.9°C 79% 1.7 mph SSE2.7 kmh SSE 4.2 mph6.8 kmh 29.30 in992.2 mb 0.00 in0.0 mm 0.00 in0.0 mm 0.00 in0.0 mm
08:00 AM 30.7°F-0.7°C 25.0°F-3.9°C 79% 1.7 mph NW2.7 kmh NW 4.2 mph6.8 kmh 29.30 in992.2 mb 0.00 in0.0 mm 0.00 in0.0 mm 0.00 in0.0 mm
08:01 AM 30.7°F-0.7°C 25.0°F-3.9°C 79% 2.7 mph N4.3 kmh N 4.2 mph6.8 kmh 29.30 in992.2 mb 0.00 in0.0 mm 0.00 in0.0 mm 0.00 in0.0 mm
08:02 AM 30.7°F-0.7°C 25.0°F-3.9°C 79% 3.2 mph NNW5.1 kmh NNW 5.3 mph8.5 kmh 29.30 in992.2 mb 0.00 in0.0 mm 0.00 in0.0 mm 0.00 in0.0 mm
08:03 AM 30.6°F-0.8°C 24.9°F-3.9°C 79% 2.2 mph WSW3.5 kmh WSW 5.3 mph8.5 kmh 29.30 in992.2 mb 0.00 in0.0 mm 0.00 in0.0 mm 0.00 in0.0 mm
08:04 AM 30.6°F-0.8°C 24.9°F-3.9°C 79% 2.7 mph SW4.3 kmh SW 5.3 mph8.5 kmh 29.30 in992.2 mb 0.00 in0.0 mm 0.00 in0.0 mm 0.00 in0.0 mm
08:05 AM 30.6°F-0.8°C 24.9°F-3.9°C 79% 1.1 mph SW1.8 kmh SW 5.3 mph8.5 kmh 29.30 in992.2 mb 0.00 in0.0 mm 0.00 in0.0 mm 0.00 in0.0 mm
08:06 AM 30.6°F-0.8°C 25.2°F-3.8°C 80% 1.7 mph W2.7 kmh W 5.3 mph8.5 kmh 29.30 in992.2 mb 0.00 in0.0 mm 0.00 in0.0 mm 0.00 in0.0 mm
08:07 AM 30.6°F-0.8°C 25.2°F-3.8°C 80% 2.7 mph SSW4.3 kmh SSW 5.3 mph8.5 kmh 29.30 in992.2 mb 0.00 in0.0 mm 0.00 in0.0 mm 0.00 in0.0 mm
08:08 AM 30.6°F-0.8°C 24.9°F-3.9°C 79% 2.2 mph SW3.5 kmh SW 5.3 mph8.5 kmh 29.30 in992.2 mb 0.00 in0.0 mm 0.00 in0.0 mm 0.00 in0.0 mm
08:09 AM 30.6°F-0.8°C 24.9°F-3.9°C 79% 2.2 mph SSW3.5 kmh SSW 5.3 mph8.5 kmh 29.30 in992.2 mb 0.00 in0.0 mm 0.00 in0.0 mm 0.00 in0.0 mm
08:10 AM 30.6°F-0.8°C 24.9°F-3.9°C 79% 2.7 mph S4.3 kmh S 5.3 mph8.5 kmh 29.31 in992.6 mb 0.00 in0.0 mm 0.00 in0.0 mm 0.00 in0.0 mm
08:11 AM 30.6°F-0.8°C 24.9°F-3.9°C 79% 2.2 mph SSE3.5 kmh SSE 5.3 mph8.5 kmh 29.31 in992.6 mb 0.00 in0.0 mm 0.00 in0.0 mm 0.00 in0.0 mm
08:12 AM 30.6°F-0.8°C 24.9°F-3.9°C 79% 2.7 mph SSW4.3 kmh SSW 4.7 mph7.6 kmh 29.31 in992.6 mb 0.00 in0.0 mm 0.00 in0.0 mm 0.00 in0.0 mm
08:13 AM 30.6°F-0.8°C 24.9°F-3.9°C 79% 2.2 mph S3.5 kmh S 4.7 mph7.6 kmh 29.31 in992.6 mb 0.00 in0.0 mm 0.00 in0.0 mm 0.00 in0.0 mm
08:14 AM 30.6°F-0.8°C 24.9°F-3.9°C 79% 1.7 mph S2.7 kmh S 3.7 mph6.0 kmh 29.31 in992.6 mb 0.00 in0.0 mm 0.00 in0.0 mm 0.00 in0.0 mm
08:15 AM 30.6°F-0.8°C 24.9°F-3.9°C 79% 2.2 mph S3.5 kmh S 3.7 mph6.0 kmh 29.31 in992.6 mb 0.00 in0.0 mm 0.00 in0.0 mm 0.00 in0.0 mm
08:16 AM 30.4°F-0.9°C 24.7°F-4.1°C 79% 2.2 mph SW3.5 kmh SW 3.7 mph6.0 kmh 29.31 in992.6 mb 0.00 in0.0 mm 0.00 in0.0 mm 0.00 in0.0 mm
08:17 AM 30.4°F-0.9°C 24.7°F-4.1°C 79% 2.2 mph SW3.5 kmh SW 3.7 mph6.0 kmh 29.31 in992.6 mb 0.00 in0.0 mm 0.00 in0.0 mm 0.00 in0.0 mm
08:18 AM 30.4°F-0.9°C 24.7°F-4.1°C 79% 2.7 mph SSW4.3 kmh SSW 3.7 mph6.0 kmh 29.31 in992.6 mb 0.00 in0.0 mm 0.00 in0.0 mm 0.00 in0.0 mm
08:19 AM 30.4°F-0.9°C 24.7°F-4.1°C 79% 2.2 mph S3.5 kmh S 3.7 mph6.0 kmh 29.31 in992.6 mb 0.00 in0.0 mm 0.00 in0.0 mm 0.00 in0.0 mm
08:20 AM 30.4°F-0.9°C 24.7°F-4.1°C 79% 2.7 mph SSW4.3 kmh SSW 3.7 mph6.0 kmh 29.31 in992.6 mb 0.00 in0.0 mm 0.00 in0.0 mm 0.00 in0.0 mm
08:21 AM 30.4°F-0.9°C 24.7°F-4.1°C 79% 2.7 mph S4.3 kmh S 3.7 mph6.0 kmh 29.31 in992.6 mb 0.00 in0.0 mm 0.00 in0.0 mm 0.00 in0.0 mm
08:22 AM 30.4°F-0.9°C 24.7°F-4.1°C 79% 2.7 mph WSW4.3 kmh WSW 3.7 mph6.0 kmh 29.32 in992.9 mb 0.00 in0.0 mm 0.00 in0.0 mm 0.00 in0.0 mm
08:23 AM 30.4°F-0.9°C 24.7°F-4.1°C 79% 2.2 mph NW3.5 kmh NW 3.7 mph6.0 kmh 29.32 in992.9 mb 0.00 in0.0 mm 0.00 in0.0 mm 0.00 in0.0 mm
08:24 AM 30.4°F-0.9°C 24.7°F-4.1°C 79% 2.7 mph WSW4.3 kmh WSW 3.7 mph6.0 kmh 29.32 in992.9 mb 0.00 in0.0 mm 0.00 in0.0 mm 0.00 in0.0 mm
08:25 AM 30.4°F-0.9°C 24.7°F-4.1°C 79% 1.7 mph SSW2.7 kmh SSW 3.7 mph6.0 kmh 29.32 in992.9 mb 0.00 in0.0 mm 0.00 in0.0 mm 0.00 in0.0 mm
08:26 AM 30.4°F-0.9°C 24.7°F-4.1°C 79% 1.7 mph SSW2.7 kmh SSW 3.7 mph6.0 kmh 29.32 in992.9 mb 0.00 in0.0 mm 0.00 in0.0 mm 0.00 in0.0 mm
08:27 AM 30.4°F-0.9°C 24.7°F-4.1°C 79% 2.2 mph SW3.5 kmh SW 3.7 mph6.0 kmh 29.32 in992.9 mb 0.00 in0.0 mm 0.00 in0.0 mm 0.00 in0.0 mm
08:28 AM 30.2°F-1.0°C 24.2°F-4.3°C 78% 1.7 mph SSW2.7 kmh SSW 3.2 mph5.1 kmh 29.32 in992.9 mb 0.00 in0.0 mm 0.00 in0.0 mm 0.00 in0.0 mm
08:29 AM 30.2°F-1.0°C 24.2°F-4.3°C 78% 1.7 mph E2.7 kmh E 3.2 mph5.1 kmh 29.32 in992.9 mb 0.00 in0.0 mm 0.00 in0.0 mm 0.00 in0.0 mm
08:30 AM 30.2°F-1.0°C 24.2°F-4.3°C 78% 1.7 mph SSW2.7 kmh SSW 3.2 mph5.1 kmh 29.32 in992.9 mb 0.00 in0.0 mm 0.00 in0.0 mm 0.00 in0.0 mm
08:31 AM 30.2°F-1.0°C 24.2°F-4.3°C 78% 1.1 mph SSE1.8 kmh SSE 3.2 mph5.1 kmh 29.32 in992.9 mb 0.00 in0.0 mm 0.00 in0.0 mm 0.00 in0.0 mm
08:32 AM 30.2°F-1.0°C 24.2°F-4.3°C 78% 2.2 mph SW3.5 kmh SW 3.2 mph5.1 kmh 29.32 in992.9 mb 0.00 in0.0 mm 0.00 in0.0 mm 0.00 in0.0 mm
08:33 AM 30.2°F-1.0°C 24.2°F-4.3°C 78% 2.2 mph S3.5 kmh S 3.2 mph5.1 kmh 29.33 in993.2 mb 0.00 in0.0 mm 0.00 in0.0 mm 0.00 in0.0 mm
08:34 AM 30.2°F-1.0°C 24.5°F-4.2°C 79% 2.7 mph S4.3 kmh S 3.2 mph5.1 kmh 29.33 in993.2 mb 0.00 in0.0 mm 0.00 in0.0 mm 0.00 in0.0 mm
08:35 AM 30.2°F-1.0°C 24.5°F-4.2°C 79% 2.7 mph WSW4.3 kmh WSW 3.2 mph5.1 kmh 29.33 in993.2 mb 0.00 in0.0 mm 0.00 in0.0 mm 0.00 in0.0 mm
08:36 AM 30.2°F-1.0°C 24.5°F-4.2°C 79% 2.2 mph SW3.5 kmh SW 3.2 mph5.1 kmh 29.33 in993.2 mb 0.00 in0.0 mm 0.00 in0.0 mm 0.00 in0.0 mm
08:37 AM 30.0°F-1.1°C 24.3°F-4.3°C 79% 2.2 mph SW3.5 kmh SW 3.2 mph5.1 kmh 29.33 in993.2 mb 0.00 in0.0 mm 0.00 in0.0 mm 0.00 in0.0 mm
08:38 AM 30.0°F-1.1°C 24.3°F-4.3°C 79% 2.2 mph SW3.5 kmh SW 3.2 mph5.1 kmh 29.33 in993.2 mb 0.00 in0.0 mm 0.00 in0.0 mm 0.00 in0.0 mm
08:39 AM 30.0°F-1.1°C 24.3°F-4.3°C 79% 2.2 mph E3.5 kmh E 3.2 mph5.1 kmh 29.33 in993.2 mb 0.00 in0.0 mm 0.00 in0.0 mm 0.00 in0.0 mm
08:40 AM 30.0°F-1.1°C 24.3°F-4.3°C 79% 3.2 mph ESE5.1 kmh ESE 3.2 mph5.1 kmh 29.33 in993.2 mb 0.00 in0.0 mm 0.00 in0.0 mm 0.00 in0.0 mm
08:41 AM 30.0°F-1.1°C 24.3°F-4.3°C 79% 3.7 mph ESE6.0 kmh ESE 3.7 mph6.0 kmh 29.33 in993.2 mb 0.00 in0.0 mm 0.00 in0.0 mm 0.00 in0.0 mm
08:42 AM 30.0°F-1.1°C 24.3°F-4.3°C 79% 2.7 mph W4.3 kmh W 3.7 mph6.0 kmh 29.33 in993.2 mb 0.00 in0.0 mm 0.00 in0.0 mm 0.00 in0.0 mm
08:43 AM 29.8°F-1.2°C 24.4°F-4.2°C 80% 3.2 mph WNW5.1 kmh WNW 3.7 mph6.0 kmh 29.33 in993.2 mb 0.00 in0.0 mm 0.00 in0.0 mm 0.00 in0.0 mm
08:44 AM 29.8°F-1.2°C 24.4°F-4.2°C 80% 2.7 mph SSW4.3 kmh SSW 4.2 mph6.8 kmh 29.33 in993.2 mb 0.00 in0.0 mm 0.00 in0.0 mm 0.00 in0.0 mm
08:45 AM 29.8°F-1.2°C 24.4°F-4.2°C 80% 2.7 mph SSW4.3 kmh SSW 4.2 mph6.8 kmh 29.33 in993.2 mb 0.00 in0.0 mm 0.00 in0.0 mm 0.00 in0.0 mm
08:46 AM 29.8°F-1.2°C 24.4°F-4.2°C 80% 4.7 mph S7.6 kmh S 4.7 mph7.6 kmh 29.33 in993.2 mb 0.00 in0.0 mm 0.00 in0.0 mm 0.00 in0.0 mm
08:47 AM 29.8°F-1.2°C 24.4°F-4.2°C 80% 2.2 mph SW3.5 kmh SW 4.7 mph7.6 kmh 29.33 in993.2 mb 0.00 in0.0 mm 0.00 in0.0 mm 0.00 in0.0 mm
08:48 AM 29.8°F-1.2°C 24.4°F-4.2°C 80% 1.7 mph W2.7 kmh W 4.7 mph7.6 kmh 29.33 in993.2 mb 0.00 in0.0 mm 0.00 in0.0 mm 0.00 in0.0 mm
08:49 AM 29.8°F-1.2°C 24.4°F-4.2°C 80% 2.7 mph W4.3 kmh W 4.7 mph7.6 kmh 29.33 in993.2 mb 0.00 in0.0 mm 0.00 in0.0 mm 0.00 in0.0 mm
08:50 AM 29.8°F-1.2°C 24.4°F-4.2°C 80% 2.7 mph S4.3 kmh S 4.7 mph7.6 kmh 29.33 in993.2 mb 0.00 in0.0 mm 0.00 in0.0 mm 0.00 in0.0 mm
08:51 AM 29.8°F-1.2°C 24.4°F-4.2°C 80% 2.2 mph SSW3.5 kmh SSW 4.7 mph7.6 kmh 29.33 in993.2 mb 0.00 in0.0 mm 0.00 in0.0 mm 0.00 in0.0 mm
08:52 AM 29.8°F-1.2°C 24.4°F-4.2°C 80% 3.2 mph W5.1 kmh W 4.7 mph7.6 kmh 29.33 in993.2 mb 0.00 in0.0 mm 0.00 in0.0 mm 0.00 in0.0 mm
08:53 AM 29.8°F-1.2°C 24.4°F-4.2°C 80% 3.2 mph NE5.1 kmh NE 4.7 mph7.6 kmh 29.33 in993.2 mb 0.00 in0.0 mm 0.00 in0.0 mm 0.00 in0.0 mm
08:54 AM 29.8°F-1.2°C 24.4°F-4.2°C 80% 2.7 mph S4.3 kmh S 4.7 mph7.6 kmh 29.33 in993.2 mb 0.00 in0.0 mm 0.00 in0.0 mm 0.00 in0.0 mm
08:55 AM 29.8°F-1.2°C 24.4°F-4.2°C 80% 2.7 mph SSW4.3 kmh SSW 4.7 mph7.6 kmh 29.33 in993.2 mb 0.00 in0.0 mm 0.00 in0.0 mm 0.00 in0.0 mm
08:56 AM 29.8°F-1.2°C 24.4°F-4.2°C 80% 3.2 mph NNW5.1 kmh NNW 3.2 mph5.1 kmh 29.33 in993.2 mb 0.00 in0.0 mm 0.00 in0.0 mm 0.00 in0.0 mm
08:57 AM 29.7°F-1.3°C 24.3°F-4.3°C 80% 1.7 mph N2.7 kmh N 3.2 mph5.1 kmh 29.33 in993.2 mb 0.00 in0.0 mm 0.00 in0.0 mm 0.00 in0.0 mm
08:58 AM 29.7°F-1.3°C 24.3°F-4.3°C 80% 2.2 mph SSW3.5 kmh SSW 3.2 mph5.1 kmh 29.33 in993.2 mb 0.00 in0.0 mm 0.00 in0.0 mm 0.00 in0.0 mm
08:59 AM 29.7°F-1.3°C 24.3°F-4.3°C 80% 4.2 mph SSW6.8 kmh SSW 4.2 mph6.8 kmh 29.33 in993.2 mb 0.00 in0.0 mm 0.00 in0.0 mm 0.00 in0.0 mm
09:00 AM 29.7°F-1.3°C 24.3°F-4.3°C 80% 1.7 mph SW2.7 kmh SW 4.2 mph6.8 kmh 29.33 in993.2 mb 0.00 in0.0 mm 0.00 in0.0 mm 0.00 in0.0 mm
09:01 AM 29.7°F-1.3°C 24.3°F-4.3°C 80% 3.7 mph WSW6.0 kmh WSW 4.2 mph6.8 kmh 29.33 in993.2 mb 0.00 in0.0 mm 0.00 in0.0 mm 0.00 in0.0 mm
09:02 AM 29.7°F-1.3°C 24.3°F-4.3°C 80% 2.2 mph S3.5 kmh S 4.2 mph6.8 kmh 29.33 in993.2 mb 0.00 in0.0 mm 0.00 in0.0 mm 0.00 in0.0 mm
09:03 AM 29.7°F-1.3°C 24.3°F-4.3°C 80% 2.2 mph SW3.5 kmh SW 4.2 mph6.8 kmh 29.33 in993.2 mb 0.00 in0.0 mm 0.00 in0.0 mm 0.00 in0.0 mm
09:04 AM 29.7°F-1.3°C 24.3°F-4.3°C 80% 2.2 mph SW3.5 kmh SW 4.2 mph6.8 kmh 29.33 in993.2 mb 0.00 in0.0 mm 0.00 in0.0 mm 0.00 in0.0 mm
09:05 AM 29.7°F-1.3°C 24.3°F-4.3°C 80% 1.7 mph W2.7 kmh W 4.2 mph6.8 kmh 29.33 in993.2 mb 0.00 in0.0 mm 0.00 in0.0 mm 0.00 in0.0 mm
09:06 AM 29.7°F-1.3°C 24.3°F-4.3°C 80% 2.2 mph S3.5 kmh S 4.2 mph6.8 kmh 29.33 in993.2 mb 0.00 in0.0 mm 0.00 in0.0 mm 0.00 in0.0 mm
09:07 AM 29.7°F-1.3°C 24.3°F-4.3°C 80% 1.7 mph SW2.7 kmh SW 4.2 mph6.8 kmh 29.33 in993.2 mb 0.00 in0.0 mm 0.00 in0.0 mm 0.00 in0.0 mm
09:08 AM 29.7°F-1.3°C 24.3°F-4.3°C 80% 2.7 mph SW4.3 kmh SW 4.2 mph6.8 kmh 29.33 in993.2 mb 0.00 in0.0 mm 0.00 in0.0 mm 0.00 in0.0 mm
09:09 AM 29.7°F-1.3°C 24.0°F-4.4°C 79% 2.7 mph SSW4.3 kmh SSW 4.2 mph6.8 kmh 29.34 in993.6 mb 0.00 in0.0 mm 0.00 in0.0 mm 0.00 in0.0 mm
09:10 AM 29.7°F-1.3°C 24.0°F-4.4°C 79% 1.7 mph SSW2.7 kmh SSW 4.2 mph6.8 kmh 29.34 in993.6 mb 0.00 in0.0 mm 0.00 in0.0 mm 0.00 in0.0 mm
09:11 AM 29.8°F-1.2°C 24.1°F-4.4°C 79% 2.7 mph SSW4.3 kmh SSW 4.2 mph6.8 kmh 29.34 in993.6 mb 0.00 in0.0 mm 0.00 in0.0 mm 0.00 in0.0 mm
09:12 AM 29.8°F-1.2°C 24.1°F-4.4°C 79% 1.7 mph SE2.7 kmh SE 4.2 mph6.8 kmh 29.34 in993.6 mb 0.00 in0.0 mm 0.00 in0.0 mm 0.00 in0.0 mm
09:13 AM 29.8°F-1.2°C 24.1°F-4.4°C 79% 1.7 mph NE2.7 kmh NE 4.2 mph6.8 kmh 29.34 in993.6 mb 0.00 in0.0 mm 0.00 in0.0 mm 0.00 in0.0 mm
09:14 AM 29.8°F-1.2°C 24.1°F-4.4°C 79% 1.7 mph S2.7 kmh S 4.2 mph6.8 kmh 29.34 in993.6 mb 0.00 in0.0 mm 0.00 in0.0 mm 0.00 in0.0 mm
09:15 AM 29.8°F-1.2°C 24.1°F-4.4°C 79% 2.2 mph NW3.5 kmh NW 4.2 mph6.8 kmh 29.34 in993.6 mb 0.00 in0.0 mm 0.00 in0.0 mm 0.00 in0.0 mm
09:16 AM 30.0°F-1.1°C 24.3°F-4.3°C 79% 2.2 mph W3.5 kmh W 4.2 mph6.8 kmh 29.34 in993.6 mb 0.00 in0.0 mm 0.00 in0.0 mm 0.00 in0.0 mm
09:17 AM 30.0°F-1.1°C 24.3°F-4.3°C 79% 2.2 mph SW3.5 kmh SW 4.2 mph6.8 kmh 29.34 in993.6 mb 0.00 in0.0 mm 0.00 in0.0 mm 0.00 in0.0 mm
09:18 AM 30.2°F-1.0°C 24.5°F-4.2°C 79% 2.7 mph SSW4.3 kmh SSW 4.2 mph6.8 kmh 29.34 in993.6 mb 0.00 in0.0 mm 0.00 in0.0 mm 0.00 in0.0 mm
09:19 AM 30.2°F-1.0°C 24.5°F-4.2°C 79% 1.7 mph NE2.7 kmh NE 2.7 mph4.3 kmh 29.34 in993.6 mb 0.00 in0.0 mm 0.00 in0.0 mm 0.00 in0.0 mm
09:20 AM 30.2°F-1.0°C 24.5°F-4.2°C 79% 1.7 mph SSW2.7 kmh SSW 2.7 mph4.3 kmh 29.34 in993.6 mb 0.00 in0.0 mm 0.00 in0.0 mm 0.00 in0.0 mm
09:21 AM 30.4°F-0.9°C 24.7°F-4.1°C 79% 1.7 mph SSW2.7 kmh SSW 2.7 mph4.3 kmh 29.34 in993.6 mb 0.00 in0.0 mm 0.00 in0.0 mm 0.00 in0.0 mm
09:22 AM 30.4°F-0.9°C 24.7°F-4.1°C 79% 2.2 mph WSW3.5 kmh WSW 2.7 mph4.3 kmh 29.35 in993.9 mb 0.00 in0.0 mm 0.00 in0.0 mm 0.00 in0.0 mm
09:23 AM 30.4°F-0.9°C 24.7°F-4.1°C 79% 2.2 mph SSW3.5 kmh SSW 2.7 mph4.3 kmh 29.35 in993.9 mb 0.00 in0.0 mm 0.00 in0.0 mm 0.00 in0.0 mm
09:24 AM 30.6°F-0.8°C 24.9°F-3.9°C 79% 1.7 mph WNW2.7 kmh WNW 2.7 mph4.3 kmh 29.35 in993.9 mb 0.00 in0.0 mm 0.00 in0.0 mm 0.00 in0.0 mm
09:25 AM 30.6°F-0.8°C 24.9°F-3.9°C 79% 2.2 mph S3.5 kmh S 2.7 mph4.3 kmh 29.35 in993.9 mb 0.00 in0.0 mm 0.00 in0.0 mm 0.00 in0.0 mm
09:26 AM 30.6°F-0.8°C 24.9°F-3.9°C 79% Calm Calm 2.7 mph4.3 kmh 29.35 in993.9 mb 0.00 in0.0 mm 0.00 in0.0 mm 0.00 in0.0 mm
09:27 AM 30.6°F-0.8°C 24.9°F-3.9°C 79% 2.2 mph S3.5 kmh S 2.7 mph4.3 kmh 29.35 in993.9 mb 0.00 in0.0 mm 0.00 in0.0 mm 0.00 in0.0 mm
09:28 AM 30.4°F-0.9°C 24.1°F-4.4°C 77% 2.2 mph S3.5 kmh S 3.7 mph6.0 kmh 29.35 in993.9 mb 0.00 in0.0 mm 0.00 in0.0 mm 0.00 in0.0 mm
09:29 AM 30.4°F-0.9°C 24.4°F-4.2°C 78% 1.7 mph S2.7 kmh S 3.7 mph6.0 kmh 29.35 in993.9 mb 0.00 in0.0 mm 0.00 in0.0 mm 0.00 in0.0 mm
09:30 AM 30.4°F-0.9°C 24.4°F-4.2°C 78% 2.2 mph SSW3.5 kmh SSW 3.7 mph6.0 kmh 29.35 in993.9 mb 0.00 in0.0 mm 0.00 in0.0 mm 0.00 in0.0 mm
09:31 AM 30.4°F-0.9°C 24.4°F-4.2°C 78% 2.2 mph WSW3.5 kmh WSW 3.7 mph6.0 kmh 29.35 in993.9 mb 0.00 in0.0 mm 0.00 in0.0 mm 0.00 in0.0 mm
09:32 AM 30.4°F-0.9°C 24.4°F-4.2°C 78% 1.7 mph SSW2.7 kmh SSW 3.7 mph6.0 kmh 29.35 in993.9 mb 0.00 in0.0 mm 0.00 in0.0 mm 0.00 in0.0 mm
09:33 AM 30.4°F-0.9°C 24.4°F-4.2°C 78% 1.7 mph W2.7 kmh W 3.7 mph6.0 kmh 29.36 in994.2 mb 0.00 in0.0 mm 0.00 in0.0 mm 0.00 in0.0 mm
09:34 AM 30.2°F-1.0°C 24.2°F-4.3°C 78% 2.2 mph SSW3.5 kmh SSW 3.7 mph6.0 kmh 29.36 in994.2 mb 0.00 in0.0 mm 0.00 in0.0 mm 0.00 in0.0 mm
09:35 AM 30.2°F-1.0°C 24.2°F-4.3°C 78% 2.7 mph SW4.3 kmh SW 3.7 mph6.0 kmh 29.36 in994.2 mb 0.00 in0.0 mm 0.00 in0.0 mm 0.00 in0.0 mm
09:36 AM 30.2°F-1.0°C 24.2°F-4.3°C 78% 2.2 mph NW3.5 kmh NW 3.7 mph6.0 kmh 29.36 in994.2 mb 0.00 in0.0 mm 0.00 in0.0 mm 0.00 in0.0 mm
09:37 AM 30.2°F-1.0°C 23.9°F-4.5°C 77% 1.7 mph SW2.7 kmh SW 3.7 mph6.0 kmh 29.36 in994.2 mb 0.00 in0.0 mm 0.00 in0.0 mm 0.00 in0.0 mm
09:38 AM 30.2°F-1.0°C 23.9°F-4.5°C 77% 1.7 mph SSW2.7 kmh SSW 3.7 mph6.0 kmh 29.36 in994.2 mb 0.00 in0.0 mm 0.00 in0.0 mm 0.00 in0.0 mm
09:39 AM 30.4°F-0.9°C 24.4°F-4.2°C 78% 2.2 mph S3.5 kmh S 3.7 mph6.0 kmh 29.36 in994.2 mb 0.00 in0.0 mm 0.00 in0.0 mm 0.00 in0.0 mm
09:40 AM 30.4°F-0.9°C 24.4°F-4.2°C 78% 1.7 mph S2.7 kmh S 4.7 mph7.6 kmh 29.36 in994.2 mb 0.00 in0.0 mm 0.00 in0.0 mm 0.00 in0.0 mm
09:41 AM 30.4°F-0.9°C 24.4°F-4.2°C 78% 1.7 mph SSW2.7 kmh SSW 4.7 mph7.6 kmh 29.36 in994.2 mb 0.00 in0.0 mm 0.00 in0.0 mm 0.00 in0.0 mm
09:42 AM 30.4°F-0.9°C 24.4°F-4.2°C 78% 2.2 mph SSW3.5 kmh SSW 4.7 mph7.6 kmh 29.36 in994.2 mb 0.00 in0.0 mm 0.00 in0.0 mm 0.00 in0.0 mm
09:43 AM 30.4°F-0.9°C 24.1°F-4.4°C 77% 2.7 mph SSW4.3 kmh SSW 4.7 mph7.6 kmh 29.36 in994.2 mb 0.00 in0.0 mm 0.00 in0.0 mm 0.00 in0.0 mm
09:44 AM 30.4°F-0.9°C 24.1°F-4.4°C 77% 1.1 mph SW1.8 kmh SW 4.7 mph7.6 kmh 29.36 in994.2 mb 0.00 in0.0 mm 0.00 in0.0 mm 0.00 in0.0 mm
09:45 AM 30.4°F-0.9°C 23.8°F-4.6°C 76% 2.7 mph W4.3 kmh W 4.7 mph7.6 kmh 29.36 in994.2 mb 0.00 in0.0 mm 0.00 in0.0 mm 0.00 in0.0 mm
09:46 AM 30.4°F-0.9°C 23.8°F-4.6°C 76% 2.2 mph W3.5 kmh W 4.7 mph7.6 kmh 29.36 in994.2 mb 0.00 in0.0 mm 0.00 in0.0 mm 0.00 in0.0 mm
09:47 AM 30.6°F-0.8°C 24.0°F-4.4°C 76% 2.2 mph SSW3.5 kmh SSW 4.7 mph7.6 kmh 29.36 in994.2 mb 0.00 in0.0 mm 0.00 in0.0 mm 0.00 in0.0 mm
09:48 AM 30.6°F-0.8°C 24.0°F-4.4°C 76% 1.7 mph SSE2.7 kmh SSE 4.7 mph7.6 kmh 29.36 in994.2 mb 0.00 in0.0 mm 0.00 in0.0 mm 0.00 in0.0 mm
09:49 AM 30.6°F-0.8°C 24.0°F-4.4°C 76% 5.8 mph S9.3 kmh S 5.8 mph9.3 kmh 29.36 in994.2 mb 0.00 in0.0 mm 0.00 in0.0 mm 0.00 in0.0 mm
09:50 AM 30.6°F-0.8°C 24.0°F-4.4°C 76% 1.7 mph SE2.7 kmh SE 5.8 mph9.3 kmh 29.36 in994.2 mb 0.00 in0.0 mm 0.00 in0.0 mm 0.00 in0.0 mm
09:51 AM 30.6°F-0.8°C 24.0°F-4.4°C 76% 4.2 mph SW6.8 kmh SW 5.8 mph9.3 kmh 29.36 in994.2 mb 0.00 in0.0 mm 0.00 in0.0 mm 0.00 in0.0 mm
09:52 AM 30.4°F-0.9°C 23.8°F-4.6°C 76% 3.7 mph SW6.0 kmh SW 5.8 mph9.3 kmh 29.36 in994.2 mb 0.00 in0.0 mm 0.00 in0.0 mm 0.00 in0.0 mm
09:53 AM 30.2°F-1.0°C 23.2°F-4.9°C 75% 1.1 mph W1.8 kmh W 5.8 mph9.3 kmh 29.36 in994.2 mb 0.00 in0.0 mm 0.00 in0.0 mm 0.00 in0.0 mm
09:54 AM 30.4°F-0.9°C 24.1°F-4.4°C 77% 2.2 mph SSW3.5 kmh SSW 5.8 mph9.3 kmh 29.36 in994.2 mb 0.00 in0.0 mm 0.00 in0.0 mm 0.00 in0.0 mm
09:55 AM 30.6°F-0.8°C 24.3°F-4.3°C 77% 1.7 mph S2.7 kmh S 5.8 mph9.3 kmh 29.36 in994.2 mb 0.00 in0.0 mm 0.00 in0.0 mm 0.00 in0.0 mm
09:56 AM 30.6°F-0.8°C 24.3°F-4.3°C 77% 2.2 mph SSW3.5 kmh SSW 5.8 mph9.3 kmh 29.36 in994.2 mb 0.00 in0.0 mm 0.00 in0.0 mm 0.00 in0.0 mm
09:57 AM 30.7°F-0.7°C 24.4°F-4.2°C 77% 3.2 mph W5.1 kmh W 5.8 mph9.3 kmh 29.36 in994.2 mb 0.00 in0.0 mm 0.00 in0.0 mm 0.00 in0.0 mm
09:58 AM 30.7°F-0.7°C 24.0°F-4.4°C 76% 3.2 mph WSW5.1 kmh WSW 5.8 mph9.3 kmh 29.37 in994.6 mb 0.00 in0.0 mm 0.00 in0.0 mm 0.00 in0.0 mm
09:59 AM 30.6°F-0.8°C 24.0°F-4.4°C 76% 5.3 mph SSW8.5 kmh SSW 5.3 mph8.5 kmh 29.37 in994.6 mb 0.00 in0.0 mm 0.00 in0.0 mm 0.00 in0.0 mm
10:00 AM 30.4°F-0.9°C 23.4°F-4.8°C 75% 2.2 mph SSE3.5 kmh SSE 5.3 mph8.5 kmh 29.37 in994.6 mb 0.00 in0.0 mm 0.00 in0.0 mm 0.00 in0.0 mm
10:01 AM 30.2°F-1.0°C 23.2°F-4.9°C 75% 2.2 mph SSW3.5 kmh SSW 5.3 mph8.5 kmh 29.37 in994.6 mb 0.00 in0.0 mm 0.00 in0.0 mm 0.00 in0.0 mm
10:02 AM 30.2°F-1.0°C 23.2°F-4.9°C 75% 1.7 mph SSW2.7 kmh SSW 5.3 mph8.5 kmh 29.37 in994.6 mb 0.00 in0.0 mm 0.00 in0.0 mm 0.00 in0.0 mm
10:03 AM 30.2°F-1.0°C 23.6°F-4.7°C 76% 1.1 mph S1.8 kmh S 5.3 mph8.5 kmh 29.37 in994.6 mb 0.00 in0.0 mm 0.00 in0.0 mm 0.00 in0.0 mm
10:04 AM 30.2°F-1.0°C 23.6°F-4.7°C 76% 3.2 mph ENE5.1 kmh ENE 5.8 mph9.3 kmh 29.37 in994.6 mb 0.00 in0.0 mm 0.00 in0.0 mm 0.00 in0.0 mm
10:05 AM 30.2°F-1.0°C 23.6°F-4.7°C 76% 3.7 mph ESE6.0 kmh ESE 5.8 mph9.3 kmh 29.37 in994.6 mb 0.00 in0.0 mm 0.00 in0.0 mm 0.00 in0.0 mm
10:06 AM 30.2°F-1.0°C 23.6°F-4.7°C 76% 2.7 mph SW4.3 kmh SW 5.8 mph9.3 kmh 29.37 in994.6 mb 0.00 in0.0 mm 0.00 in0.0 mm 0.00 in0.0 mm
10:07 AM 30.2°F-1.0°C 23.9°F-4.5°C 77% 1.7 mph W2.7 kmh W 5.8 mph9.3 kmh 29.37 in994.6 mb 0.00 in0.0 mm 0.00 in0.0 mm 0.00 in0.0 mm
10:08 AM 30.4°F-0.9°C 24.1°F-4.4°C 77% 1.7 mph SW2.7 kmh SW 5.8 mph9.3 kmh 29.37 in994.6 mb 0.00 in0.0 mm 0.00 in0.0 mm 0.00 in0.0 mm
10:09 AM 30.6°F-0.8°C 24.3°F-4.3°C 77% 2.2 mph SW3.5 kmh SW 5.8 mph9.3 kmh 29.37 in994.6 mb 0.00 in0.0 mm 0.00 in0.0 mm 0.00 in0.0 mm
10:10 AM 30.6°F-0.8°C 24.3°F-4.3°C 77% 2.7 mph NE4.3 kmh NE 5.8 mph9.3 kmh 29.38 in994.9 mb 0.00 in0.0 mm 0.00 in0.0 mm 0.00 in0.0 mm
10:11 AM 30.6°F-0.8°C 24.3°F-4.3°C 77% 1.7 mph SW2.7 kmh SW 5.8 mph9.3 kmh 29.38 in994.9 mb 0.00 in0.0 mm 0.00 in0.0 mm 0.00 in0.0 mm
10:12 AM 30.6°F-0.8°C 24.3°F-4.3°C 77% 3.2 mph S5.1 kmh S 5.8 mph9.3 kmh 29.38 in994.9 mb 0.00 in0.0 mm 0.00 in0.0 mm 0.00 in0.0 mm
10:13 AM 30.4°F-0.9°C 24.1°F-4.4°C 77% 3.2 mph SW5.1 kmh SW 5.8 mph9.3 kmh 29.38 in994.9 mb 0.00 in0.0 mm 0.00 in0.0 mm 0.00 in0.0 mm
10:14 AM 30.4°F-0.9°C 24.1°F-4.4°C 77% 3.7 mph S6.0 kmh S 3.7 mph6.0 kmh 29.38 in994.9 mb 0.00 in0.0 mm 0.00 in0.0 mm 0.00 in0.0 mm
10:15 AM 30.4°F-0.9°C 24.1°F-4.4°C 77% 2.2 mph SW3.5 kmh SW 3.7 mph6.0 kmh 29.38 in994.9 mb 0.00 in0.0 mm 0.00 in0.0 mm 0.00 in0.0 mm
10:16 AM 30.4°F-0.9°C 24.1°F-4.4°C 77% 2.2 mph SW3.5 kmh SW 3.7 mph6.0 kmh 29.38 in994.9 mb 0.00 in0.0 mm 0.00 in0.0 mm 0.00 in0.0 mm
10:17 AM 30.4°F-0.9°C 24.1°F-4.4°C 77% 3.2 mph SW5.1 kmh SW 3.7 mph6.0 kmh 29.38 in994.9 mb 0.00 in0.0 mm 0.00 in0.0 mm 0.00 in0.0 mm
10:18 AM 30.4°F-0.9°C 24.1°F-4.4°C 77% 2.7 mph W4.3 kmh W 3.7 mph6.0 kmh 29.38 in994.9 mb 0.00 in0.0 mm 0.00 in0.0 mm 0.00 in0.0 mm
10:19 AM 30.2°F-1.0°C 23.9°F-4.5°C 77% 2.7 mph SW4.3 kmh SW 4.7 mph7.6 kmh 29.38 in994.9 mb 0.00 in0.0 mm 0.00 in0.0 mm 0.00 in0.0 mm
10:20 AM 30.2°F-1.0°C 23.9°F-4.5°C 77% 2.7 mph SSW4.3 kmh SSW 4.7 mph7.6 kmh 29.38 in994.9 mb 0.00 in0.0 mm 0.00 in0.0 mm 0.00 in0.0 mm
10:21 AM 30.2°F-1.0°C 23.9°F-4.5°C 77% 2.2 mph SSW3.5 kmh SSW 4.7 mph7.6 kmh 29.38 in994.9 mb 0.00 in0.0 mm 0.00 in0.0 mm 0.00 in0.0 mm
10:22 AM 30.2°F-1.0°C 23.9°F-4.5°C 77% 2.7 mph N4.3 kmh N 4.7 mph7.6 kmh 29.38 in994.9 mb 0.00 in0.0 mm 0.00 in0.0 mm 0.00 in0.0 mm
10:23 AM 30.2°F-1.0°C 23.6°F-4.7°C 76% 1.7 mph SW2.7 kmh SW 4.7 mph7.6 kmh 29.38 in994.9 mb 0.00 in0.0 mm 0.00 in0.0 mm 0.00 in0.0 mm
10:24 AM 30.2°F-1.0°C 23.6°F-4.7°C 76% 2.2 mph SW3.5 kmh SW 4.7 mph7.6 kmh 29.38 in994.9 mb 0.00 in0.0 mm 0.00 in0.0 mm 0.00 in0.0 mm
10:25 AM 30.4°F-0.9°C 23.8°F-4.6°C 76% 2.2 mph WNW3.5 kmh WNW 4.7 mph7.6 kmh 29.38 in994.9 mb 0.00 in0.0 mm 0.00 in0.0 mm 0.00 in0.0 mm
10:26 AM 30.4°F-0.9°C 23.8°F-4.6°C 76% 4.7 mph SE7.6 kmh SE 4.7 mph7.6 kmh 29.38 in994.9 mb 0.00 in0.0 mm 0.00 in0.0 mm 0.00 in0.0 mm
10:27 AM 30.4°F-0.9°C 23.8°F-4.6°C 76% 2.7 mph SE4.3 kmh SE 4.7 mph7.6 kmh 29.38 in994.9 mb 0.00 in0.0 mm 0.00 in0.0 mm 0.00 in0.0 mm
10:28 AM 30.4°F-0.9°C 23.8°F-4.6°C 76% 6.3 mph SW10.1 kmh SW 6.3 mph10.1 kmh 29.38 in994.9 mb 0.00 in0.0 mm 0.00 in0.0 mm 0.00 in0.0 mm
10:29 AM 30.4°F-0.9°C 23.8°F-4.6°C 76% 2.2 mph S3.5 kmh S 6.3 mph10.1 kmh 29.38 in994.9 mb 0.00 in0.0 mm 0.00 in0.0 mm 0.00 in0.0 mm
10:30 AM 30.4°F-0.9°C 23.8°F-4.6°C 76% 2.2 mph S3.5 kmh S 6.3 mph10.1 kmh 29.38 in994.9 mb 0.00 in0.0 mm 0.00 in0.0 mm 0.00 in0.0 mm
10:31 AM 30.4°F-0.9°C 23.8°F-4.6°C 76% 2.2 mph S3.5 kmh S 6.3 mph10.1 kmh 29.38 in994.9 mb 0.00 in0.0 mm 0.00 in0.0 mm 0.00 in0.0 mm
10:32 AM 30.2°F-1.0°C 23.6°F-4.7°C 76% 5.3 mph SW8.5 kmh SW 6.3 mph10.1 kmh 29.38 in994.9 mb 0.00 in0.0 mm 0.00 in0.0 mm 0.00 in0.0 mm
10:33 AM 30.2°F-1.0°C 23.2°F-4.9°C 75% 1.7 mph SSW2.7 kmh SSW 6.3 mph10.1 kmh 29.38 in994.9 mb 0.00 in0.0 mm 0.00 in0.0 mm 0.00 in0.0 mm
10:34 AM 30.2°F-1.0°C 23.2°F-4.9°C 75% 5.3 mph N8.5 kmh N 6.3 mph10.1 kmh 29.38 in994.9 mb 0.00 in0.0 mm 0.00 in0.0 mm 0.00 in0.0 mm
10:35 AM 30.2°F-1.0°C 23.2°F-4.9°C 75% 3.2 mph NNE5.1 kmh NNE 6.3 mph10.1 kmh 29.38 in994.9 mb 0.00 in0.0 mm 0.00 in0.0 mm 0.00 in0.0 mm
10:36 AM 30.0°F-1.1°C 23.4°F-4.8°C 76% 2.2 mph SSW3.5 kmh SSW 6.3 mph10.1 kmh 29.38 in994.9 mb 0.00 in0.0 mm 0.00 in0.0 mm 0.00 in0.0 mm
10:37 AM 30.0°F-1.1°C 23.4°F-4.8°C 76% 4.2 mph ENE6.8 kmh ENE 6.3 mph10.1 kmh 29.38 in994.9 mb 0.00 in0.0 mm 0.00 in0.0 mm 0.00 in0.0 mm
10:38 AM 30.0°F-1.1°C 23.4°F-4.8°C 76% 2.2 mph ENE3.5 kmh ENE 7.8 mph12.6 kmh 29.38 in994.9 mb 0.00 in0.0 mm 0.00 in0.0 mm 0.00 in0.0 mm
10:39 AM 30.0°F-1.1°C 23.4°F-4.8°C 76% 2.7 mph S4.3 kmh S 7.8 mph12.6 kmh 29.38 in994.9 mb 0.00 in0.0 mm 0.00 in0.0 mm 0.00 in0.0 mm
10:40 AM 30.2°F-1.0°C 23.9°F-4.5°C 77% 3.2 mph ESE5.1 kmh ESE 7.8 mph12.6 kmh 29.38 in994.9 mb 0.00 in0.0 mm 0.00 in0.0 mm 0.00 in0.0 mm
10:41 AM 30.2°F-1.0°C 23.9°F-4.5°C 77% 2.2 mph SSW3.5 kmh SSW 7.8 mph12.6 kmh 29.38 in994.9 mb 0.00 in0.0 mm 0.00 in0.0 mm 0.00 in0.0 mm
10:42 AM 30.2°F-1.0°C 23.9°F-4.5°C 77% 2.2 mph S3.5 kmh S 7.8 mph12.6 kmh 29.38 in994.9 mb 0.00 in0.0 mm 0.00 in0.0 mm 0.00 in0.0 mm
10:43 AM 30.4°F-0.9°C 24.1°F-4.4°C 77% 1.7 mph SSW2.7 kmh SSW 7.8 mph12.6 kmh 29.38 in994.9 mb 0.00 in0.0 mm 0.00 in0.0 mm 0.00 in0.0 mm
10:44 AM 30.4°F-0.9°C 24.1°F-4.4°C 77% 1.7 mph S2.7 kmh S 7.8 mph12.6 kmh 29.38 in994.9 mb 0.00 in0.0 mm 0.00 in0.0 mm 0.00 in0.0 mm
10:45 AM 30.4°F-0.9°C 24.1°F-4.4°C 77% 2.2 mph SSW3.5 kmh SSW 7.8 mph12.6 kmh 29.38 in994.9 mb 0.00 in0.0 mm 0.00 in0.0 mm 0.00 in0.0 mm
10:46 AM 30.6°F-0.8°C 24.0°F-4.4°C 76% 2.7 mph S4.3 kmh S 7.8 mph12.6 kmh 29.39 in995.3 mb 0.00 in0.0 mm 0.00 in0.0 mm 0.00 in0.0 mm
10:47 AM 30.6°F-0.8°C 24.0°F-4.4°C 76% 2.2 mph WNW3.5 kmh WNW 7.8 mph12.6 kmh 29.39 in995.3 mb 0.00 in0.0 mm 0.00 in0.0 mm 0.00 in0.0 mm
10:48 AM 30.6°F-0.8°C 23.6°F-4.7°C 75% 2.2 mph WSW3.5 kmh WSW 4.7 mph7.6 kmh 29.39 in995.3 mb 0.00 in0.0 mm 0.00 in0.0 mm 0.00 in0.0 mm
10:49 AM 30.6°F-0.8°C 23.6°F-4.7°C 75% 1.7 mph SSW2.7 kmh SSW 4.7 mph7.6 kmh 29.39 in995.3 mb 0.00 in0.0 mm 0.00 in0.0 mm 0.00 in0.0 mm
10:50 AM 30.6°F-0.8°C 23.6°F-4.7°C 75% 2.2 mph SW3.5 kmh SW 4.7 mph7.6 kmh 29.39 in995.3 mb 0.00 in0.0 mm 0.00 in0.0 mm 0.00 in0.0 mm
10:51 AM 30.6°F-0.8°C 23.6°F-4.7°C 75% 1.1 mph SW1.8 kmh SW 4.7 mph7.6 kmh 29.39 in995.3 mb 0.00 in0.0 mm 0.00 in0.0 mm 0.00 in0.0 mm
10:52 AM 30.7°F-0.7°C 24.0°F-4.4°C 76% 5.3 mph ENE8.5 kmh ENE 5.3 mph8.5 kmh 29.39 in995.3 mb 0.00 in0.0 mm 0.00 in0.0 mm 0.00 in0.0 mm
10:53 AM 30.7°F-0.7°C 24.0°F-4.4°C 76% 2.7 mph WNW4.3 kmh WNW 5.3 mph8.5 kmh 29.39 in995.3 mb 0.00 in0.0 mm 0.00 in0.0 mm 0.00 in0.0 mm
10:54 AM 30.6°F-0.8°C 23.6°F-4.7°C 75% 2.2 mph SW3.5 kmh SW 5.3 mph8.5 kmh 29.39 in995.3 mb 0.00 in0.0 mm 0.00 in0.0 mm 0.00 in0.0 mm
10:55 AM 30.7°F-0.7°C 24.0°F-4.4°C 76% 1.7 mph SSE2.7 kmh SSE 5.3 mph8.5 kmh 29.39 in995.3 mb 0.00 in0.0 mm 0.00 in0.0 mm 0.00 in0.0 mm
10:56 AM 30.7°F-0.7°C 24.0°F-4.4°C 76% 2.7 mph ESE4.3 kmh ESE 5.3 mph8.5 kmh 29.39 in995.3 mb 0.00 in0.0 mm 0.00 in0.0 mm 0.00 in0.0 mm
10:57 AM 30.7°F-0.7°C 24.0°F-4.4°C 76% 2.7 mph WSW4.3 kmh WSW 5.3 mph8.5 kmh 29.39 in995.3 mb 0.00 in0.0 mm 0.00 in0.0 mm 0.00 in0.0 mm
10:58 AM 30.7°F-0.7°C 23.7°F-4.6°C 75% 3.7 mph NE6.0 kmh NE 5.3 mph8.5 kmh 29.39 in995.3 mb 0.00 in0.0 mm 0.00 in0.0 mm 0.00 in0.0 mm
10:59 AM 30.7°F-0.7°C 23.7°F-4.6°C 75% 2.2 mph SSW3.5 kmh SSW 5.3 mph8.5 kmh 29.39 in995.3 mb 0.00 in0.0 mm 0.00 in0.0 mm 0.00 in0.0 mm
11:00 AM 30.9°F-0.6°C 23.9°F-4.5°C 75% 3.2 mph SSE5.1 kmh SSE 5.3 mph8.5 kmh 29.39 in995.3 mb 0.00 in0.0 mm 0.00 in0.0 mm 0.00 in0.0 mm
11:01 AM 30.9°F-0.6°C 23.9°F-4.5°C 75% 5.3 mph SW8.5 kmh SW 5.3 mph8.5 kmh 29.39 in995.3 mb 0.00 in0.0 mm 0.00 in0.0 mm 0.00 in0.0 mm
11:02 AM 30.9°F-0.6°C 23.9°F-4.5°C 75% 3.2 mph S5.1 kmh S 5.3 mph8.5 kmh 29.39 in995.3 mb 0.00 in0.0 mm 0.00 in0.0 mm 0.00 in0.0 mm
11:03 AM 30.9°F-0.6°C 23.9°F-4.5°C 75% 3.2 mph SW5.1 kmh SW 5.3 mph8.5 kmh 29.39 in995.3 mb 0.00 in0.0 mm 0.00 in0.0 mm 0.00 in0.0 mm
11:04 AM 30.9°F-0.6°C 23.9°F-4.5°C 75% 1.7 mph SSW2.7 kmh SSW 5.3 mph8.5 kmh 29.39 in995.3 mb 0.00 in0.0 mm 0.00 in0.0 mm 0.00 in0.0 mm
11:05 AM 30.9°F-0.6°C 23.9°F-4.5°C 75% 1.7 mph W2.7 kmh W 5.3 mph8.5 kmh 29.39 in995.3 mb 0.00 in0.0 mm 0.00 in0.0 mm 0.00 in0.0 mm
11:06 AM 31.1°F-0.5°C 24.1°F-4.4°C 75% 2.7 mph WSW4.3 kmh WSW 5.3 mph8.5 kmh 29.39 in995.3 mb 0.00 in0.0 mm 0.00 in0.0 mm 0.00 in0.0 mm
11:07 AM 31.1°F-0.5°C 24.1°F-4.4°C 75% 1.7 mph SSW2.7 kmh SSW 5.3 mph8.5 kmh 29.39 in995.3 mb 0.00 in0.0 mm 0.00 in0.0 mm 0.00 in0.0 mm
11:08 AM 31.1°F-0.5°C 23.8°F-4.6°C 74% 2.7 mph WSW4.3 kmh WSW 5.3 mph8.5 kmh 29.39 in995.3 mb 0.00 in0.0 mm 0.00 in0.0 mm 0.00 in0.0 mm
11:09 AM 31.1°F-0.5°C 23.8°F-4.6°C 74% 2.7 mph ENE4.3 kmh ENE 5.3 mph8.5 kmh 29.39 in995.3 mb 0.00 in0.0 mm 0.00 in0.0 mm 0.00 in0.0 mm
11:10 AM 31.1°F-0.5°C 23.8°F-4.6°C 74% 3.2 mph W5.1 kmh W 5.3 mph8.5 kmh 29.39 in995.3 mb 0.00 in0.0 mm 0.00 in0.0 mm 0.00 in0.0 mm
11:11 AM 31.1°F-0.5°C 23.8°F-4.6°C 74% 3.2 mph S5.1 kmh S 4.2 mph6.8 kmh 29.39 in995.3 mb 0.00 in0.0 mm 0.00 in0.0 mm 0.00 in0.0 mm
11:12 AM 31.1°F-0.5°C 23.8°F-4.6°C 74% 1.7 mph SSW2.7 kmh SSW 4.2 mph6.8 kmh 29.39 in995.3 mb 0.00 in0.0 mm 0.00 in0.0 mm 0.00 in0.0 mm
11:13 AM 31.3°F-0.4°C 24.3°F-4.3°C 75% 2.2 mph S3.5 kmh S 4.2 mph6.8 kmh 29.39 in995.3 mb 0.00 in0.0 mm 0.00 in0.0 mm 0.00 in0.0 mm
11:14 AM 31.3°F-0.4°C 24.3°F-4.3°C 75% 1.7 mph ESE2.7 kmh ESE 4.2 mph6.8 kmh 29.39 in995.3 mb 0.00 in0.0 mm 0.00 in0.0 mm 0.00 in0.0 mm
11:15 AM 31.3°F-0.4°C 24.0°F-4.4°C 74% 1.7 mph SW2.7 kmh SW 4.2 mph6.8 kmh 29.39 in995.3 mb 0.00 in0.0 mm 0.00 in0.0 mm 0.00 in0.0 mm
11:16 AM 31.3°F-0.4°C 24.0°F-4.4°C 74% 1.7 mph SSW2.7 kmh SSW 4.2 mph6.8 kmh 29.39 in995.3 mb 0.00 in0.0 mm 0.00 in0.0 mm 0.00 in0.0 mm
11:17 AM 31.6°F-0.2°C 24.6°F-4.1°C 75% 1.7 mph SSW2.7 kmh SSW 4.2 mph6.8 kmh 29.39 in995.3 mb 0.00 in0.0 mm 0.00 in0.0 mm 0.00 in0.0 mm
11:18 AM 31.6°F-0.2°C 24.6°F-4.1°C 75% 2.2 mph ESE3.5 kmh ESE 4.2 mph6.8 kmh 29.39 in995.3 mb 0.00 in0.0 mm 0.00 in0.0 mm 0.00 in0.0 mm
11:19 AM 31.8°F-0.1°C 24.8°F-4.0°C 75% 1.7 mph WSW2.7 kmh WSW 4.2 mph6.8 kmh 29.39 in995.3 mb 0.00 in0.0 mm 0.00 in0.0 mm 0.00 in0.0 mm
11:20 AM 31.8°F-0.1°C 24.8°F-4.0°C 75% 1.7 mph SW2.7 kmh SW 3.2 mph5.1 kmh 29.39 in995.3 mb 0.00 in0.0 mm 0.00 in0.0 mm 0.00 in0.0 mm
11:21 AM 32.0°F0.0°C 25.0°F-3.9°C 75% 1.1 mph SSE1.8 kmh SSE 2.7 mph4.3 kmh 29.38 in994.9 mb 0.00 in0.0 mm 0.00 in0.0 mm 0.00 in0.0 mm
11:22 AM 32.0°F0.0°C 25.0°F-3.9°C 75% 1.1 mph SSW1.8 kmh SSW 2.7 mph4.3 kmh 29.38 in994.9 mb 0.00 in0.0 mm 0.00 in0.0 mm 0.00 in0.0 mm
11:23 AM 32.2°F0.1°C 25.2°F-3.8°C 75% 2.7 mph SSW4.3 kmh SSW 2.7 mph4.3 kmh 29.38 in994.9 mb 0.00 in0.0 mm 0.00 in0.0 mm 0.00 in0.0 mm
11:24 AM 32.4°F0.2°C 25.1°F-3.8°C 74% 2.7 mph SSW4.3 kmh SSW 2.7 mph4.3 kmh 29.38 in994.9 mb 0.00 in0.0 mm 0.00 in0.0 mm 0.00 in0.0 mm
11:25 AM 32.4°F0.2°C 25.1°F-3.8°C 74% 1.7 mph NNW2.7 kmh NNW 2.7 mph4.3 kmh 29.38 in994.9 mb 0.00 in0.0 mm 0.00 in0.0 mm 0.00 in0.0 mm
11:26 AM 32.4°F0.2°C 25.1°F-3.8°C 74% 1.7 mph S2.7 kmh S 2.7 mph4.3 kmh 29.38 in994.9 mb 0.00 in0.0 mm 0.00 in0.0 mm 0.00 in0.0 mm
11:27 AM 32.4°F0.2°C 25.1°F-3.8°C 74% 1.7 mph WSW2.7 kmh WSW 2.7 mph4.3 kmh 29.38 in994.9 mb 0.00 in0.0 mm 0.00 in0.0 mm 0.00 in0.0 mm
11:28 AM 32.5°F0.3°C 25.2°F-3.8°C 74% 3.2 mph SSW5.1 kmh SSW 3.7 mph6.0 kmh 29.38 in994.9 mb 0.00 in0.0 mm 0.00 in0.0 mm 0.00 in0.0 mm
11:29 AM 32.4°F0.2°C 24.7°F-4.1°C 73% 5.3 mph WNW8.5 kmh WNW 5.3 mph8.5 kmh 29.38 in994.9 mb 0.00 in0.0 mm 0.00 in0.0 mm 0.00 in0.0 mm
11:30 AM 32.4°F0.2°C 24.4°F-4.2°C 72% 1.1 mph SSW1.8 kmh SSW 5.3 mph8.5 kmh 29.38 in994.9 mb 0.00 in0.0 mm 0.00 in0.0 mm 0.00 in0.0 mm
11:31 AM 32.4°F0.2°C 24.4°F-4.2°C 72% 1.1 mph SSE1.8 kmh SSE 5.3 mph8.5 kmh 29.38 in994.9 mb 0.00 in0.0 mm 0.00 in0.0 mm 0.00 in0.0 mm
11:32 AM 32.2°F0.1°C 24.2°F-4.3°C 72% 3.2 mph W5.1 kmh W 5.3 mph8.5 kmh 29.38 in994.9 mb 0.00 in0.0 mm 0.00 in0.0 mm 0.00 in0.0 mm
11:33 AM 32.2°F0.1°C 24.2°F-4.3°C 72% 2.7 mph ESE4.3 kmh ESE 5.3 mph8.5 kmh 29.38 in994.9 mb 0.00 in0.0 mm 0.00 in0.0 mm 0.00 in0.0 mm
11:34 AM 32.2°F0.1°C 24.2°F-4.3°C 72% 2.2 mph S3.5 kmh S 5.3 mph8.5 kmh 29.38 in994.9 mb 0.00 in0.0 mm 0.00 in0.0 mm 0.00 in0.0 mm
11:35 AM 32.2°F0.1°C 24.2°F-4.3°C 72% 2.2 mph S3.5 kmh S 5.3 mph8.5 kmh 29.38 in994.9 mb 0.00 in0.0 mm 0.00 in0.0 mm 0.00 in0.0 mm
11:36 AM 32.2°F0.1°C 24.2°F-4.3°C 72% 2.7 mph ENE4.3 kmh ENE 5.3 mph8.5 kmh 29.38 in994.9 mb 0.00 in0.0 mm 0.00 in0.0 mm 0.00 in0.0 mm
11:37 AM 32.2°F0.1°C 24.2°F-4.3°C 72% 1.7 mph SSE2.7 kmh SSE 5.3 mph8.5 kmh 29.38 in994.9 mb 0.00 in0.0 mm 0.00 in0.0 mm 0.00 in0.0 mm
11:38 AM 32.0°F0.0°C 24.0°F-4.4°C 72% 1.7 mph ESE2.7 kmh ESE 5.3 mph8.5 kmh 29.38 in994.9 mb 0.00 in0.0 mm 0.00 in0.0 mm 0.00 in0.0 mm
11:39 AM 32.0°F0.0°C 24.0°F-4.4°C 72% 1.7 mph S2.7 kmh S 4.2 mph6.8 kmh 29.38 in994.9 mb 0.00 in0.0 mm 0.00 in0.0 mm 0.00 in0.0 mm
11:40 AM 32.2°F0.1°C 24.2°F-4.3°C 72% 2.2 mph ENE3.5 kmh ENE 4.2 mph6.8 kmh 29.38 in994.9 mb 0.00 in0.0 mm 0.00 in0.0 mm 0.00 in0.0 mm
11:41 AM 32.2°F0.1°C 24.2°F-4.3°C 72% 1.7 mph SW2.7 kmh SW 4.2 mph6.8 kmh 29.38 in994.9 mb 0.00 in0.0 mm 0.00 in0.0 mm 0.00 in0.0 mm
11:42 AM 32.2°F0.1°C 24.2°F-4.3°C 72% 3.7 mph W6.0 kmh W 3.7 mph6.0 kmh 29.38 in994.9 mb 0.00 in0.0 mm 0.00 in0.0 mm 0.00 in0.0 mm
11:43 AM 32.2°F0.1°C 23.9°F-4.5°C 71% 2.2 mph ESE3.5 kmh ESE 3.7 mph6.0 kmh 29.38 in994.9 mb 0.00 in0.0 mm 0.00 in0.0 mm 0.00 in0.0 mm
11:44 AM 32.2°F0.1°C 23.9°F-4.5°C 71% 2.2 mph W3.5 kmh W 3.7 mph6.0 kmh 29.38 in994.9 mb 0.00 in0.0 mm 0.00 in0.0 mm 0.00 in0.0 mm
11:45 AM 32.2°F0.1°C 23.9°F-4.5°C 71% 4.7 mph WNW7.6 kmh WNW 4.7 mph7.6 kmh 29.38 in994.9 mb 0.00 in0.0 mm 0.00 in0.0 mm 0.00 in0.0 mm
11:46 AM 32.2°F0.1°C 23.5°F-4.7°C 70% 2.7 mph SSW4.3 kmh SSW 4.7 mph7.6 kmh 29.38 in994.9 mb 0.00 in0.0 mm 0.00 in0.0 mm 0.00 in0.0 mm
11:47 AM 32.2°F0.1°C 23.5°F-4.7°C 70% 5.3 mph W8.5 kmh W 5.3 mph8.5 kmh 29.38 in994.9 mb 0.00 in0.0 mm 0.00 in0.0 mm 0.00 in0.0 mm
11:48 AM 32.0°F0.0°C 23.3°F-4.8°C 70% 2.7 mph SSW4.3 kmh SSW 5.8 mph9.3 kmh 29.38 in994.9 mb 0.00 in0.0 mm 0.00 in0.0 mm 0.00 in0.0 mm
11:49 AM 31.8°F-0.1°C 23.2°F-4.9°C 70% 1.7 mph SSW2.7 kmh SSW 5.8 mph9.3 kmh 29.38 in994.9 mb 0.00 in0.0 mm 0.00 in0.0 mm 0.00 in0.0 mm
11:50 AM 31.8°F-0.1°C 23.2°F-4.9°C 70% 2.7 mph WSW4.3 kmh WSW 5.8 mph9.3 kmh 29.38 in994.9 mb 0.00 in0.0 mm 0.00 in0.0 mm 0.00 in0.0 mm
11:51 AM 32.0°F0.0°C 23.3°F-4.8°C 70% 2.2 mph SW3.5 kmh SW 5.8 mph9.3 kmh 29.38 in994.9 mb 0.00 in0.0 mm 0.00 in0.0 mm 0.00 in0.0 mm
11:52 AM 32.0°F0.0°C 23.3°F-4.8°C 70% 2.7 mph SW4.3 kmh SW 5.8 mph9.3 kmh 29.38 in994.9 mb 0.00 in0.0 mm 0.00 in0.0 mm 0.00 in0.0 mm
11:53 AM 32.0°F0.0°C 23.3°F-4.8°C 70% 2.7 mph SSW4.3 kmh SSW 5.8 mph9.3 kmh 29.38 in994.9 mb 0.00 in0.0 mm 0.00 in0.0 mm 0.00 in0.0 mm
11:54 AM 32.2°F0.1°C 23.9°F-4.5°C 71% 1.7 mph S2.7 kmh S 5.8 mph9.3 kmh 29.38 in994.9 mb 0.00 in0.0 mm 0.00 in0.0 mm 0.00 in0.0 mm
11:55 AM 32.4°F0.2°C 24.7°F-4.1°C 73% 1.7 mph WSW2.7 kmh WSW 5.8 mph9.3 kmh 29.38 in994.9 mb 0.00 in0.0 mm 0.00 in0.0 mm 0.00 in0.0 mm
11:56 AM 32.4°F0.2°C 24.7°F-4.1°C 73% 2.2 mph SSW3.5 kmh SSW 5.8 mph9.3 kmh 29.38 in994.9 mb 0.00 in0.0 mm 0.00 in0.0 mm 0.00 in0.0 mm
11:57 AM 32.4°F0.2°C 25.4°F-3.7°C 75% 2.2 mph SW3.5 kmh SW 5.8 mph9.3 kmh 29.38 in994.9 mb 0.00 in0.0 mm 0.00 in0.0 mm 0.00 in0.0 mm
11:58 AM 32.4°F0.2°C 25.7°F-3.5°C 76% 2.2 mph SW3.5 kmh SW 4.2 mph6.8 kmh 29.38 in994.9 mb 0.00 in0.0 mm 0.00 in0.0 mm 0.00 in0.0 mm
11:59 AM 32.4°F0.2°C 25.7°F-3.5°C 76% 2.2 mph SSW3.5 kmh SSW 3.2 mph5.1 kmh 29.38 in994.9 mb 0.00 in0.0 mm 0.00 in0.0 mm 0.00 in0.0 mm
12:00 PM 32.4°F0.2°C 26.0°F-3.3°C 77% 2.7 mph SSW4.3 kmh SSW 3.2 mph5.1 kmh 29.38 in994.9 mb 0.00 in0.0 mm 0.00 in0.0 mm 0.00 in0.0 mm
12:01 PM 32.4°F0.2°C 26.3°F-3.2°C 78% 2.2 mph WSW3.5 kmh WSW 4.7 mph7.6 kmh 29.38 in994.9 mb 0.00 in0.0 mm 0.00 in0.0 mm 0.00 in0.0 mm
12:02 PM 32.4°F0.2°C 26.3°F-3.2°C 78% 3.2 mph SW5.1 kmh SW 4.7 mph7.6 kmh 29.38 in994.9 mb 0.00 in0.0 mm 0.00 in0.0 mm 0.00 in0.0 mm
12:03 PM 32.4°F0.2°C 26.3°F-3.2°C 78% 2.7 mph W4.3 kmh W 4.7 mph7.6 kmh 29.38 in994.9 mb 0.00 in0.0 mm 0.00 in0.0 mm 0.00 in0.0 mm
12:04 PM 32.4°F0.2°C 26.3°F-3.2°C 78% 1.7 mph SSW2.7 kmh SSW 4.7 mph7.6 kmh 29.38 in994.9 mb 0.00 in0.0 mm 0.00 in0.0 mm 0.00 in0.0 mm
12:05 PM 32.4°F0.2°C 26.3°F-3.2°C 78% 2.7 mph S4.3 kmh S 4.7 mph7.6 kmh 29.38 in994.9 mb 0.00 in0.0 mm 0.00 in0.0 mm 0.00 in0.0 mm
12:06 PM 32.4°F0.2°C 26.3°F-3.2°C 78% 1.7 mph S2.7 kmh S 4.7 mph7.6 kmh 29.38 in994.9 mb 0.00 in0.0 mm 0.00 in0.0 mm 0.00 in0.0 mm
12:07 PM 32.4°F0.2°C 26.3°F-3.2°C 78% 3.2 mph E5.1 kmh E 4.7 mph7.6 kmh 29.38 in994.9 mb 0.00 in0.0 mm 0.00 in0.0 mm 0.00 in0.0 mm
12:08 PM 32.2°F0.1°C 25.8°F-3.4°C 77% 2.7 mph SSW4.3 kmh SSW 4.7 mph7.6 kmh 29.38 in994.9 mb 0.00 in0.0 mm 0.00 in0.0 mm 0.00 in0.0 mm
12:09 PM 32.2°F0.1°C 25.8°F-3.4°C 77% 1.7 mph SW2.7 kmh SW 5.8 mph9.3 kmh 29.37 in994.6 mb 0.00 in0.0 mm 0.00 in0.0 mm 0.00 in0.0 mm
12:10 PM 32.2°F0.1°C 25.8°F-3.4°C 77% 1.7 mph SSW2.7 kmh SSW 5.8 mph9.3 kmh 29.37 in994.6 mb 0.00 in0.0 mm 0.00 in0.0 mm 0.00 in0.0 mm
12:11 PM 32.2°F0.1°C 25.8°F-3.4°C 77% 3.2 mph SSW5.1 kmh SSW 5.8 mph9.3 kmh 29.37 in994.6 mb 0.00 in0.0 mm 0.00 in0.0 mm 0.00 in0.0 mm
12:12 PM 32.2°F0.1°C 25.5°F-3.6°C 76% 1.7 mph SSW2.7 kmh SSW 5.8 mph9.3 kmh 29.37 in994.6 mb 0.00 in0.0 mm 0.00 in0.0 mm 0.00 in0.0 mm
12:13 PM 32.0°F0.0°C 25.3°F-3.7°C 76% 3.2 mph SW5.1 kmh SW 5.8 mph9.3 kmh 29.37 in994.6 mb 0.00 in0.0 mm 0.00 in0.0 mm 0.00 in0.0 mm
12:14 PM 32.0°F0.0°C 25.3°F-3.7°C 76% 1.7 mph S2.7 kmh S 5.8 mph9.3 kmh 29.37 in994.6 mb 0.00 in0.0 mm 0.00 in0.0 mm 0.00 in0.0 mm
12:15 PM 32.0°F0.0°C 25.6°F-3.6°C 77% 2.7 mph SE4.3 kmh SE 5.8 mph9.3 kmh 29.37 in994.6 mb 0.00 in0.0 mm 0.00 in0.0 mm 0.00 in0.0 mm
12:16 PM 32.0°F0.0°C 25.6°F-3.6°C 77% 1.7 mph SSE2.7 kmh SSE 5.8 mph9.3 kmh 29.37 in994.6 mb 0.00 in0.0 mm 0.00 in0.0 mm 0.00 in0.0 mm
12:17 PM 32.0°F0.0°C 26.2°F-3.2°C 79% 3.2 mph S5.1 kmh S 5.8 mph9.3 kmh 29.37 in994.6 mb 0.00 in0.0 mm 0.00 in0.0 mm 0.00 in0.0 mm
12:18 PM 32.0°F0.0°C 26.2°F-3.2°C 79% 1.7 mph ESE2.7 kmh ESE 5.8 mph9.3 kmh 29.37 in994.6 mb 0.00 in0.0 mm 0.00 in0.0 mm 0.00 in0.0 mm
12:19 PM 32.0°F0.0°C 26.5°F-3.1°C 80% 2.7 mph SW4.3 kmh SW 4.7 mph7.6 kmh 29.37 in994.6 mb 0.00 in0.0 mm 0.00 in0.0 mm 0.00 in0.0 mm
12:20 PM 32.0°F0.0°C 26.8°F-2.9°C 81% 2.2 mph W3.5 kmh W 4.7 mph7.6 kmh 29.37 in994.6 mb 0.00 in0.0 mm 0.00 in0.0 mm 0.00 in0.0 mm
12:21 PM 32.0°F0.0°C 26.8°F-2.9°C 81% 2.2 mph SE3.5 kmh SE 4.7 mph7.6 kmh 29.37 in994.6 mb 0.00 in0.0 mm 0.00 in0.0 mm 0.00 in0.0 mm
12:22 PM 32.0°F0.0°C 26.8°F-2.9°C 81% 3.2 mph W5.1 kmh W 4.7 mph7.6 kmh 29.38 in994.9 mb 0.00 in0.0 mm 0.00 in0.0 mm 0.00 in0.0 mm
12:23 PM 32.0°F0.0°C 26.8°F-2.9°C 81% 1.1 mph SW1.8 kmh SW 4.7 mph7.6 kmh 29.38 in994.9 mb 0.00 in0.0 mm 0.00 in0.0 mm 0.00 in0.0 mm
12:24 PM 31.8°F-0.1°C 26.6°F-3.0°C 81% 2.2 mph SSE3.5 kmh SSE 4.7 mph7.6 kmh 29.38 in994.9 mb 0.00 in0.0 mm 0.00 in0.0 mm 0.00 in0.0 mm
12:25 PM 31.8°F-0.1°C 26.9°F-2.8°C 82% 2.7 mph SSW4.3 kmh SSW 4.7 mph7.6 kmh 29.38 in994.9 mb 0.00 in0.0 mm 0.00 in0.0 mm 0.00 in0.0 mm
12:26 PM 31.8°F-0.1°C 27.2°F-2.7°C 83% 1.1 mph S1.8 kmh S 3.2 mph5.1 kmh 29.38 in994.9 mb 0.01 in0.3 mm 0.60 in15.2 mm 0.01 in0.3 mm
12:27 PM 31.8°F-0.1°C 27.5°F-2.5°C 84% 2.2 mph S3.5 kmh S 3.2 mph5.1 kmh 29.38 in994.9 mb 0.01 in0.3 mm 0.00 in0.0 mm 0.01 in0.3 mm
12:28 PM 31.8°F-0.1°C 27.8°F-2.3°C 85% 1.1 mph S1.8 kmh S 3.2 mph5.1 kmh 29.38 in994.9 mb 0.01 in0.3 mm 0.00 in0.0 mm 0.01 in0.3 mm
12:29 PM 31.6°F-0.2°C 27.6°F-2.4°C 85% 1.7 mph SSW2.7 kmh SSW 3.2 mph5.1 kmh 29.38 in994.9 mb 0.01 in0.3 mm 0.00 in0.0 mm 0.01 in0.3 mm
12:30 PM 31.6°F-0.2°C 27.6°F-2.4°C 85% 2.2 mph S3.5 kmh S 3.2 mph5.1 kmh 29.38 in994.9 mb 0.01 in0.3 mm 0.00 in0.0 mm 0.01 in0.3 mm
12:31 PM 31.5°F-0.3°C 27.5°F-2.5°C 85% 1.1 mph SSW1.8 kmh SSW 3.2 mph5.1 kmh 29.38 in994.9 mb 0.01 in0.3 mm 0.00 in0.0 mm 0.01 in0.3 mm
12:32 PM 31.3°F-0.4°C 27.3°F-2.6°C 85% 1.1 mph W1.8 kmh W 3.2 mph5.1 kmh 29.38 in994.9 mb 0.01 in0.3 mm 0.00 in0.0 mm 0.01 in0.3 mm
12:33 PM 31.3°F-0.4°C 27.0°F-2.8°C 84% 1.7 mph S2.7 kmh S 3.2 mph5.1 kmh 29.38 in994.9 mb 0.01 in0.3 mm 0.00 in0.0 mm 0.01 in0.3 mm
12:34 PM 31.5°F-0.3°C 27.2°F-2.7°C 84% 2.7 mph W4.3 kmh W 2.7 mph4.3 kmh 29.37 in994.6 mb 0.01 in0.3 mm 0.00 in0.0 mm 0.01 in0.3 mm
12:35 PM 31.5°F-0.3°C 27.5°F-2.5°C 85% 1.1 mph SSW1.8 kmh SSW 2.7 mph4.3 kmh 29.37 in994.6 mb 0.01 in0.3 mm 0.00 in0.0 mm 0.01 in0.3 mm
12:36 PM 31.5°F-0.3°C 27.5°F-2.5°C 85% 2.2 mph ESE3.5 kmh ESE 2.7 mph4.3 kmh 29.37 in994.6 mb 0.01 in0.3 mm 0.00 in0.0 mm 0.01 in0.3 mm
12:37 PM 31.5°F-0.3°C 27.5°F-2.5°C 85% 2.2 mph SSE3.5 kmh SSE 2.7 mph4.3 kmh 29.37 in994.6 mb 0.01 in0.3 mm 0.00 in0.0 mm 0.01 in0.3 mm
12:38 PM 31.5°F-0.3°C 27.5°F-2.5°C 85% 1.1 mph SSW1.8 kmh SSW 2.7 mph4.3 kmh 29.37 in994.6 mb 0.01 in0.3 mm 0.00 in0.0 mm 0.01 in0.3 mm
12:39 PM 31.6°F-0.2°C 27.6°F-2.4°C 85% 1.7 mph S2.7 kmh S 2.7 mph4.3 kmh 29.37 in994.6 mb 0.01 in0.3 mm 0.00 in0.0 mm 0.01 in0.3 mm
12:40 PM 31.6°F-0.2°C 27.6°F-2.4°C 85% 1.1 mph W1.8 kmh W 2.7 mph4.3 kmh 29.37 in994.6 mb 0.01 in0.3 mm 0.00 in0.0 mm 0.01 in0.3 mm
12:41 PM 31.6°F-0.2°C 27.6°F-2.4°C 85% 1.1 mph SSW1.8 kmh SSW 2.7 mph4.3 kmh 29.37 in994.6 mb 0.01 in0.3 mm 0.00 in0.0 mm 0.01 in0.3 mm
12:42 PM 31.6°F-0.2°C 27.9°F-2.3°C 86% 1.7 mph SSW2.7 kmh SSW 2.7 mph4.3 kmh 29.37 in994.6 mb 0.01 in0.3 mm 0.00 in0.0 mm 0.01 in0.3 mm
12:43 PM 31.6°F-0.2°C 27.9°F-2.3°C 86% 1.1 mph SSW1.8 kmh SSW 2.7 mph4.3 kmh 29.37 in994.6 mb 0.01 in0.3 mm 0.00 in0.0 mm 0.01 in0.3 mm
12:44 PM 31.6°F-0.2°C 27.6°F-2.4°C 85% 1.7 mph SSW2.7 kmh SSW 2.7 mph4.3 kmh 29.37 in994.6 mb 0.01 in0.3 mm 0.00 in0.0 mm 0.01 in0.3 mm
12:45 PM 31.6°F-0.2°C 27.6°F-2.4°C 85% Calm Calm 2.2 mph3.5 kmh 29.37 in994.6 mb 0.01 in0.3 mm 0.00 in0.0 mm 0.01 in0.3 mm
12:46 PM 31.6°F-0.2°C 27.3°F-2.6°C 84% 2.2 mph SSW3.5 kmh SSW 2.2 mph3.5 kmh 29.37 in994.6 mb 0.01 in0.3 mm 0.00 in0.0 mm 0.01 in0.3 mm
12:47 PM 31.6°F-0.2°C 27.3°F-2.6°C 84% Calm Calm 2.2 mph3.5 kmh 29.37 in994.6 mb 0.01 in0.3 mm 0.00 in0.0 mm 0.01 in0.3 mm
12:48 PM 31.5°F-0.3°C 27.2°F-2.7°C 84% 2.7 mph ESE4.3 kmh ESE 4.2 mph6.8 kmh 29.37 in994.6 mb 0.01 in0.3 mm 0.00 in0.0 mm 0.01 in0.3 mm
12:49 PM 31.5°F-0.3°C 27.2°F-2.7°C 84% 1.1 mph SW1.8 kmh SW 4.2 mph6.8 kmh 29.37 in994.6 mb 0.01 in0.3 mm 0.00 in0.0 mm 0.01 in0.3 mm
12:50 PM 31.5°F-0.3°C 27.2°F-2.7°C 84% 1.7 mph S2.7 kmh S 4.2 mph6.8 kmh 29.37 in994.6 mb 0.01 in0.3 mm 0.00 in0.0 mm 0.01 in0.3 mm
12:51 PM 31.5°F-0.3°C 27.2°F-2.7°C 84% 1.7 mph SSW2.7 kmh SSW 4.2 mph6.8 kmh 29.37 in994.6 mb 0.01 in0.3 mm 0.00 in0.0 mm 0.01 in0.3 mm
12:52 PM 31.5°F-0.3°C 27.2°F-2.7°C 84% 1.7 mph SSE2.7 kmh SSE 4.2 mph6.8 kmh 29.37 in994.6 mb 0.01 in0.3 mm 0.00 in0.0 mm 0.01 in0.3 mm
12:53 PM 31.5°F-0.3°C 27.2°F-2.7°C 84% 1.1 mph NNW1.8 kmh NNW 4.2 mph6.8 kmh 29.37 in994.6 mb 0.01 in0.3 mm 0.00 in0.0 mm 0.01 in0.3 mm
12:54 PM 31.5°F-0.3°C 27.2°F-2.7°C 84% 1.1 mph SSW1.8 kmh SSW 4.2 mph6.8 kmh 29.37 in994.6 mb 0.01 in0.3 mm 0.00 in0.0 mm 0.01 in0.3 mm
12:55 PM 31.5°F-0.3°C 27.2°F-2.7°C 84% 2.2 mph SSW3.5 kmh SSW 4.2 mph6.8 kmh 29.37 in994.6 mb 0.01 in0.3 mm 0.00 in0.0 mm 0.01 in0.3 mm
12:56 PM 31.5°F-0.3°C 27.5°F-2.5°C 85% 1.7 mph SSE2.7 kmh SSE 4.2 mph6.8 kmh 29.37 in994.6 mb 0.01 in0.3 mm 0.00 in0.0 mm 0.01 in0.3 mm
12:57 PM 31.5°F-0.3°C 27.5°F-2.5°C 85% 1.7 mph SSW2.7 kmh SSW 4.2 mph6.8 kmh 29.37 in994.6 mb 0.01 in0.3 mm 0.00 in0.0 mm 0.01 in0.3 mm
12:58 PM 31.5°F-0.3°C 27.5°F-2.5°C 85% 1.1 mph S1.8 kmh S 2.7 mph4.3 kmh 29.37 in994.6 mb 0.01 in0.3 mm 0.00 in0.0 mm 0.01 in0.3 mm
12:59 PM 31.6°F-0.2°C 27.6°F-2.4°C 85% 1.1 mph SSW1.8 kmh SSW 2.7 mph4.3 kmh 29.37 in994.6 mb 0.01 in0.3 mm 0.00 in0.0 mm 0.01 in0.3 mm
01:00 PM 31.6°F-0.2°C 27.6°F-2.4°C 85% 1.7 mph WNW2.7 kmh WNW 2.7 mph4.3 kmh 29.37 in994.6 mb 0.01 in0.3 mm 0.00 in0.0 mm 0.01 in0.3 mm
01:01 PM 31.6°F-0.2°C 27.6°F-2.4°C 85% 1.1 mph SSW1.8 kmh SSW 2.7 mph4.3 kmh 29.37 in994.6 mb 0.01 in0.3 mm 0.00 in0.0 mm 0.01 in0.3 mm
01:02 PM 31.6°F-0.2°C 27.6°F-2.4°C 85% 1.1 mph WSW1.8 kmh WSW 2.7 mph4.3 kmh 29.37 in994.6 mb 0.01 in0.3 mm 0.00 in0.0 mm 0.01 in0.3 mm
01:03 PM 31.6°F-0.2°C 27.6°F-2.4°C 85% 1.7 mph S2.7 kmh S 2.7 mph4.3 kmh 29.37 in994.6 mb 0.01 in0.3 mm 0.00 in0.0 mm 0.01 in0.3 mm
01:04 PM 31.6°F-0.2°C 27.6°F-2.4°C 85% 2.2 mph S3.5 kmh S 2.2 mph3.5 kmh 29.37 in994.6 mb 0.01 in0.3 mm 0.00 in0.0 mm 0.01 in0.3 mm
01:05 PM 31.6°F-0.2°C 27.6°F-2.4°C 85% 1.1 mph SSE1.8 kmh SSE 2.2 mph3.5 kmh 29.37 in994.6 mb 0.01 in0.3 mm 0.00 in0.0 mm 0.01 in0.3 mm
01:06 PM 31.6°F-0.2°C 27.6°F-2.4°C 85% 2.2 mph S3.5 kmh S 2.7 mph4.3 kmh 29.37 in994.6 mb 0.01 in0.3 mm 0.00 in0.0 mm 0.01 in0.3 mm
01:07 PM 31.8°F-0.1°C 27.8°F-2.3°C 85% 1.1 mph SSW1.8 kmh SSW 2.7 mph4.3 kmh 29.37 in994.6 mb 0.01 in0.3 mm 0.00 in0.0 mm 0.01 in0.3 mm
01:08 PM 31.8°F-0.1°C 27.8°F-2.3°C 85% 1.7 mph SSW2.7 kmh SSW 2.7 mph4.3 kmh 29.37 in994.6 mb 0.01 in0.3 mm 0.00 in0.0 mm 0.01 in0.3 mm
01:09 PM 31.8°F-0.1°C 27.8°F-2.3°C 85% 2.2 mph SW3.5 kmh SW 2.7 mph4.3 kmh 29.37 in994.6 mb 0.01 in0.3 mm 0.00 in0.0 mm 0.01 in0.3 mm
01:10 PM 31.8°F-0.1°C 27.8°F-2.3°C 85% 2.7 mph SSW4.3 kmh SSW 2.7 mph4.3 kmh 29.37 in994.6 mb 0.01 in0.3 mm 0.00 in0.0 mm 0.01 in0.3 mm
01:11 PM 31.8°F-0.1°C 27.8°F-2.3°C 85% 1.1 mph SSW1.8 kmh SSW 2.7 mph4.3 kmh 29.37 in994.6 mb 0.01 in0.3 mm 0.00 in0.0 mm 0.01 in0.3 mm
01:12 PM 31.8°F-0.1°C 27.5°F-2.5°C 84% 1.7 mph WSW2.7 kmh WSW 3.7 mph6.0 kmh 29.37 in994.6 mb 0.01 in0.3 mm 0.00 in0.0 mm 0.01 in0.3 mm
01:13 PM 31.8°F-0.1°C 27.5°F-2.5°C 84% 2.2 mph SSW3.5 kmh SSW 3.7 mph6.0 kmh 29.37 in994.6 mb 0.01 in0.3 mm 0.00 in0.0 mm 0.01 in0.3 mm
01:14 PM 31.8°F-0.1°C 27.5°F-2.5°C 84% 2.2 mph WSW3.5 kmh WSW 3.7 mph6.0 kmh 29.37 in994.6 mb 0.01 in0.3 mm 0.00 in0.0 mm 0.01 in0.3 mm
01:15 PM 31.8°F-0.1°C 27.5°F-2.5°C 84% Calm Calm 3.7 mph6.0 kmh 29.37 in994.6 mb 0.01 in0.3 mm 0.00 in0.0 mm 0.01 in0.3 mm
01:16 PM 32.0°F0.0°C 27.7°F-2.4°C 84% 2.7 mph NNE4.3 kmh NNE 3.7 mph6.0 kmh 29.37 in994.6 mb 0.01 in0.3 mm 0.00 in0.0 mm 0.01 in0.3 mm
01:17 PM 32.0°F0.0°C 27.7°F-2.4°C 84% 2.2 mph S3.5 kmh S 3.7 mph6.0 kmh 29.37 in994.6 mb 0.01 in0.3 mm 0.00 in0.0 mm 0.01 in0.3 mm
01:18 PM 32.0°F0.0°C 27.7°F-2.4°C 84% 1.1 mph SW1.8 kmh SW 3.7 mph6.0 kmh 29.37 in994.6 mb 0.01 in0.3 mm 0.00 in0.0 mm 0.01 in0.3 mm
01:19 PM 32.2°F0.1°C 27.9°F-2.3°C 84% 1.1 mph SSW1.8 kmh SSW 3.7 mph6.0 kmh 29.37 in994.6 mb 0.01 in0.3 mm 0.00 in0.0 mm 0.01 in0.3 mm
01:20 PM 32.2°F0.1°C 27.9°F-2.3°C 84% 1.7 mph SSW2.7 kmh SSW 3.7 mph6.0 kmh 29.37 in994.6 mb 0.01 in0.3 mm 0.00 in0.0 mm 0.01 in0.3 mm
01:21 PM 32.2°F0.1°C 27.9°F-2.3°C 84% 2.2 mph WNW3.5 kmh WNW 3.7 mph6.0 kmh 29.36 in994.2 mb 0.01 in0.3 mm 0.00 in0.0 mm 0.01 in0.3 mm
01:22 PM 32.2°F0.1°C 27.9°F-2.3°C 84% 2.7 mph WSW4.3 kmh WSW 2.7 mph4.3 kmh 29.36 in994.2 mb 0.01 in0.3 mm 0.00 in0.0 mm 0.01 in0.3 mm
01:23 PM 32.2°F0.1°C 27.9°F-2.3°C 84% 3.2 mph S5.1 kmh S 3.2 mph5.1 kmh 29.36 in994.2 mb 0.01 in0.3 mm 0.00 in0.0 mm 0.01 in0.3 mm
01:24 PM 32.4°F0.2°C 28.1°F-2.2°C 84% 2.2 mph E3.5 kmh E 3.2 mph5.1 kmh 29.36 in994.2 mb 0.01 in0.3 mm 0.00 in0.0 mm 0.01 in0.3 mm
01:25 PM 32.4°F0.2°C 28.1°F-2.2°C 84% 2.2 mph SSW3.5 kmh SSW 3.2 mph5.1 kmh 29.36 in994.2 mb 0.01 in0.3 mm 0.00 in0.0 mm 0.01 in0.3 mm
01:26 PM 32.4°F0.2°C 28.1°F-2.2°C 84% 2.7 mph SW4.3 kmh SW 3.2 mph5.1 kmh 29.36 in994.2 mb 0.00 in0.0 mm 0.00 in0.0 mm 0.01 in0.3 mm
01:27 PM 32.4°F0.2°C 28.1°F-2.2°C 84% 1.7 mph SW2.7 kmh SW 3.2 mph5.1 kmh 29.36 in994.2 mb 0.00 in0.0 mm 0.00 in0.0 mm 0.01 in0.3 mm
01:28 PM 32.5°F0.3°C 28.2°F-2.1°C 84% 1.1 mph NE1.8 kmh NE 3.2 mph5.1 kmh 29.36 in994.2 mb 0.00 in0.0 mm 0.00 in0.0 mm 0.01 in0.3 mm
01:29 PM 32.5°F0.3°C 28.5°F-1.9°C 85% 1.1 mph SSW1.8 kmh SSW 3.2 mph5.1 kmh 29.36 in994.2 mb 0.00 in0.0 mm 0.00 in0.0 mm 0.01 in0.3 mm
01:30 PM 32.7°F0.4°C 28.7°F-1.8°C 85% 1.7 mph S2.7 kmh S 3.2 mph5.1 kmh 29.36 in994.2 mb 0.00 in0.0 mm 0.00 in0.0 mm 0.01 in0.3 mm
01:31 PM 32.7°F0.4°C 28.7°F-1.8°C 85% 1.7 mph SE2.7 kmh SE 3.2 mph5.1 kmh 29.36 in994.2 mb 0.00 in0.0 mm 0.00 in0.0 mm 0.01 in0.3 mm
01:32 PM 32.7°F0.4°C 28.4°F-2.0°C 84% 1.7 mph SSW2.7 kmh SSW 3.2 mph5.1 kmh 29.36 in994.2 mb 0.00 in0.0 mm 0.00 in0.0 mm 0.01 in0.3 mm
01:33 PM 32.7°F0.4°C 28.4°F-2.0°C 84% 3.2 mph S5.1 kmh S 5.3 mph8.5 kmh 29.36 in994.2 mb 0.00 in0.0 mm 0.00 in0.0 mm 0.01 in0.3 mm
01:34 PM 32.7°F0.4°C 28.4°F-2.0°C 84% 1.7 mph S2.7 kmh S 5.3 mph8.5 kmh 29.36 in994.2 mb 0.00 in0.0 mm 0.00 in0.0 mm 0.01 in0.3 mm
01:35 PM 32.7°F0.4°C 28.1°F-2.2°C 83% 1.1 mph SSW1.8 kmh SSW 5.3 mph8.5 kmh 29.36 in994.2 mb 0.00 in0.0 mm 0.00 in0.0 mm 0.01 in0.3 mm
01:36 PM 32.7°F0.4°C 28.1°F-2.2°C 83% Calm Calm 5.3 mph8.5 kmh 29.36 in994.2 mb 0.00 in0.0 mm 0.00 in0.0 mm 0.01 in0.3 mm
01:37 PM 32.7°F0.4°C 28.4°F-2.0°C 84% Calm Calm 5.3 mph8.5 kmh 29.36 in994.2 mb 0.00 in0.0 mm 0.00 in0.0 mm 0.01 in0.3 mm
01:38 PM 32.7°F0.4°C 28.4°F-2.0°C 84% 2.7 mph SSW4.3 kmh SSW 5.3 mph8.5 kmh 29.36 in994.2 mb 0.00 in0.0 mm 0.00 in0.0 mm 0.01 in0.3 mm
01:39 PM 32.7°F0.4°C 28.4°F-2.0°C 84% 1.7 mph SSW2.7 kmh SSW 5.3 mph8.5 kmh 29.36 in994.2 mb 0.00 in0.0 mm 0.00 in0.0 mm 0.01 in0.3 mm
01:40 PM 32.7°F0.4°C 28.4°F-2.0°C 84% Calm Calm 5.3 mph8.5 kmh 29.36 in994.2 mb 0.00 in0.0 mm 0.00 in0.0 mm 0.01 in0.3 mm
01:41 PM 32.7°F0.4°C 28.4°F-2.0°C 84% 1.1 mph SSE1.8 kmh SSE 5.3 mph8.5 kmh 29.36 in994.2 mb 0.00 in0.0 mm 0.00 in0.0 mm 0.01 in0.3 mm
01:42 PM 32.7°F0.4°C 28.4°F-2.0°C 84% 1.1 mph W1.8 kmh W 5.3 mph8.5 kmh 29.36 in994.2 mb 0.00 in0.0 mm 0.00 in0.0 mm 0.01 in0.3 mm
01:43 PM 32.7°F0.4°C 28.4°F-2.0°C 84% Calm Calm 3.7 mph6.0 kmh 29.36 in994.2 mb 0.00 in0.0 mm 0.00 in0.0 mm 0.01 in0.3 mm
01:44 PM 32.7°F0.4°C 28.4°F-2.0°C 84% 1.7 mph W2.7 kmh W 3.7 mph6.0 kmh 29.36 in994.2 mb 0.00 in0.0 mm 0.00 in0.0 mm 0.01 in0.3 mm
01:45 PM 32.7°F0.4°C 28.4°F-2.0°C 84% 1.1 mph SSE1.8 kmh SSE 2.7 mph4.3 kmh 29.38 in994.9 mb 0.00 in0.0 mm 0.00 in0.0 mm 0.01 in0.3 mm
01:46 PM 32.7°F0.4°C 28.4°F-2.0°C 84% 2.2 mph SSE3.5 kmh SSE 2.7 mph4.3 kmh 29.38 in994.9 mb 0.00 in0.0 mm 0.00 in0.0 mm 0.01 in0.3 mm
01:47 PM 32.7°F0.4°C 28.1°F-2.2°C 83% 1.1 mph SSW1.8 kmh SSW 2.7 mph4.3 kmh 29.38 in994.9 mb 0.00 in0.0 mm 0.00 in0.0 mm 0.01 in0.3 mm
01:48 PM 32.7°F0.4°C 28.1°F-2.2°C 83% 1.1 mph SSW1.8 kmh SSW 2.7 mph4.3 kmh 29.38 in994.9 mb 0.00 in0.0 mm 0.00 in0.0 mm 0.01 in0.3 mm
01:49 PM 32.7°F0.4°C 28.1°F-2.2°C 83% 1.1 mph SSW1.8 kmh SSW 2.7 mph4.3 kmh 29.38 in994.9 mb 0.00 in0.0 mm 0.00 in0.0 mm 0.01 in0.3 mm
01:50 PM 32.7°F0.4°C 28.4°F-2.0°C 84% 2.7 mph WSW4.3 kmh WSW 2.7 mph4.3 kmh 29.38 in994.9 mb 0.00 in0.0 mm 0.00 in0.0 mm 0.01 in0.3 mm
01:51 PM 32.7°F0.4°C 28.4°F-2.0°C 84% 2.2 mph SW3.5 kmh SW 2.7 mph4.3 kmh 29.38 in994.9 mb 0.00 in0.0 mm 0.00 in0.0 mm 0.01 in0.3 mm
01:52 PM 32.7°F0.4°C 28.1°F-2.2°C 83% 2.2 mph W3.5 kmh W 2.7 mph4.3 kmh 29.38 in994.9 mb 0.00 in0.0 mm 0.00 in0.0 mm 0.01 in0.3 mm
01:53 PM 32.7°F0.4°C 28.1°F-2.2°C 83% 2.2 mph ESE3.5 kmh ESE 2.7 mph4.3 kmh 29.38 in994.9 mb 0.00 in0.0 mm 0.00 in0.0 mm 0.01 in0.3 mm
01:54 PM 32.7°F0.4°C 28.1°F-2.2°C 83% Calm Calm 2.7 mph4.3 kmh 29.38 in994.9 mb 0.00 in0.0 mm 0.00 in0.0 mm 0.01 in0.3 mm
01:55 PM 32.7°F0.4°C 28.1°F-2.2°C 83% 1.7 mph NW2.7 kmh NW 2.7 mph4.3 kmh 29.38 in994.9 mb 0.00 in0.0 mm 0.00 in0.0 mm 0.01 in0.3 mm
01:56 PM 32.7°F0.4°C 28.1°F-2.2°C 83% Calm Calm 2.7 mph4.3 kmh 29.38 in994.9 mb 0.00 in0.0 mm 0.00 in0.0 mm 0.01 in0.3 mm
01:57 PM 32.9°F0.5°C 28.6°F-1.9°C 84% 1.7 mph S2.7 kmh S 2.7 mph4.3 kmh 29.37 in994.6 mb 0.00 in0.0 mm 0.00 in0.0 mm 0.01 in0.3 mm
01:58 PM 32.9°F0.5°C 28.6°F-1.9°C 84% 1.7 mph NE2.7 kmh NE 2.7 mph4.3 kmh 29.37 in994.6 mb 0.00 in0.0 mm 0.00 in0.0 mm 0.01 in0.3 mm
01:59 PM 32.9°F0.5°C 28.6°F-1.9°C 84% 2.2 mph SSW3.5 kmh SSW 2.7 mph4.3 kmh 29.37 in994.6 mb 0.00 in0.0 mm 0.00 in0.0 mm 0.01 in0.3 mm
02:00 PM 32.9°F0.5°C 28.6°F-1.9°C 84% 2.2 mph S3.5 kmh S 2.7 mph4.3 kmh 29.37 in994.6 mb 0.00 in0.0 mm 0.00 in0.0 mm 0.01 in0.3 mm
02:01 PM 33.1°F0.6°C 28.8°F-1.8°C 84% 1.1 mph SW1.8 kmh SW 2.2 mph3.5 kmh 29.37 in994.6 mb 0.00 in0.0 mm 0.00 in0.0 mm 0.01 in0.3 mm
02:02 PM 33.3°F0.7°C 29.0°F-1.7°C 84% 1.7 mph SSW2.7 kmh SSW 2.2 mph3.5 kmh 29.37 in994.6 mb 0.00 in0.0 mm 0.00 in0.0 mm 0.01 in0.3 mm
02:03 PM 33.3°F0.7°C 29.0°F-1.7°C 84% 2.2 mph S3.5 kmh S 2.2 mph3.5 kmh 29.37 in994.6 mb 0.00 in0.0 mm 0.00 in0.0 mm 0.01 in0.3 mm
02:04 PM 33.3°F0.7°C 29.0°F-1.7°C 84% 3.2 mph SSW5.1 kmh SSW 3.2 mph5.1 kmh 29.37 in994.6 mb 0.00 in0.0 mm 0.00 in0.0 mm 0.01 in0.3 mm
02:05 PM 33.3°F0.7°C 29.0°F-1.7°C 84% Calm Calm 3.2 mph5.1 kmh 29.37 in994.6 mb 0.00 in0.0 mm 0.00 in0.0 mm 0.01 in0.3 mm
02:06 PM 33.4°F0.8°C 29.1°F-1.6°C 84% 2.2 mph SW3.5 kmh SW 3.2 mph5.1 kmh 29.37 in994.6 mb 0.00 in0.0 mm 0.00 in0.0 mm 0.01 in0.3 mm
02:07 PM 33.4°F0.8°C 29.1°F-1.6°C 84% Calm Calm 3.2 mph5.1 kmh 29.37 in994.6 mb 0.00 in0.0 mm 0.00 in0.0 mm 0.01 in0.3 mm
02:08 PM 33.6°F0.9°C 29.3°F-1.5°C 84% 1.1 mph WNW1.8 kmh WNW 3.2 mph5.1 kmh 29.37 in994.6 mb 0.00 in0.0 mm 0.00 in0.0 mm 0.01 in0.3 mm
02:09 PM 33.6°F0.9°C 29.3°F-1.5°C 84% 2.2 mph W3.5 kmh W 3.2 mph5.1 kmh 29.36 in994.2 mb 0.00 in0.0 mm 0.00 in0.0 mm 0.01 in0.3 mm
02:10 PM 33.6°F0.9°C 29.3°F-1.5°C 84% 2.7 mph SW4.3 kmh SW 3.2 mph5.1 kmh 29.36 in994.2 mb 0.00 in0.0 mm 0.00 in0.0 mm 0.01 in0.3 mm
02:11 PM 33.6°F0.9°C 29.3°F-1.5°C 84% 1.1 mph SSW1.8 kmh SSW 3.2 mph5.1 kmh 29.36 in994.2 mb 0.00 in0.0 mm 0.00 in0.0 mm 0.01 in0.3 mm
02:12 PM 33.8°F1.0°C 29.5°F-1.4°C 84% 1.1 mph SSW1.8 kmh SSW 3.2 mph5.1 kmh 29.36 in994.2 mb 0.00 in0.0 mm 0.00 in0.0 mm 0.01 in0.3 mm
02:13 PM 34.0°F1.1°C 29.7°F-1.3°C 84% 2.2 mph WSW3.5 kmh WSW 3.2 mph5.1 kmh 29.36 in994.2 mb 0.00 in0.0 mm 0.00 in0.0 mm 0.01 in0.3 mm
02:14 PM 34.0°F1.1°C 29.7°F-1.3°C 84% 1.7 mph E2.7 kmh E 3.2 mph5.1 kmh 29.36 in994.2 mb 0.00 in0.0 mm 0.00 in0.0 mm 0.01 in0.3 mm
02:15 PM 34.2°F1.2°C 29.6°F-1.3°C 83% 1.7 mph WSW2.7 kmh WSW 3.2 mph5.1 kmh 29.36 in994.2 mb 0.00 in0.0 mm 0.00 in0.0 mm 0.01 in0.3 mm
02:16 PM 34.3°F1.3°C 29.7°F-1.3°C 83% 1.7 mph WSW2.7 kmh WSW 3.2 mph5.1 kmh 29.36 in994.2 mb 0.00 in0.0 mm 0.00 in0.0 mm 0.01 in0.3 mm
02:17 PM 34.5°F1.4°C 29.9°F-1.2°C 83% 2.2 mph SW3.5 kmh SW 3.2 mph5.1 kmh 29.36 in994.2 mb 0.00 in0.0 mm 0.00 in0.0 mm 0.01 in0.3 mm
02:18 PM 34.5°F1.4°C 29.9°F-1.2°C 83% 2.2 mph S3.5 kmh S 3.2 mph5.1 kmh 29.36 in994.2 mb 0.00 in0.0 mm 0.00 in0.0 mm 0.01 in0.3 mm
02:19 PM 34.5°F1.4°C 29.9°F-1.2°C 83% 2.2 mph SSW3.5 kmh SSW 2.7 mph4.3 kmh 29.36 in994.2 mb 0.00 in0.0 mm 0.00 in0.0 mm 0.01 in0.3 mm
02:20 PM 34.7°F1.5°C 30.4°F-0.9°C 84% 2.2 mph SW3.5 kmh SW 2.7 mph4.3 kmh 29.36 in994.2 mb 0.00 in0.0 mm 0.00 in0.0 mm 0.01 in0.3 mm
02:21 PM 34.9°F1.6°C 30.6°F-0.8°C 84% 1.1 mph N1.8 kmh N 2.7 mph4.3 kmh 29.36 in994.2 mb 0.00 in0.0 mm 0.00 in0.0 mm 0.01 in0.3 mm
02:22 PM 34.9°F1.6°C 30.3°F-0.9°C 83% 2.2 mph W3.5 kmh W 2.7 mph4.3 kmh 29.35 in993.9 mb 0.01 in0.3 mm 0.60 in15.2 mm 0.02 in0.5 mm
02:23 PM 34.9°F1.6°C 30.3°F-0.9°C 83% 2.2 mph SSW3.5 kmh SSW 2.7 mph4.3 kmh 29.35 in993.9 mb 0.01 in0.3 mm 0.00 in0.0 mm 0.02 in0.5 mm
02:24 PM 34.9°F1.6°C 30.0°F-1.1°C 82% 1.7 mph SW2.7 kmh SW 2.7 mph4.3 kmh 29.35 in993.9 mb 0.01 in0.3 mm 0.00 in0.0 mm 0.02 in0.5 mm
02:25 PM 34.9°F1.6°C 29.7°F-1.3°C 81% 2.2 mph SSW3.5 kmh SSW 2.2 mph3.5 kmh 29.35 in993.9 mb 0.01 in0.3 mm 0.00 in0.0 mm 0.02 in0.5 mm
02:26 PM 35.1°F1.7°C 30.2°F-1.0°C 82% 1.1 mph SW1.8 kmh SW 2.2 mph3.5 kmh 29.35 in993.9 mb 0.01 in0.3 mm 0.00 in0.0 mm 0.02 in0.5 mm
02:27 PM 35.2°F1.8°C 30.3°F-0.9°C 82% 1.7 mph N2.7 kmh N 2.2 mph3.5 kmh 29.35 in993.9 mb 0.01 in0.3 mm 0.00 in0.0 mm 0.02 in0.5 mm
02:28 PM 35.2°F1.8°C 30.3°F-0.9°C 82% 1.7 mph W2.7 kmh W 2.2 mph3.5 kmh 29.35 in993.9 mb 0.01 in0.3 mm 0.00 in0.0 mm 0.02 in0.5 mm
02:29 PM 35.4°F1.9°C 30.5°F-0.8°C 82% 1.1 mph SSW1.8 kmh SSW 2.2 mph3.5 kmh 29.35 in993.9 mb 0.01 in0.3 mm 0.00 in0.0 mm 0.02 in0.5 mm
02:30 PM 35.6°F2.0°C 30.7°F-0.7°C 82% 2.7 mph ESE4.3 kmh ESE 2.7 mph4.3 kmh 29.35 in993.9 mb 0.01 in0.3 mm 0.00 in0.0 mm 0.02 in0.5 mm
02:31 PM 35.8°F2.1°C 30.9°F-0.6°C 82% 1.7 mph SSW2.7 kmh SSW 2.7 mph4.3 kmh 29.35 in993.9 mb 0.01 in0.3 mm 0.00 in0.0 mm 0.02 in0.5 mm
02:32 PM 36.0°F2.2°C 31.0°F-0.6°C 82% 2.2 mph SW3.5 kmh SW 2.7 mph4.3 kmh 29.35 in993.9 mb 0.01 in0.3 mm 0.00 in0.0 mm 0.02 in0.5 mm
02:33 PM 36.0°F2.2°C 30.7°F-0.7°C 81% 1.1 mph S1.8 kmh S 2.7 mph4.3 kmh 29.35 in993.9 mb 0.01 in0.3 mm 0.00 in0.0 mm 0.02 in0.5 mm
02:34 PM 36.0°F2.2°C 30.7°F-0.7°C 81% 1.7 mph SW2.7 kmh SW 2.7 mph4.3 kmh 29.36 in994.2 mb 0.01 in0.3 mm 0.00 in0.0 mm 0.02 in0.5 mm
02:35 PM 36.0°F2.2°C 30.7°F-0.7°C 81% 1.7 mph SE2.7 kmh SE 2.7 mph4.3 kmh 29.36 in994.2 mb 0.01 in0.3 mm 0.00 in0.0 mm 0.02 in0.5 mm
02:36 PM 36.0°F2.2°C 30.7°F-0.7°C 81% 2.2 mph S3.5 kmh S 2.7 mph4.3 kmh 29.36 in994.2 mb 0.01 in0.3 mm 0.00 in0.0 mm 0.02 in0.5 mm
02:37 PM 36.0°F2.2°C 30.7°F-0.7°C 81% 2.7 mph ESE4.3 kmh ESE 2.7 mph4.3 kmh 29.36 in994.2 mb 0.01 in0.3 mm 0.00 in0.0 mm 0.02 in0.5 mm
02:38 PM 36.0°F2.2°C 30.4°F-0.9°C 80% 1.7 mph WSW2.7 kmh WSW 2.7 mph4.3 kmh 29.36 in994.2 mb 0.01 in0.3 mm 0.00 in0.0 mm 0.02 in0.5 mm
02:39 PM 36.0°F2.2°C 30.4°F-0.9°C 80% 1.1 mph SSW1.8 kmh SSW 2.7 mph4.3 kmh 29.36 in994.2 mb 0.01 in0.3 mm 0.00 in0.0 mm 0.02 in0.5 mm
02:40 PM 36.0°F2.2°C 30.4°F-0.9°C 80% 2.2 mph WSW3.5 kmh WSW 2.7 mph4.3 kmh 29.36 in994.2 mb 0.01 in0.3 mm 0.00 in0.0 mm 0.02 in0.5 mm
02:41 PM 36.0°F2.2°C 30.4°F-0.9°C 80% 1.7 mph S2.7 kmh S 2.7 mph4.3 kmh 29.36 in994.2 mb 0.01 in0.3 mm 0.00 in0.0 mm 0.02 in0.5 mm
02:42 PM 36.1°F2.3°C 30.5°F-0.8°C 80% 1.7 mph SSW2.7 kmh SSW 2.7 mph4.3 kmh 29.36 in994.2 mb 0.01 in0.3 mm 0.00 in0.0 mm 0.02 in0.5 mm
02:43 PM 36.3°F2.4°C 30.7°F-0.7°C 80% 1.1 mph S1.8 kmh S 2.7 mph4.3 kmh 29.36 in994.2 mb 0.01 in0.3 mm 0.00 in0.0 mm 0.02 in0.5 mm
02:44 PM 36.3°F2.4°C 30.7°F-0.7°C 80% 1.7 mph SW2.7 kmh SW 2.7 mph4.3 kmh 29.36 in994.2 mb 0.01 in0.3 mm 0.00 in0.0 mm 0.02 in0.5 mm
02:45 PM 36.5°F2.5°C 30.9°F-0.6°C 80% 1.1 mph SW1.8 kmh SW 2.7 mph4.3 kmh 29.36 in994.2 mb 0.01 in0.3 mm 0.00 in0.0 mm 0.02 in0.5 mm
02:46 PM 36.7°F2.6°C 31.1°F-0.5°C 80% 1.7 mph W2.7 kmh W 2.7 mph4.3 kmh 29.36 in994.2 mb 0.01 in0.3 mm 0.00 in0.0 mm 0.02 in0.5 mm
02:47 PM 36.9°F2.7°C 31.0°F-0.6°C 79% 3.7 mph SSE6.0 kmh SSE 3.7 mph6.0 kmh 29.36 in994.2 mb 0.01 in0.3 mm 0.00 in0.0 mm 0.02 in0.5 mm
02:48 PM 36.9°F2.7°C 30.7°F-0.7°C 78% 4.2 mph E6.8 kmh E 4.2 mph6.8 kmh 29.36 in994.2 mb 0.01 in0.3 mm 0.00 in0.0 mm 0.02 in0.5 mm
02:49 PM 36.9°F2.7°C 30.1°F-1.1°C 76% 1.7 mph SW2.7 kmh SW 4.2 mph6.8 kmh 29.36 in994.2 mb 0.01 in0.3 mm 0.00 in0.0 mm 0.02 in0.5 mm
02:50 PM 36.9°F2.7°C 29.7°F-1.3°C 75% 2.7 mph SSW4.3 kmh SSW 4.7 mph7.6 kmh 29.36 in994.2 mb 0.01 in0.3 mm 0.00 in0.0 mm 0.02 in0.5 mm
02:51 PM 36.9°F2.7°C 30.1°F-1.1°C 76% 2.2 mph SSW3.5 kmh SSW 4.7 mph7.6 kmh 29.36 in994.2 mb 0.01 in0.3 mm 0.00 in0.0 mm 0.02 in0.5 mm
02:52 PM 37.0°F2.8°C 30.2°F-1.0°C 76% 1.7 mph W2.7 kmh W 4.7 mph7.6 kmh 29.36 in994.2 mb 0.01 in0.3 mm 0.00 in0.0 mm 0.02 in0.5 mm
02:53 PM 37.4°F3.0°C 30.9°F-0.6°C 77% 1.7 mph SSW2.7 kmh SSW 4.7 mph7.6 kmh 29.36 in994.2 mb 0.01 in0.3 mm 0.00 in0.0 mm 0.02 in0.5 mm
02:54 PM 37.4°F3.0°C 30.9°F-0.6°C 77% 2.2 mph S3.5 kmh S 4.7 mph7.6 kmh 29.36 in994.2 mb 0.01 in0.3 mm 0.00 in0.0 mm 0.02 in0.5 mm
02:55 PM 37.6°F3.1°C 30.4°F-0.9°C 75% 3.2 mph S5.1 kmh S 4.7 mph7.6 kmh 29.36 in994.2 mb 0.01 in0.3 mm 0.00 in0.0 mm 0.02 in0.5 mm
02:56 PM 37.6°F3.1°C 30.4°F-0.9°C 75% 1.1 mph S1.8 kmh S 4.7 mph7.6 kmh 29.36 in994.2 mb 0.01 in0.3 mm 0.00 in0.0 mm 0.02 in0.5 mm
02:57 PM 37.6°F3.1°C 30.1°F-1.1°C 74% 2.7 mph WSW4.3 kmh WSW 4.7 mph7.6 kmh 29.36 in994.2 mb 0.01 in0.3 mm 0.00 in0.0 mm 0.02 in0.5 mm
02:58 PM 37.6°F3.1°C 30.1°F-1.1°C 74% 4.2 mph WSW6.8 kmh WSW 4.7 mph7.6 kmh 29.36 in994.2 mb 0.01 in0.3 mm 0.00 in0.0 mm 0.02 in0.5 mm
02:59 PM 37.6°F3.1°C 29.7°F-1.3°C 73% 1.1 mph SSW1.8 kmh SSW 4.7 mph7.6 kmh 29.36 in994.2 mb 0.01 in0.3 mm 0.00 in0.0 mm 0.02 in0.5 mm
03:00 PM 37.6°F3.1°C 30.4°F-0.9°C 75% 2.7 mph W4.3 kmh W 4.2 mph6.8 kmh 29.36 in994.2 mb 0.01 in0.3 mm 0.00 in0.0 mm 0.02 in0.5 mm
03:01 PM 37.6°F3.1°C 30.1°F-1.1°C 74% 1.7 mph S2.7 kmh S 4.2 mph6.8 kmh 29.36 in994.2 mb 0.01 in0.3 mm 0.00 in0.0 mm 0.02 in0.5 mm
03:02 PM 37.8°F3.2°C 30.3°F-0.9°C 74% 2.7 mph W4.3 kmh W 4.2 mph6.8 kmh 29.36 in994.2 mb 0.01 in0.3 mm 0.00 in0.0 mm 0.02 in0.5 mm
03:03 PM 37.8°F3.2°C 30.3°F-0.9°C 74% 1.1 mph SSW1.8 kmh SSW 4.2 mph6.8 kmh 29.36 in994.2 mb 0.01 in0.3 mm 0.00 in0.0 mm 0.02 in0.5 mm
03:04 PM 37.9°F3.3°C 30.0°F-1.1°C 73% 1.1 mph SW1.8 kmh SW 4.2 mph6.8 kmh 29.36 in994.2 mb 0.01 in0.3 mm 0.00 in0.0 mm 0.02 in0.5 mm
03:05 PM 37.9°F3.3°C 30.4°F-0.9°C 74% 1.7 mph SW2.7 kmh SW 4.2 mph6.8 kmh 29.36 in994.2 mb 0.01 in0.3 mm 0.00 in0.0 mm 0.02 in0.5 mm
03:06 PM 37.9°F3.3°C 30.0°F-1.1°C 73% 3.2 mph SSW5.1 kmh SSW 5.8 mph9.3 kmh 29.36 in994.2 mb 0.01 in0.3 mm 0.00 in0.0 mm 0.02 in0.5 mm
03:07 PM 37.9°F3.3°C 30.0°F-1.1°C 73% 2.2 mph SE3.5 kmh SE 5.8 mph9.3 kmh 29.36 in994.2 mb 0.01 in0.3 mm 0.00 in0.0 mm 0.02 in0.5 mm
03:08 PM 37.9°F3.3°C 30.4°F-0.9°C 74% 3.2 mph SW5.1 kmh SW 5.8 mph9.3 kmh 29.36 in994.2 mb 0.01 in0.3 mm 0.00 in0.0 mm 0.02 in0.5 mm
03:09 PM 37.9°F3.3°C 30.0°F-1.1°C 73% 2.7 mph W4.3 kmh W 5.8 mph9.3 kmh 29.36 in994.2 mb 0.01 in0.3 mm 0.00 in0.0 mm 0.02 in0.5 mm
03:10 PM 38.1°F3.4°C 30.6°F-0.8°C 74% 3.7 mph SSW6.0 kmh SSW 5.8 mph9.3 kmh 29.36 in994.2 mb 0.01 in0.3 mm 0.00 in0.0 mm 0.02 in0.5 mm
03:11 PM 38.1°F3.4°C 30.2°F-1.0°C 73% 2.2 mph ESE3.5 kmh ESE 5.8 mph9.3 kmh 29.36 in994.2 mb 0.01 in0.3 mm 0.00 in0.0 mm 0.02 in0.5 mm
03:12 PM 38.1°F3.4°C 29.9°F-1.2°C 72% 2.2 mph WNW3.5 kmh WNW 5.8 mph9.3 kmh 29.36 in994.2 mb 0.01 in0.3 mm 0.00 in0.0 mm 0.02 in0.5 mm
03:13 PM 38.1°F3.4°C 29.9°F-1.2°C 72% 2.2 mph WSW3.5 kmh WSW 5.8 mph9.3 kmh 29.36 in994.2 mb 0.01 in0.3 mm 0.00 in0.0 mm 0.02 in0.5 mm
03:14 PM 38.1°F3.4°C 29.9°F-1.2°C 72% 1.7 mph SSE2.7 kmh SSE 5.8 mph9.3 kmh 29.36 in994.2 mb 0.01 in0.3 mm 0.00 in0.0 mm 0.02 in0.5 mm
03:15 PM 38.1°F3.4°C 29.9°F-1.2°C 72% 1.7 mph W2.7 kmh W 5.8 mph9.3 kmh 29.36 in994.2 mb 0.01 in0.3 mm 0.00 in0.0 mm 0.02 in0.5 mm
03:16 PM 38.3°F3.5°C 29.7°F-1.3°C 71% 2.2 mph SW3.5 kmh SW 4.7 mph7.6 kmh 29.36 in994.2 mb 0.01 in0.3 mm 0.00 in0.0 mm 0.02 in0.5 mm
03:17 PM 38.3°F3.5°C 29.7°F-1.3°C 71% 1.7 mph S2.7 kmh S 4.7 mph7.6 kmh 29.36 in994.2 mb 0.01 in0.3 mm 0.00 in0.0 mm 0.02 in0.5 mm
03:18 PM 38.7°F3.7°C 29.4°F-1.4°C 69% 4.2 mph SSE6.8 kmh SSE 4.7 mph7.6 kmh 29.36 in994.2 mb 0.01 in0.3 mm 0.00 in0.0 mm 0.02 in0.5 mm
03:19 PM 38.7°F3.7°C 29.4°F-1.4°C 69% 1.1 mph SW1.8 kmh SW 4.7 mph7.6 kmh 29.36 in994.2 mb 0.01 in0.3 mm 0.00 in0.0 mm 0.02 in0.5 mm
03:20 PM 39.2°F4.0°C 30.3°F-0.9°C 70% 2.2 mph E3.5 kmh E 4.7 mph7.6 kmh 29.36 in994.2 mb 0.01 in0.3 mm 0.00 in0.0 mm 0.02 in0.5 mm
03:21 PM 39.4°F4.1°C 29.7°F-1.3°C 68% 1.7 mph WSW2.7 kmh WSW 4.2 mph6.8 kmh 29.35 in993.9 mb 0.01 in0.3 mm 0.00 in0.0 mm 0.02 in0.5 mm
03:22 PM 39.6°F4.2°C 29.9°F-1.2°C 68% 1.1 mph NW1.8 kmh NW 4.2 mph6.8 kmh 29.35 in993.9 mb 0.00 in0.0 mm 0.00 in0.0 mm 0.02 in0.5 mm
03:23 PM 39.6°F4.2°C 30.3°F-0.9°C 69% 2.2 mph SW3.5 kmh SW 4.2 mph6.8 kmh 29.35 in993.9 mb 0.00 in0.0 mm 0.00 in0.0 mm 0.02 in0.5 mm
03:24 PM 39.4°F4.1°C 30.1°F-1.1°C 69% 1.7 mph WNW2.7 kmh WNW 4.2 mph6.8 kmh 29.35 in993.9 mb 0.00 in0.0 mm 0.00 in0.0 mm 0.02 in0.5 mm
03:25 PM 39.6°F4.2°C 30.3°F-0.9°C 69% 1.1 mph SW1.8 kmh SW 4.2 mph6.8 kmh 29.35 in993.9 mb 0.00 in0.0 mm 0.00 in0.0 mm 0.02 in0.5 mm
03:26 PM 40.1°F4.5°C 30.4°F-0.9°C 68% 1.7 mph ENE2.7 kmh ENE 4.2 mph6.8 kmh 29.35 in993.9 mb 0.00 in0.0 mm 0.00 in0.0 mm 0.02 in0.5 mm
03:27 PM 40.8°F4.9°C 31.4°F-0.3°C 69% 2.2 mph SW3.5 kmh SW 4.2 mph6.8 kmh 29.35 in993.9 mb 0.00 in0.0 mm 0.00 in0.0 mm 0.02 in0.5 mm
03:28 PM 40.8°F4.9°C 31.1°F-0.5°C 68% 3.7 mph S6.0 kmh S 4.2 mph6.8 kmh 29.35 in993.9 mb 0.00 in0.0 mm 0.00 in0.0 mm 0.02 in0.5 mm
03:29 PM 40.5°F4.7°C 30.8°F-0.7°C 68% 2.7 mph NNE4.3 kmh NNE 3.7 mph6.0 kmh 29.35 in993.9 mb 0.00 in0.0 mm 0.00 in0.0 mm 0.02 in0.5 mm
03:30 PM 40.3°F4.6°C 31.0°F-0.6°C 69% 3.2 mph NW5.1 kmh NW 3.7 mph6.0 kmh 29.35 in993.9 mb 0.00 in0.0 mm 0.00 in0.0 mm 0.02 in0.5 mm
03:31 PM 40.5°F4.7°C 31.1°F-0.5°C 69% 1.1 mph SSW1.8 kmh SSW 3.7 mph6.0 kmh 29.35 in993.9 mb 0.00 in0.0 mm 0.00 in0.0 mm 0.02 in0.5 mm
03:32 PM 40.8°F4.9°C 31.1°F-0.5°C 68% 2.7 mph WSW4.3 kmh WSW 3.7 mph6.0 kmh 29.35 in993.9 mb 0.00 in0.0 mm 0.00 in0.0 mm 0.02 in0.5 mm
03:33 PM 41.0°F5.0°C 31.3°F-0.4°C 68% 2.2 mph SSE3.5 kmh SSE 3.7 mph6.0 kmh 29.35 in993.9 mb 0.00 in0.0 mm 0.00 in0.0 mm 0.02 in0.5 mm
03:34 PM 41.0°F5.0°C 30.5°F-0.8°C 66% 1.1 mph S1.8 kmh S 3.7 mph6.0 kmh 29.35 in993.9 mb 0.00 in0.0 mm 0.00 in0.0 mm 0.02 in0.5 mm
03:35 PM 41.0°F5.0°C 30.5°F-0.8°C 66% 2.2 mph S3.5 kmh S 3.7 mph6.0 kmh 29.35 in993.9 mb 0.00 in0.0 mm 0.00 in0.0 mm 0.02 in0.5 mm
03:36 PM 41.0°F5.0°C 30.5°F-0.8°C 66% 2.2 mph SSW3.5 kmh SSW 3.7 mph6.0 kmh 29.35 in993.9 mb 0.00 in0.0 mm 0.00 in0.0 mm 0.02 in0.5 mm
03:37 PM 40.8°F4.9°C 30.3°F-0.9°C 66% 3.2 mph SW5.1 kmh SW 3.7 mph6.0 kmh 29.35 in993.9 mb 0.00 in0.0 mm 0.00 in0.0 mm 0.02 in0.5 mm
03:38 PM 40.6°F4.8°C 30.1°F-1.1°C 66% 2.2 mph S3.5 kmh S 3.2 mph5.1 kmh 29.35 in993.9 mb 0.00 in0.0 mm 0.00 in0.0 mm 0.02 in0.5 mm
03:39 PM 40.5°F4.7°C 30.0°F-1.1°C 66% 2.2 mph SSE3.5 kmh SSE 3.2 mph5.1 kmh 29.35 in993.9 mb 0.00 in0.0 mm 0.00 in0.0 mm 0.02 in0.5 mm
03:40 PM 40.5°F4.7°C 30.0°F-1.1°C 66% 2.2 mph SW3.5 kmh SW 3.2 mph5.1 kmh 29.35 in993.9 mb 0.00 in0.0 mm 0.00 in0.0 mm 0.02 in0.5 mm
03:41 PM 40.3°F4.6°C 29.9°F-1.2°C 66% 1.7 mph SSW2.7 kmh SSW 3.2 mph5.1 kmh 29.35 in993.9 mb 0.00 in0.0 mm 0.00 in0.0 mm 0.02 in0.5 mm
03:42 PM 40.1°F4.5°C 29.3°F-1.5°C 65% 1.7 mph S2.7 kmh S 3.2 mph5.1 kmh 29.35 in993.9 mb 0.00 in0.0 mm 0.00 in0.0 mm 0.02 in0.5 mm
03:43 PM 40.1°F4.5°C 29.3°F-1.5°C 65% 1.7 mph W2.7 kmh W 3.2 mph5.1 kmh 29.35 in993.9 mb 0.00 in0.0 mm 0.00 in0.0 mm 0.02 in0.5 mm
03:44 PM 40.1°F4.5°C 29.3°F-1.5°C 65% 2.2 mph WSW3.5 kmh WSW 3.2 mph5.1 kmh 29.35 in993.9 mb 0.00 in0.0 mm 0.00 in0.0 mm 0.02 in0.5 mm
03:45 PM 40.1°F4.5°C 29.3°F-1.5°C 65% 2.2 mph S3.5 kmh S 4.7 mph7.6 kmh 29.35 in993.9 mb 0.00 in0.0 mm 0.00 in0.0 mm 0.02 in0.5 mm
03:46 PM 39.9°F4.4°C 29.1°F-1.6°C 65% 2.2 mph SSW3.5 kmh SSW 4.7 mph7.6 kmh 29.35 in993.9 mb 0.00 in0.0 mm 0.00 in0.0 mm 0.02 in0.5 mm
03:47 PM 39.9°F4.4°C 29.1°F-1.6°C 65% 1.7 mph SSW2.7 kmh SSW 4.7 mph7.6 kmh 29.35 in993.9 mb 0.00 in0.0 mm 0.00 in0.0 mm 0.02 in0.5 mm
03:48 PM 39.9°F4.4°C 29.1°F-1.6°C 65% 1.7 mph SSW2.7 kmh SSW 4.7 mph7.6 kmh 29.35 in993.9 mb 0.00 in0.0 mm 0.00 in0.0 mm 0.02 in0.5 mm
03:49 PM 39.9°F4.4°C 29.1°F-1.6°C 65% 1.7 mph SSE2.7 kmh SSE 4.7 mph7.6 kmh 29.35 in993.9 mb 0.00 in0.0 mm 0.00 in0.0 mm 0.02 in0.5 mm
03:50 PM 39.9°F4.4°C 29.5°F-1.4°C 66% 2.2 mph W3.5 kmh W 4.7 mph7.6 kmh 29.35 in993.9 mb 0.00 in0.0 mm 0.00 in0.0 mm 0.02 in0.5 mm
03:51 PM 39.9°F4.4°C 29.5°F-1.4°C 66% 3.7 mph ESE6.0 kmh ESE 4.7 mph7.6 kmh 29.35 in993.9 mb 0.00 in0.0 mm 0.00 in0.0 mm 0.02 in0.5 mm
03:52 PM 39.9°F4.4°C 29.8°F-1.2°C 67% 2.2 mph SSW3.5 kmh SSW 4.7 mph7.6 kmh 29.35 in993.9 mb 0.00 in0.0 mm 0.00 in0.0 mm 0.02 in0.5 mm
03:53 PM 39.9°F4.4°C 29.8°F-1.2°C 67% 1.1 mph SSE1.8 kmh SSE 4.7 mph7.6 kmh 29.35 in993.9 mb 0.00 in0.0 mm 0.00 in0.0 mm 0.02 in0.5 mm
03:54 PM 39.9°F4.4°C 29.8°F-1.2°C 67% 2.2 mph NE3.5 kmh NE 4.7 mph7.6 kmh 29.35 in993.9 mb 0.00 in0.0 mm 0.00 in0.0 mm 0.02 in0.5 mm
03:55 PM 39.9°F4.4°C 29.8°F-1.2°C 67% 2.2 mph SW3.5 kmh SW 3.7 mph6.0 kmh 29.35 in993.9 mb 0.00 in0.0 mm 0.00 in0.0 mm 0.02 in0.5 mm
03:56 PM 39.9°F4.4°C 29.8°F-1.2°C 67% 2.2 mph SSW3.5 kmh SSW 3.7 mph6.0 kmh 29.35 in993.9 mb 0.00 in0.0 mm 0.00 in0.0 mm 0.02 in0.5 mm
03:57 PM 39.9°F4.4°C 29.8°F-1.2°C 67% 2.2 mph ESE3.5 kmh ESE 3.7 mph6.0 kmh 29.35 in993.9 mb 0.00 in0.0 mm 0.00 in0.0 mm 0.02 in0.5 mm
03:58 PM 39.9°F4.4°C 29.8°F-1.2°C 67% 2.2 mph W3.5 kmh W 3.7 mph6.0 kmh 29.35 in993.9 mb 0.00 in0.0 mm 0.00 in0.0 mm 0.02 in0.5 mm
03:59 PM 39.9°F4.4°C 29.8°F-1.2°C 67% 2.2 mph S3.5 kmh S 3.7 mph6.0 kmh 29.35 in993.9 mb 0.00 in0.0 mm 0.00 in0.0 mm 0.02 in0.5 mm
04:00 PM 39.9°F4.4°C 29.8°F-1.2°C 67% 2.2 mph SSW3.5 kmh SSW 3.7 mph6.0 kmh 29.35 in993.9 mb 0.00 in0.0 mm 0.00 in0.0 mm 0.02 in0.5 mm
04:01 PM 39.9°F4.4°C 29.8°F-1.2°C 67% 1.1 mph SSW1.8 kmh SSW 3.7 mph6.0 kmh 29.35 in993.9 mb 0.00 in0.0 mm 0.00 in0.0 mm 0.02 in0.5 mm
04:02 PM 40.3°F4.6°C 30.6°F-0.8°C 68% 2.2 mph SW3.5 kmh SW 2.7 mph4.3 kmh 29.35 in993.9 mb 0.00 in0.0 mm 0.00 in0.0 mm 0.02 in0.5 mm
04:03 PM 40.6°F4.8°C 30.5°F-0.8°C 67% 1.7 mph S2.7 kmh S 2.7 mph4.3 kmh 29.35 in993.9 mb 0.00 in0.0 mm 0.00 in0.0 mm 0.02 in0.5 mm
04:04 PM 40.8°F4.9°C 30.7°F-0.7°C 67% 2.2 mph WNW3.5 kmh WNW 2.7 mph4.3 kmh 29.35 in993.9 mb 0.00 in0.0 mm 0.00 in0.0 mm 0.02 in0.5 mm
04:05 PM 41.4°F5.2°C 31.3°F-0.4°C 67% 2.2 mph S3.5 kmh S 2.7 mph4.3 kmh 29.35 in993.9 mb 0.00 in0.0 mm 0.00 in0.0 mm 0.02 in0.5 mm
04:06 PM 41.2°F5.1°C 30.0°F-1.1°C 64% 2.2 mph S3.5 kmh S 3.7 mph6.0 kmh 29.35 in993.9 mb 0.00 in0.0 mm 0.00 in0.0 mm 0.02 in0.5 mm
04:07 PM 41.2°F5.1°C 30.0°F-1.1°C 64% 1.1 mph SSW1.8 kmh SSW 3.7 mph6.0 kmh 29.35 in993.9 mb 0.00 in0.0 mm 0.00 in0.0 mm 0.02 in0.5 mm
04:08 PM 41.5°F5.3°C 30.2°F-1.0°C 64% 1.7 mph NNE2.7 kmh NNE 3.7 mph6.0 kmh 29.35 in993.9 mb 0.00 in0.0 mm 0.00 in0.0 mm 0.02 in0.5 mm
04:09 PM 41.7°F5.4°C 30.4°F-0.9°C 64% 1.1 mph SW1.8 kmh SW 3.7 mph6.0 kmh 29.36 in994.2 mb 0.00 in0.0 mm 0.00 in0.0 mm 0.02 in0.5 mm
04:10 PM 41.7°F5.4°C 30.4°F-0.9°C 64% 1.7 mph S2.7 kmh S 3.7 mph6.0 kmh 29.36 in994.2 mb 0.00 in0.0 mm 0.00 in0.0 mm 0.02 in0.5 mm
04:11 PM 41.7°F5.4°C 30.0°F-1.1°C 63% 2.2 mph SE3.5 kmh SE 3.7 mph6.0 kmh 29.36 in994.2 mb 0.00 in0.0 mm 0.00 in0.0 mm 0.02 in0.5 mm
04:12 PM 41.7°F5.4°C 30.0°F-1.1°C 63% 1.7 mph SSW2.7 kmh SSW 3.7 mph6.0 kmh 29.36 in994.2 mb 0.00 in0.0 mm 0.00 in0.0 mm 0.02 in0.5 mm
04:13 PM 41.7°F5.4°C 30.4°F-0.9°C 64% 2.2 mph W3.5 kmh W 3.7 mph6.0 kmh 29.36 in994.2 mb 0.00 in0.0 mm 0.00 in0.0 mm 0.02 in0.5 mm
04:14 PM 41.7°F5.4°C 30.4°F-0.9°C 64% 2.2 mph W3.5 kmh W 3.7 mph6.0 kmh 29.36 in994.2 mb 0.00 in0.0 mm 0.00 in0.0 mm 0.02 in0.5 mm
04:15 PM 41.7°F5.4°C 30.4°F-0.9°C 64% 2.2 mph S3.5 kmh S 3.7 mph6.0 kmh 29.36 in994.2 mb 0.00 in0.0 mm 0.00 in0.0 mm 0.02 in0.5 mm
04:16 PM 41.7°F5.4°C 30.0°F-1.1°C 63% 1.7 mph SSW2.7 kmh SSW 3.2 mph5.1 kmh 29.36 in994.2 mb 0.00 in0.0 mm 0.00 in0.0 mm 0.02 in0.5 mm
04:17 PM 41.5°F5.3°C 29.5°F-1.4°C 62% 2.7 mph ESE4.3 kmh ESE 2.7 mph4.3 kmh 29.36 in994.2 mb 0.00 in0.0 mm 0.00 in0.0 mm 0.02 in0.5 mm
04:18 PM 41.5°F5.3°C 29.9°F-1.2°C 63% 3.7 mph NE6.0 kmh NE 3.7 mph6.0 kmh 29.36 in994.2 mb 0.00 in0.0 mm 0.00 in0.0 mm 0.02 in0.5 mm
04:19 PM 41.5°F5.3°C 29.5°F-1.4°C 62% 2.2 mph S3.5 kmh S 3.7 mph6.0 kmh 29.36 in994.2 mb 0.00 in0.0 mm 0.00 in0.0 mm 0.02 in0.5 mm
04:20 PM 41.5°F5.3°C 29.5°F-1.4°C 62% 3.2 mph ESE5.1 kmh ESE 3.7 mph6.0 kmh 29.36 in994.2 mb 0.00 in0.0 mm 0.00 in0.0 mm 0.02 in0.5 mm
04:21 PM 41.5°F5.3°C 29.1°F-1.6°C 61% 2.2 mph S3.5 kmh S 3.7 mph6.0 kmh 29.35 in993.9 mb 0.00 in0.0 mm 0.00 in0.0 mm 0.02 in0.5 mm
04:22 PM 41.7°F5.4°C 30.0°F-1.1°C 63% 3.2 mph WSW5.1 kmh WSW 4.2 mph6.8 kmh 29.35 in993.9 mb 0.00 in0.0 mm 0.00 in0.0 mm 0.02 in0.5 mm
04:23 PM 41.7°F5.4°C 30.0°F-1.1°C 63% 2.7 mph SE4.3 kmh SE 4.2 mph6.8 kmh 29.35 in993.9 mb 0.00 in0.0 mm 0.00 in0.0 mm 0.02 in0.5 mm
04:24 PM 41.7°F5.4°C 30.0°F-1.1°C 63% 3.2 mph E5.1 kmh E 4.2 mph6.8 kmh 29.35 in993.9 mb 0.00 in0.0 mm 0.00 in0.0 mm 0.02 in0.5 mm
04:25 PM 41.7°F5.4°C 30.0°F-1.1°C 63% 3.2 mph S5.1 kmh S 4.2 mph6.8 kmh 29.35 in993.9 mb 0.00 in0.0 mm 0.00 in0.0 mm 0.02 in0.5 mm
04:26 PM 41.7°F5.4°C 30.0°F-1.1°C 63% 3.2 mph SSW5.1 kmh SSW 4.2 mph6.8 kmh 29.35 in993.9 mb 0.00 in0.0 mm 0.00 in0.0 mm 0.02 in0.5 mm
04:27 PM 41.7°F5.4°C 30.0°F-1.1°C 63% 3.7 mph SSE6.0 kmh SSE 4.2 mph6.8 kmh 29.35 in993.9 mb 0.00 in0.0 mm 0.00 in0.0 mm 0.02 in0.5 mm
04:28 PM 41.7°F5.4°C 30.0°F-1.1°C 63% 2.2 mph SSW3.5 kmh SSW 4.2 mph6.8 kmh 29.35 in993.9 mb 0.00 in0.0 mm 0.00 in0.0 mm 0.02 in0.5 mm
04:29 PM 41.7°F5.4°C 30.0°F-1.1°C 63% 2.7 mph NNE4.3 kmh NNE 4.2 mph6.8 kmh 29.35 in993.9 mb 0.00 in0.0 mm 0.00 in0.0 mm 0.02 in0.5 mm
04:30 PM 41.7°F5.4°C 29.7°F-1.3°C 62% 3.2 mph S5.1 kmh S 4.2 mph6.8 kmh 29.35 in993.9 mb 0.00 in0.0 mm 0.00 in0.0 mm 0.02 in0.5 mm
04:31 PM 41.5°F5.3°C 29.5°F-1.4°C 62% 1.7 mph S2.7 kmh S 4.2 mph6.8 kmh 29.35 in993.9 mb 0.00 in0.0 mm 0.00 in0.0 mm 0.02 in0.5 mm
04:32 PM 41.5°F5.3°C 29.5°F-1.4°C 62% 1.7 mph SSW2.7 kmh SSW 4.2 mph6.8 kmh 29.35 in993.9 mb 0.00 in0.0 mm 0.00 in0.0 mm 0.02 in0.5 mm
04:33 PM 41.5°F5.3°C 29.5°F-1.4°C 62% 2.7 mph SSW4.3 kmh SSW 4.2 mph6.8 kmh 29.35 in993.9 mb 0.00 in0.0 mm 0.00 in0.0 mm 0.02 in0.5 mm
04:34 PM 41.5°F5.3°C 29.5°F-1.4°C 62% 1.7 mph SSW2.7 kmh SSW 4.2 mph6.8 kmh 29.35 in993.9 mb 0.00 in0.0 mm 0.00 in0.0 mm 0.02 in0.5 mm
04:35 PM 41.5°F5.3°C 29.5°F-1.4°C 62% 1.7 mph SW2.7 kmh SW 3.7 mph6.0 kmh 29.35 in993.9 mb 0.00 in0.0 mm 0.00 in0.0 mm 0.02 in0.5 mm
04:36 PM 41.5°F5.3°C 29.5°F-1.4°C 62% 1.7 mph WSW2.7 kmh WSW 3.7 mph6.0 kmh 29.35 in993.9 mb 0.00 in0.0 mm 0.00 in0.0 mm 0.02 in0.5 mm
04:37 PM 41.5°F5.3°C 29.5°F-1.4°C 62% 2.2 mph SSW3.5 kmh SSW 3.2 mph5.1 kmh 29.35 in993.9 mb 0.00 in0.0 mm 0.00 in0.0 mm 0.02 in0.5 mm
04:38 PM 41.5°F5.3°C 29.5°F-1.4°C 62% 1.1 mph SSW1.8 kmh SSW 3.2 mph5.1 kmh 29.35 in993.9 mb 0.00 in0.0 mm 0.00 in0.0 mm 0.02 in0.5 mm
04:39 PM 41.5°F5.3°C 29.5°F-1.4°C 62% 1.7 mph SSW2.7 kmh SSW 3.2 mph5.1 kmh 29.35 in993.9 mb 0.00 in0.0 mm 0.00 in0.0 mm 0.02 in0.5 mm
04:40 PM 41.5°F5.3°C 29.5°F-1.4°C 62% 2.2 mph N3.5 kmh N 3.2 mph5.1 kmh 29.35 in993.9 mb 0.00 in0.0 mm 0.00 in0.0 mm 0.02 in0.5 mm
04:41 PM 41.5°F5.3°C 29.5°F-1.4°C 62% 1.7 mph SSW2.7 kmh SSW 3.2 mph5.1 kmh 29.35 in993.9 mb 0.00 in0.0 mm 0.00 in0.0 mm 0.02 in0.5 mm
04:42 PM 41.5°F5.3°C 29.9°F-1.2°C 63% 1.7 mph S2.7 kmh S 3.2 mph5.1 kmh 29.35 in993.9 mb 0.00 in0.0 mm 0.00 in0.0 mm 0.02 in0.5 mm
04:43 PM 41.5°F5.3°C 29.9°F-1.2°C 63% 2.2 mph SSE3.5 kmh SSE 2.7 mph4.3 kmh 29.35 in993.9 mb 0.00 in0.0 mm 0.00 in0.0 mm 0.02 in0.5 mm
04:44 PM 41.5°F5.3°C 29.9°F-1.2°C 63% 2.2 mph W3.5 kmh W 2.7 mph4.3 kmh 29.35 in993.9 mb 0.00 in0.0 mm 0.00 in0.0 mm 0.02 in0.5 mm
04:45 PM 41.5°F5.3°C 29.9°F-1.2°C 63% 2.7 mph W4.3 kmh W 2.7 mph4.3 kmh 29.36 in994.2 mb 0.00 in0.0 mm 0.00 in0.0 mm 0.02 in0.5 mm
04:46 PM 41.5°F5.3°C 29.9°F-1.2°C 63% 2.2 mph N3.5 kmh N 2.7 mph4.3 kmh 29.36 in994.2 mb 0.00 in0.0 mm 0.00 in0.0 mm 0.02 in0.5 mm
04:47 PM 41.5°F5.3°C 29.9°F-1.2°C 63% 1.7 mph SSW2.7 kmh SSW 2.7 mph4.3 kmh 29.36 in994.2 mb 0.00 in0.0 mm 0.00 in0.0 mm 0.02 in0.5 mm
04:48 PM 41.5°F5.3°C 29.9°F-1.2°C 63% 1.7 mph WSW2.7 kmh WSW 2.7 mph4.3 kmh 29.36 in994.2 mb 0.00 in0.0 mm 0.00 in0.0 mm 0.02 in0.5 mm
04:49 PM 41.5°F5.3°C 29.9°F-1.2°C 63% 2.7 mph SSW4.3 kmh SSW 2.7 mph4.3 kmh 29.36 in994.2 mb 0.00 in0.0 mm 0.00 in0.0 mm 0.02 in0.5 mm
04:50 PM 41.5°F5.3°C 29.9°F-1.2°C 63% 1.7 mph S2.7 kmh S 2.7 mph4.3 kmh 29.36 in994.2 mb 0.00 in0.0 mm 0.00 in0.0 mm 0.02 in0.5 mm
04:51 PM 41.5°F5.3°C 29.9°F-1.2°C 63% 1.7 mph SW2.7 kmh SW 2.7 mph4.3 kmh 29.36 in994.2 mb 0.00 in0.0 mm 0.00 in0.0 mm 0.02 in0.5 mm
04:52 PM 41.5°F5.3°C 29.9°F-1.2°C 63% 2.2 mph SSW3.5 kmh SSW 2.7 mph4.3 kmh 29.36 in994.2 mb 0.00 in0.0 mm 0.00 in0.0 mm 0.02 in0.5 mm
04:53 PM 41.5°F5.3°C 29.9°F-1.2°C 63% 2.2 mph NNW3.5 kmh NNW 2.7 mph4.3 kmh 29.36 in994.2 mb 0.00 in0.0 mm 0.00 in0.0 mm 0.02 in0.5 mm
04:54 PM 41.5°F5.3°C 29.5°F-1.4°C 62% 2.7 mph SE4.3 kmh SE 3.2 mph5.1 kmh 29.36 in994.2 mb 0.00 in0.0 mm 0.00 in0.0 mm 0.02 in0.5 mm
04:55 PM 41.5°F5.3°C 29.5°F-1.4°C 62% 3.7 mph SE6.0 kmh SE 3.7 mph6.0 kmh 29.36 in994.2 mb 0.00 in0.0 mm 0.00 in0.0 mm 0.02 in0.5 mm
04:56 PM 41.5°F5.3°C 29.5°F-1.4°C 62% 2.2 mph S3.5 kmh S 3.7 mph6.0 kmh 29.36 in994.2 mb 0.00 in0.0 mm 0.00 in0.0 mm 0.02 in0.5 mm
04:57 PM 41.5°F5.3°C 29.1°F-1.6°C 61% 2.7 mph SSW4.3 kmh SSW 6.8 mph10.9 kmh 29.36 in994.2 mb 0.00 in0.0 mm 0.00 in0.0 mm 0.02 in0.5 mm
04:58 PM 41.5°F5.3°C 28.7°F-1.8°C 60% 2.7 mph SSW4.3 kmh SSW 6.8 mph10.9 kmh 29.36 in994.2 mb 0.00 in0.0 mm 0.00 in0.0 mm 0.02 in0.5 mm
04:59 PM 41.5°F5.3°C 28.7°F-1.8°C 60% 2.2 mph SW3.5 kmh SW 6.8 mph10.9 kmh 29.36 in994.2 mb 0.00 in0.0 mm 0.00 in0.0 mm 0.02 in0.5 mm
05:00 PM 41.5°F5.3°C 28.7°F-1.8°C 60% 1.7 mph N2.7 kmh N 6.8 mph10.9 kmh 29.36 in994.2 mb 0.00 in0.0 mm 0.00 in0.0 mm 0.02 in0.5 mm
05:01 PM 41.5°F5.3°C 29.1°F-1.6°C 61% 3.2 mph S5.1 kmh S 6.8 mph10.9 kmh 29.36 in994.2 mb 0.00 in0.0 mm 0.00 in0.0 mm 0.02 in0.5 mm
05:02 PM 41.4°F5.2°C 29.0°F-1.7°C 61% 2.7 mph SW4.3 kmh SW 6.8 mph10.9 kmh 29.36 in994.2 mb 0.00 in0.0 mm 0.00 in0.0 mm 0.02 in0.5 mm
05:03 PM 41.4°F5.2°C 29.0°F-1.7°C 61% 2.7 mph SW4.3 kmh SW 6.8 mph10.9 kmh 29.36 in994.2 mb 0.00 in0.0 mm 0.00 in0.0 mm 0.02 in0.5 mm
05:04 PM 41.4°F5.2°C 29.0°F-1.7°C 61% 2.2 mph WSW3.5 kmh WSW 6.8 mph10.9 kmh 29.36 in994.2 mb 0.00 in0.0 mm 0.00 in0.0 mm 0.02 in0.5 mm
05:05 PM 41.4°F5.2°C 29.0°F-1.7°C 61% 1.7 mph SSW2.7 kmh SSW 6.8 mph10.9 kmh 29.36 in994.2 mb 0.00 in0.0 mm 0.00 in0.0 mm 0.02 in0.5 mm
05:06 PM 41.4°F5.2°C 29.0°F-1.7°C 61% 2.7 mph SW4.3 kmh SW 6.8 mph10.9 kmh 29.36 in994.2 mb 0.00 in0.0 mm 0.00 in0.0 mm 0.02 in0.5 mm
05:07 PM 41.4°F5.2°C 29.0°F-1.7°C 61% 2.7 mph SW4.3 kmh SW 3.2 mph5.1 kmh 29.36 in994.2 mb 0.00 in0.0 mm 0.00 in0.0 mm 0.02 in0.5 mm
05:08 PM 41.4°F5.2°C 29.0°F-1.7°C 61% 1.7 mph SSW2.7 kmh SSW 3.2 mph5.1 kmh 29.36 in994.2 mb 0.00 in0.0 mm 0.00 in0.0 mm 0.02 in0.5 mm
05:09 PM 41.2°F5.1°C 28.8°F-1.8°C 61% Calm Calm 3.2 mph5.1 kmh 29.36 in994.2 mb 0.00 in0.0 mm 0.00 in0.0 mm 0.02 in0.5 mm
05:10 PM 41.2°F5.1°C 28.8°F-1.8°C 61% 2.7 mph SW4.3 kmh SW 3.2 mph5.1 kmh 29.36 in994.2 mb 0.00 in0.0 mm 0.00 in0.0 mm 0.02 in0.5 mm
05:11 PM 41.2°F5.1°C 28.8°F-1.8°C 61% 2.7 mph WSW4.3 kmh WSW 3.2 mph5.1 kmh 29.36 in994.2 mb 0.00 in0.0 mm 0.00 in0.0 mm 0.02 in0.5 mm
05:12 PM 41.2°F5.1°C 28.8°F-1.8°C 61% 1.7 mph SSW2.7 kmh SSW 2.7 mph4.3 kmh 29.36 in994.2 mb 0.00 in0.0 mm 0.00 in0.0 mm 0.02 in0.5 mm
05:13 PM 41.2°F5.1°C 29.2°F-1.6°C 62% Calm Calm 2.7 mph4.3 kmh 29.36 in994.2 mb 0.00 in0.0 mm 0.00 in0.0 mm 0.02 in0.5 mm
05:14 PM 41.2°F5.1°C 29.2°F-1.6°C 62% Calm Calm 2.7 mph4.3 kmh 29.36 in994.2 mb 0.00 in0.0 mm 0.00 in0.0 mm 0.02 in0.5 mm
05:15 PM 41.2°F5.1°C 29.6°F-1.3°C 63% 2.2 mph S3.5 kmh S 2.7 mph4.3 kmh 29.36 in994.2 mb 0.00 in0.0 mm 0.00 in0.0 mm 0.02 in0.5 mm
05:16 PM 41.2°F5.1°C 29.6°F-1.3°C 63% 2.2 mph SSW3.5 kmh SSW 2.7 mph4.3 kmh 29.36 in994.2 mb 0.00 in0.0 mm 0.00 in0.0 mm 0.02 in0.5 mm
05:17 PM 41.2°F5.1°C 29.2°F-1.6°C 62% 2.2 mph W3.5 kmh W 2.7 mph4.3 kmh 29.36 in994.2 mb 0.00 in0.0 mm 0.00 in0.0 mm 0.02 in0.5 mm
05:18 PM 41.2°F5.1°C 29.2°F-1.6°C 62% 3.2 mph W5.1 kmh W 3.2 mph5.1 kmh 29.36 in994.2 mb 0.00 in0.0 mm 0.00 in0.0 mm 0.02 in0.5 mm
05:19 PM 41.2°F5.1°C 29.2°F-1.6°C 62% 1.7 mph S2.7 kmh S 3.2 mph5.1 kmh 29.36 in994.2 mb 0.00 in0.0 mm 0.00 in0.0 mm 0.02 in0.5 mm
05:20 PM 41.2°F5.1°C 29.2°F-1.6°C 62% 2.7 mph SSW4.3 kmh SSW 3.2 mph5.1 kmh 29.36 in994.2 mb 0.00 in0.0 mm 0.00 in0.0 mm 0.02 in0.5 mm
05:21 PM 41.2°F5.1°C 29.2°F-1.6°C 62% 2.7 mph SW4.3 kmh SW 3.2 mph5.1 kmh 29.36 in994.2 mb 0.00 in0.0 mm 0.00 in0.0 mm 0.02 in0.5 mm
05:22 PM 41.2°F5.1°C 29.2°F-1.6°C 62% 3.7 mph NE6.0 kmh NE 3.7 mph6.0 kmh 29.36 in994.2 mb 0.00 in0.0 mm 0.00 in0.0 mm 0.02 in0.5 mm
05:23 PM 41.2°F5.1°C 28.8°F-1.8°C 61% 1.1 mph SSE1.8 kmh SSE 3.7 mph6.0 kmh 29.36 in994.2 mb 0.00 in0.0 mm 0.00 in0.0 mm 0.02 in0.5 mm
05:24 PM 41.2°F5.1°C 28.8°F-1.8°C 61% 1.7 mph SSW2.7 kmh SSW 3.7 mph6.0 kmh 29.36 in994.2 mb 0.00 in0.0 mm 0.00 in0.0 mm 0.02 in0.5 mm
05:25 PM 41.2°F5.1°C 28.8°F-1.8°C 61% 2.2 mph W3.5 kmh W 3.7 mph6.0 kmh 29.36 in994.2 mb 0.00 in0.0 mm 0.00 in0.0 mm 0.02 in0.5 mm
05:26 PM 41.2°F5.1°C 28.8°F-1.8°C 61% 1.7 mph WSW2.7 kmh WSW 3.7 mph6.0 kmh 29.36 in994.2 mb 0.00 in0.0 mm 0.00 in0.0 mm 0.02 in0.5 mm
05:27 PM 41.2°F5.1°C 28.4°F-2.0°C 60% 1.7 mph SSE2.7 kmh SSE 3.7 mph6.0 kmh 29.36 in994.2 mb 0.00 in0.0 mm 0.00 in0.0 mm 0.02 in0.5 mm
05:28 PM 41.2°F5.1°C 28.4°F-2.0°C 60% 2.2 mph SE3.5 kmh SE 3.7 mph6.0 kmh 29.36 in994.2 mb 0.00 in0.0 mm 0.00 in0.0 mm 0.02 in0.5 mm
05:29 PM 41.2°F5.1°C 28.8°F-1.8°C 61% Calm Calm 3.7 mph6.0 kmh 29.36 in994.2 mb 0.00 in0.0 mm 0.00 in0.0 mm 0.02 in0.5 mm
05:30 PM 41.2°F5.1°C 28.8°F-1.8°C 61% 1.7 mph WNW2.7 kmh WNW 3.7 mph6.0 kmh 29.36 in994.2 mb 0.00 in0.0 mm 0.00 in0.0 mm 0.02 in0.5 mm
05:31 PM 41.2°F5.1°C 28.8°F-1.8°C 61% 1.1 mph NNW1.8 kmh NNW 3.7 mph6.0 kmh 29.36 in994.2 mb 0.00 in0.0 mm 0.00 in0.0 mm 0.02 in0.5 mm
05:32 PM 41.2°F5.1°C 29.2°F-1.6°C 62% 2.7 mph SSW4.3 kmh SSW 3.7 mph6.0 kmh 29.36 in994.2 mb 0.00 in0.0 mm 0.00 in0.0 mm 0.02 in0.5 mm
05:33 PM 41.2°F5.1°C 29.2°F-1.6°C 62% 1.7 mph SSW2.7 kmh SSW 3.2 mph5.1 kmh 29.36 in994.2 mb 0.00 in0.0 mm 0.00 in0.0 mm 0.02 in0.5 mm
05:34 PM 41.2°F5.1°C 29.2°F-1.6°C 62% 2.2 mph W3.5 kmh W 3.2 mph5.1 kmh 29.36 in994.2 mb 0.00 in0.0 mm 0.00 in0.0 mm 0.02 in0.5 mm
05:35 PM 41.2°F5.1°C 29.2°F-1.6°C 62% Calm Calm 3.2 mph5.1 kmh 29.36 in994.2 mb 0.00 in0.0 mm 0.00 in0.0 mm 0.02 in0.5 mm
05:36 PM 41.2°F5.1°C 29.2°F-1.6°C 62% 2.2 mph SSE3.5 kmh SSE 3.2 mph5.1 kmh 29.36 in994.2 mb 0.00 in0.0 mm 0.00 in0.0 mm 0.02 in0.5 mm
05:37 PM 41.2°F5.1°C 29.2°F-1.6°C 62% 1.7 mph SSW2.7 kmh SSW 2.7 mph4.3 kmh 29.36 in994.2 mb 0.00 in0.0 mm 0.00 in0.0 mm 0.02 in0.5 mm
05:38 PM 41.2°F5.1°C 29.2°F-1.6°C 62% 2.2 mph S3.5 kmh S 2.7 mph4.3 kmh 29.36 in994.2 mb 0.00 in0.0 mm 0.00 in0.0 mm 0.02 in0.5 mm
05:39 PM 41.2°F5.1°C 29.2°F-1.6°C 62% 1.7 mph SSW2.7 kmh SSW 2.7 mph4.3 kmh 29.36 in994.2 mb 0.00 in0.0 mm 0.00 in0.0 mm 0.02 in0.5 mm
05:40 PM 41.2°F5.1°C 29.2°F-1.6°C 62% 1.7 mph S2.7 kmh S 2.7 mph4.3 kmh 29.36 in994.2 mb 0.00 in0.0 mm 0.00 in0.0 mm 0.02 in0.5 mm
05:41 PM 41.2°F5.1°C 29.2°F-1.6°C 62% 1.1 mph SSW1.8 kmh SSW 2.7 mph4.3 kmh 29.36 in994.2 mb 0.00 in0.0 mm 0.00 in0.0 mm 0.02 in0.5 mm
05:42 PM 41.2°F5.1°C 29.2°F-1.6°C 62% 3.7 mph ESE6.0 kmh ESE 3.7 mph6.0 kmh 29.36 in994.2 mb 0.00 in0.0 mm 0.00 in0.0 mm 0.02 in0.5 mm
05:43 PM 41.0°F5.0°C 29.0°F-1.7°C 62% Calm Calm 3.7 mph6.0 kmh 29.36 in994.2 mb 0.00 in0.0 mm 0.00 in0.0 mm 0.02 in0.5 mm
05:44 PM 41.0°F5.0°C 29.0°F-1.7°C 62% 1.7 mph ESE2.7 kmh ESE 3.7 mph6.0 kmh 29.36 in994.2 mb 0.00 in0.0 mm 0.00 in0.0 mm 0.02 in0.5 mm
05:45 PM 41.0°F5.0°C 29.0°F-1.7°C 62% 1.7 mph SSW2.7 kmh SSW 3.7 mph6.0 kmh 29.36 in994.2 mb 0.00 in0.0 mm 0.00 in0.0 mm 0.02 in0.5 mm
05:46 PM 41.0°F5.0°C 29.4°F-1.4°C 63% 2.2 mph SSW3.5 kmh SSW 3.7 mph6.0 kmh 29.36 in994.2 mb 0.00 in0.0 mm 0.00 in0.0 mm 0.02 in0.5 mm
05:47 PM 41.0°F5.0°C 29.4°F-1.4°C 63% 2.2 mph SSW3.5 kmh SSW 3.7 mph6.0 kmh 29.36 in994.2 mb 0.00 in0.0 mm 0.00 in0.0 mm 0.02 in0.5 mm
05:48 PM 41.0°F5.0°C 29.4°F-1.4°C 63% 1.7 mph SSW2.7 kmh SSW 3.7 mph6.0 kmh 29.36 in994.2 mb 0.00 in0.0 mm 0.00 in0.0 mm 0.02 in0.5 mm
05:49 PM 41.0°F5.0°C 29.4°F-1.4°C 63% 1.7 mph ESE2.7 kmh ESE 3.7 mph6.0 kmh 29.36 in994.2 mb 0.00 in0.0 mm 0.00 in0.0 mm 0.02 in0.5 mm
05:50 PM 40.8°F4.9°C 29.2°F-1.6°C 63% 2.2 mph SSW3.5 kmh SSW 3.7 mph6.0 kmh 29.36 in994.2 mb 0.00 in0.0 mm 0.00 in0.0 mm 0.02 in0.5 mm
05:51 PM 40.8°F4.9°C 29.2°F-1.6°C 63% 1.7 mph S2.7 kmh S 3.7 mph6.0 kmh 29.36 in994.2 mb 0.00 in0.0 mm 0.00 in0.0 mm 0.02 in0.5 mm
05:52 PM 40.8°F4.9°C 29.6°F-1.3°C 64% 1.7 mph ESE2.7 kmh ESE 2.7 mph4.3 kmh 29.36 in994.2 mb 0.00 in0.0 mm 0.00 in0.0 mm 0.02 in0.5 mm
05:53 PM 40.8°F4.9°C 29.6°F-1.3°C 64% 2.2 mph S3.5 kmh S 2.7 mph4.3 kmh 29.36 in994.2 mb 0.00 in0.0 mm 0.00 in0.0 mm 0.02 in0.5 mm
05:54 PM 40.8°F4.9°C 29.6°F-1.3°C 64% 2.2 mph SSE3.5 kmh SSE 2.7 mph4.3 kmh 29.36 in994.2 mb 0.00 in0.0 mm 0.00 in0.0 mm 0.02 in0.5 mm
05:55 PM 40.8°F4.9°C 29.6°F-1.3°C 64% 1.7 mph SSW2.7 kmh SSW 2.7 mph4.3 kmh 29.36 in994.2 mb 0.00 in0.0 mm 0.00 in0.0 mm 0.02 in0.5 mm
05:56 PM 40.8°F4.9°C 29.6°F-1.3°C 64% 1.1 mph SW1.8 kmh SW 2.7 mph4.3 kmh 29.36 in994.2 mb 0.00 in0.0 mm 0.00 in0.0 mm 0.02 in0.5 mm
05:57 PM 40.6°F4.8°C 29.4°F-1.4°C 64% 2.2 mph SW3.5 kmh SW 2.2 mph3.5 kmh 29.36 in994.2 mb 0.00 in0.0 mm 0.00 in0.0 mm 0.02 in0.5 mm
05:58 PM 40.6°F4.8°C 29.0°F-1.7°C 63% 1.1 mph SSW1.8 kmh SSW 2.2 mph3.5 kmh 29.36 in994.2 mb 0.00 in0.0 mm 0.00 in0.0 mm 0.02 in0.5 mm
05:59 PM 40.6°F4.8°C 29.0°F-1.7°C 63% 2.2 mph S3.5 kmh S 2.7 mph4.3 kmh 29.36 in994.2 mb 0.00 in0.0 mm 0.00 in0.0 mm 0.02 in0.5 mm
06:00 PM 40.6°F4.8°C 29.0°F-1.7°C 63% 1.1 mph SSW1.8 kmh SSW 2.7 mph4.3 kmh 29.36 in994.2 mb 0.00 in0.0 mm 0.00 in0.0 mm 0.02 in0.5 mm
06:01 PM 40.6°F4.8°C 29.0°F-1.7°C 63% 2.2 mph SW3.5 kmh SW 2.7 mph4.3 kmh 29.36 in994.2 mb 0.00 in0.0 mm 0.00 in0.0 mm 0.02 in0.5 mm
06:02 PM 40.6°F4.8°C 29.4°F-1.4°C 64% Calm Calm 2.7 mph4.3 kmh 29.36 in994.2 mb 0.00 in0.0 mm 0.00 in0.0 mm 0.02 in0.5 mm
06:03 PM 40.5°F4.7°C 29.3°F-1.5°C 64% Calm Calm 2.7 mph4.3 kmh 29.36 in994.2 mb 0.00 in0.0 mm 0.00 in0.0 mm 0.02 in0.5 mm
06:04 PM 40.5°F4.7°C 29.3°F-1.5°C 64% 2.2 mph SW3.5 kmh SW 2.7 mph4.3 kmh 29.36 in994.2 mb 0.00 in0.0 mm 0.00 in0.0 mm 0.02 in0.5 mm
06:05 PM 40.5°F4.7°C 29.3°F-1.5°C 64% 2.2 mph SSW3.5 kmh SSW 2.7 mph4.3 kmh 29.36 in994.2 mb 0.00 in0.0 mm 0.00 in0.0 mm 0.02 in0.5 mm
06:06 PM 40.3°F4.6°C 29.1°F-1.6°C 64% 1.7 mph WSW2.7 kmh WSW 2.7 mph4.3 kmh 29.36 in994.2 mb 0.00 in0.0 mm 0.00 in0.0 mm 0.02 in0.5 mm
06:07 PM 40.3°F4.6°C 29.1°F-1.6°C 64% 1.1 mph SSW1.8 kmh SSW 2.7 mph4.3 kmh 29.36 in994.2 mb 0.00 in0.0 mm 0.00 in0.0 mm 0.02 in0.5 mm
06:08 PM 40.3°F4.6°C 29.1°F-1.6°C 64% Calm Calm 2.7 mph4.3 kmh 29.36 in994.2 mb 0.00 in0.0 mm 0.00 in0.0 mm 0.02 in0.5 mm
06:09 PM 40.3°F4.6°C 29.1°F-1.6°C 64% 1.1 mph S1.8 kmh S 2.7 mph4.3 kmh 29.36 in994.2 mb 0.00 in0.0 mm 0.00 in0.0 mm 0.02 in0.5 mm
06:10 PM 40.3°F4.6°C 29.1°F-1.6°C 64% Calm Calm 2.7 mph4.3 kmh 29.37 in994.6 mb 0.00 in0.0 mm 0.00 in0.0 mm 0.02 in0.5 mm
06:11 PM 40.3°F4.6°C 29.5°F-1.4°C 65% 1.1 mph S1.8 kmh S 2.7 mph4.3 kmh 29.37 in994.6 mb 0.00 in0.0 mm 0.00 in0.0 mm 0.02 in0.5 mm
06:12 PM 40.3°F4.6°C 29.5°F-1.4°C 65% Calm Calm 2.7 mph4.3 kmh 29.37 in994.6 mb 0.00 in0.0 mm 0.00 in0.0 mm 0.02 in0.5 mm
06:13 PM 40.3°F4.6°C 29.5°F-1.4°C 65% Calm Calm 2.7 mph4.3 kmh 29.37 in994.6 mb 0.00 in0.0 mm 0.00 in0.0 mm 0.02 in0.5 mm
06:14 PM 40.1°F4.5°C 29.3°F-1.5°C 65% 1.1 mph ESE1.8 kmh ESE 2.2 mph3.5 kmh 29.37 in994.6 mb 0.00 in0.0 mm 0.00 in0.0 mm 0.02 in0.5 mm
06:15 PM 40.1°F4.5°C 29.3°F-1.5°C 65% Calm Calm 1.7 mph2.7 kmh 29.37 in994.6 mb 0.00 in0.0 mm 0.00 in0.0 mm 0.02 in0.5 mm
06:16 PM 40.1°F4.5°C 29.3°F-1.5°C 65% 1.7 mph WSW2.7 kmh WSW 1.7 mph2.7 kmh 29.37 in994.6 mb 0.00 in0.0 mm 0.00 in0.0 mm 0.02 in0.5 mm
06:17 PM 39.9°F4.4°C 29.1°F-1.6°C 65% 1.1 mph SSW1.8 kmh SSW 1.7 mph2.7 kmh 29.37 in994.6 mb 0.00 in0.0 mm 0.00 in0.0 mm 0.02 in0.5 mm
06:18 PM 39.9°F4.4°C 29.1°F-1.6°C 65% 1.1 mph SSW1.8 kmh SSW 1.7 mph2.7 kmh 29.37 in994.6 mb 0.00 in0.0 mm 0.00 in0.0 mm 0.02 in0.5 mm
06:19 PM 39.9°F4.4°C 29.1°F-1.6°C 65% 1.7 mph SSW2.7 kmh SSW 1.7 mph2.7 kmh 29.37 in994.6 mb 0.00 in0.0 mm 0.00 in0.0 mm 0.02 in0.5 mm
06:20 PM 39.9°F4.4°C 29.1°F-1.6°C 65% Calm Calm 1.7 mph2.7 kmh 29.37 in994.6 mb 0.00 in0.0 mm 0.00 in0.0 mm 0.02 in0.5 mm
06:21 PM 39.9°F4.4°C 29.1°F-1.6°C 65% Calm Calm 1.7 mph2.7 kmh 29.37 in994.6 mb 0.00 in0.0 mm 0.00 in0.0 mm 0.02 in0.5 mm
06:22 PM 39.9°F4.4°C 29.1°F-1.6°C 65% Calm Calm 1.7 mph2.7 kmh 29.37 in994.6 mb 0.00 in0.0 mm 0.00 in0.0 mm 0.02 in0.5 mm
06:23 PM 39.9°F4.4°C 29.1°F-1.6°C 65% Calm Calm 1.7 mph2.7 kmh 29.37 in994.6 mb 0.00 in0.0 mm 0.00 in0.0 mm 0.02 in0.5 mm
06:24 PM 39.9°F4.4°C 29.1°F-1.6°C 65% Calm Calm 1.7 mph2.7 kmh 29.37 in994.6 mb 0.00 in0.0 mm 0.00 in0.0 mm 0.02 in0.5 mm
06:25 PM 39.7°F4.3°C 29.3°F-1.5°C 66% Calm Calm 1.7 mph2.7 kmh 29.37 in994.6 mb 0.00 in0.0 mm 0.00 in0.0 mm 0.02 in0.5 mm
06:26 PM 39.7°F4.3°C 29.3°F-1.5°C 66% Calm Calm 1.7 mph2.7 kmh 29.37 in994.6 mb 0.00 in0.0 mm 0.00 in0.0 mm 0.02 in0.5 mm
06:27 PM 39.7°F4.3°C 29.3°F-1.5°C 66% Calm Calm 1.7 mph2.7 kmh 29.37 in994.6 mb 0.00 in0.0 mm 0.00 in0.0 mm 0.02 in0.5 mm
06:28 PM 39.7°F4.3°C 29.3°F-1.5°C 66% Calm Calm 1.7 mph2.7 kmh 29.37 in994.6 mb 0.00 in0.0 mm 0.00 in0.0 mm 0.02 in0.5 mm
06:29 PM 39.7°F4.3°C 29.3°F-1.5°C 66% Calm Calm 1.7 mph2.7 kmh 29.37 in994.6 mb 0.00 in0.0 mm 0.00 in0.0 mm 0.02 in0.5 mm
06:30 PM 39.7°F4.3°C 29.3°F-1.5°C 66% 1.1 mph SSW1.8 kmh SSW 1.1 mph1.8 kmh 29.37 in994.6 mb 0.00 in0.0 mm 0.00 in0.0 mm 0.02 in0.5 mm
06:31 PM 39.6°F4.2°C 29.6°F-1.3°C 67% Calm Calm 1.1 mph1.8 kmh 29.37 in994.6 mb 0.00 in0.0 mm 0.00 in0.0 mm 0.02 in0.5 mm
06:32 PM 39.6°F4.2°C 29.6°F-1.3°C 67% Calm Calm 1.1 mph1.8 kmh 29.37 in994.6 mb 0.00 in0.0 mm 0.00 in0.0 mm 0.02 in0.5 mm
06:33 PM 39.6°F4.2°C 29.6°F-1.3°C 67% Calm Calm 1.1 mph1.8 kmh 29.38 in994.9 mb 0.00 in0.0 mm 0.00 in0.0 mm 0.02 in0.5 mm
06:34 PM 39.6°F4.2°C 29.6°F-1.3°C 67% Calm Calm 1.1 mph1.8 kmh 29.38 in994.9 mb 0.00 in0.0 mm 0.00 in0.0 mm 0.02 in0.5 mm
06:35 PM 39.6°F4.2°C 29.6°F-1.3°C 67% Calm Calm 1.1 mph1.8 kmh 29.38 in994.9 mb 0.00 in0.0 mm 0.00 in0.0 mm 0.02 in0.5 mm
06:36 PM 39.4°F4.1°C 29.4°F-1.4°C 67% Calm Calm 1.1 mph1.8 kmh 29.38 in994.9 mb 0.00 in0.0 mm 0.00 in0.0 mm 0.02 in0.5 mm
06:37 PM 39.4°F4.1°C 29.4°F-1.4°C 67% Calm Calm 1.1 mph1.8 kmh 29.38 in994.9 mb 0.00 in0.0 mm 0.00 in0.0 mm 0.02 in0.5 mm
06:38 PM 39.4°F4.1°C 29.4°F-1.4°C 67% Calm Calm 1.1 mph1.8 kmh 29.38 in994.9 mb 0.00 in0.0 mm 0.00 in0.0 mm 0.02 in0.5 mm
06:39 PM 39.4°F4.1°C 29.4°F-1.4°C 67% 1.1 mph SSW1.8 kmh SSW 1.1 mph1.8 kmh 29.38 in994.9 mb 0.00 in0.0 mm 0.00 in0.0 mm 0.02 in0.5 mm
06:40 PM 39.4°F4.1°C 29.4°F-1.4°C 67% 1.1 mph S1.8 kmh S 1.1 mph1.8 kmh 29.38 in994.9 mb 0.00 in0.0 mm 0.00 in0.0 mm 0.02 in0.5 mm
06:41 PM 39.2°F4.0°C 29.2°F-1.6°C 67% Calm Calm 1.1 mph1.8 kmh 29.38 in994.9 mb 0.00 in0.0 mm 0.00 in0.0 mm 0.02 in0.5 mm
06:42 PM 39.2°F4.0°C 29.5°F-1.4°C 68% Calm Calm 1.1 mph1.8 kmh 29.38 in994.9 mb 0.00 in0.0 mm 0.00 in0.0 mm 0.02 in0.5 mm
06:43 PM 39.2°F4.0°C 29.5°F-1.4°C 68% Calm Calm 1.1 mph1.8 kmh 29.38 in994.9 mb 0.00 in0.0 mm 0.00 in0.0 mm 0.02 in0.5 mm
06:44 PM 39.2°F4.0°C 29.5°F-1.4°C 68% Calm Calm 1.1 mph1.8 kmh 29.38 in994.9 mb 0.00 in0.0 mm 0.00 in0.0 mm 0.02 in0.5 mm
06:45 PM 39.2°F4.0°C 29.5°F-1.4°C 68% 1.1 mph SE1.8 kmh SE 1.1 mph1.8 kmh 29.38 in994.9 mb 0.00 in0.0 mm 0.00 in0.0 mm 0.02 in0.5 mm
06:46 PM 39.0°F3.9°C 29.3°F-1.5°C 68% Calm Calm 1.1 mph1.8 kmh 29.38 in994.9 mb 0.00 in0.0 mm 0.00 in0.0 mm 0.02 in0.5 mm
06:47 PM 39.0°F3.9°C 29.3°F-1.5°C 68% 1.1 mph SSW1.8 kmh SSW 1.1 mph1.8 kmh 29.38 in994.9 mb 0.00 in0.0 mm 0.00 in0.0 mm 0.02 in0.5 mm
06:48 PM 39.0°F3.9°C 29.7°F-1.3°C 69% Calm Calm 1.1 mph1.8 kmh 29.38 in994.9 mb 0.00 in0.0 mm 0.00 in0.0 mm 0.02 in0.5 mm
06:49 PM 39.0°F3.9°C 29.7°F-1.3°C 69% Calm Calm 1.1 mph1.8 kmh 29.38 in994.9 mb 0.00 in0.0 mm 0.00 in0.0 mm 0.02 in0.5 mm
06:50 PM 39.0°F3.9°C 29.7°F-1.3°C 69% Calm Calm 1.1 mph1.8 kmh 29.38 in994.9 mb 0.00 in0.0 mm 0.00 in0.0 mm 0.02 in0.5 mm
06:51 PM 39.0°F3.9°C 29.7°F-1.3°C 69% Calm Calm 1.1 mph1.8 kmh 29.38 in994.9 mb 0.00 in0.0 mm 0.00 in0.0 mm 0.02 in0.5 mm
06:52 PM 39.0°F3.9°C 29.7°F-1.3°C 69% Calm Calm 1.7 mph2.7 kmh 29.38 in994.9 mb 0.00 in0.0 mm 0.00 in0.0 mm 0.02 in0.5 mm
06:53 PM 38.8°F3.8°C 29.5°F-1.4°C 69% Calm Calm 1.7 mph2.7 kmh 29.38 in994.9 mb 0.00 in0.0 mm 0.00 in0.0 mm 0.02 in0.5 mm
06:54 PM 38.8°F3.8°C 29.5°F-1.4°C 69% Calm Calm 1.7 mph2.7 kmh 29.38 in994.9 mb 0.00 in0.0 mm 0.00 in0.0 mm 0.02 in0.5 mm
06:55 PM 38.8°F3.8°C 29.5°F-1.4°C 69% Calm Calm 1.7 mph2.7 kmh 29.38 in994.9 mb 0.00 in0.0 mm 0.00 in0.0 mm 0.02 in0.5 mm
06:56 PM 38.8°F3.8°C 29.5°F-1.4°C 69% Calm Calm 1.7 mph2.7 kmh 29.38 in994.9 mb 0.00 in0.0 mm 0.00 in0.0 mm 0.02 in0.5 mm
06:57 PM 38.8°F3.8°C 29.5°F-1.4°C 69% Calm Calm 1.7 mph2.7 kmh 29.39 in995.3 mb 0.00 in0.0 mm 0.00 in0.0 mm 0.02 in0.5 mm
06:58 PM 38.8°F3.8°C 29.5°F-1.4°C 69% Calm Calm 1.7 mph2.7 kmh 29.39 in995.3 mb 0.00 in0.0 mm 0.00 in0.0 mm 0.02 in0.5 mm
06:59 PM 38.8°F3.8°C 29.5°F-1.4°C 69% Calm Calm 1.7 mph2.7 kmh 29.39 in995.3 mb 0.00 in0.0 mm 0.00 in0.0 mm 0.02 in0.5 mm
07:00 PM 38.7°F3.7°C 29.4°F-1.4°C 69% Calm Calm 1.7 mph2.7 kmh 29.39 in995.3 mb 0.00 in0.0 mm 0.00 in0.0 mm 0.02 in0.5 mm
07:01 PM 38.7°F3.7°C 29.4°F-1.4°C 69% Calm Calm 1.7 mph2.7 kmh 29.39 in995.3 mb 0.00 in0.0 mm 0.00 in0.0 mm 0.02 in0.5 mm
07:02 PM 38.7°F3.7°C 29.8°F-1.2°C 70% Calm Calm 1.1 mph1.8 kmh 29.39 in995.3 mb 0.00 in0.0 mm 0.00 in0.0 mm 0.02 in0.5 mm
07:03 PM 38.7°F3.7°C 29.8°F-1.2°C 70% Calm Calm 1.1 mph1.8 kmh 29.39 in995.3 mb 0.00 in0.0 mm 0.00 in0.0 mm 0.02 in0.5 mm
07:04 PM 38.7°F3.7°C 29.8°F-1.2°C 70% Calm Calm 1.1 mph1.8 kmh 29.39 in995.3 mb 0.00 in0.0 mm 0.00 in0.0 mm 0.02 in0.5 mm
07:05 PM 38.7°F3.7°C 29.8°F-1.2°C 70% Calm Calm 1.1 mph1.8 kmh 29.39 in995.3 mb 0.00 in0.0 mm 0.00 in0.0 mm 0.02 in0.5 mm
07:06 PM 38.7°F3.7°C 29.8°F-1.2°C 70% Calm Calm 1.1 mph1.8 kmh 29.39 in995.3 mb 0.00 in0.0 mm 0.00 in0.0 mm 0.02 in0.5 mm
07:07 PM 38.5°F3.6°C 29.6°F-1.3°C 70% Calm Calm 1.1 mph1.8 kmh 29.39 in995.3 mb 0.00 in0.0 mm 0.00 in0.0 mm 0.02 in0.5 mm
07:08 PM 38.5°F3.6°C 29.6°F-1.3°C 70% Calm Calm -- 29.39 in995.3 mb 0.00 in0.0 mm 0.00 in0.0 mm 0.02 in0.5 mm
07:09 PM 38.5°F3.6°C 29.6°F-1.3°C 70% Calm Calm -- 29.39 in995.3 mb 0.00 in0.0 mm 0.00 in0.0 mm 0.02 in0.5 mm
07:10 PM 38.5°F3.6°C 29.6°F-1.3°C 70% Calm Calm -- 29.39 in995.3 mb 0.00 in0.0 mm 0.00 in0.0 mm 0.02 in0.5 mm
07:11 PM 38.5°F3.6°C 29.6°F-1.3°C 70% Calm Calm -- 29.39 in995.3 mb 0.00 in0.0 mm 0.00 in0.0 mm 0.02 in0.5 mm
07:12 PM 38.5°F3.6°C 29.6°F-1.3°C 70% Calm Calm -- 29.39 in995.3 mb 0.00 in0.0 mm 0.00 in0.0 mm 0.02 in0.5 mm
07:13 PM 38.5°F3.6°C 29.9°F-1.2°C 71% Calm Calm -- 29.39 in995.3 mb 0.00 in0.0 mm 0.00 in0.0 mm 0.02 in0.5 mm
07:14 PM 38.3°F3.5°C 29.7°F-1.3°C 71% Calm Calm -- 29.39 in995.3 mb 0.00 in0.0 mm 0.00 in0.0 mm 0.02 in0.5 mm
07:15 PM 38.3°F3.5°C 29.7°F-1.3°C 71% Calm Calm -- 29.39 in995.3 mb 0.00 in0.0 mm 0.00 in0.0 mm 0.02 in0.5 mm
07:16 PM 38.3°F3.5°C 30.1°F-1.1°C 72% Calm Calm -- 29.39 in995.3 mb 0.00 in0.0 mm 0.00 in0.0 mm 0.02 in0.5 mm
07:17 PM 38.3°F3.5°C 30.1°F-1.1°C 72% Calm Calm -- 29.39 in995.3 mb 0.00 in0.0 mm 0.00 in0.0 mm 0.02 in0.5 mm
07:18 PM 38.3°F3.5°C 30.1°F-1.1°C 72% Calm Calm -- 29.39 in995.3 mb 0.00 in0.0 mm 0.00 in0.0 mm 0.02 in0.5 mm
07:19 PM 38.1°F3.4°C 29.9°F-1.2°C 72% Calm Calm -- 29.39 in995.3 mb 0.00 in0.0 mm 0.00 in0.0 mm 0.02 in0.5 mm
07:20 PM 38.1°F3.4°C 29.9°F-1.2°C 72% Calm Calm -- 29.39 in995.3 mb 0.00 in0.0 mm 0.00 in0.0 mm 0.02 in0.5 mm
07:21 PM 38.1°F3.4°C 29.9°F-1.2°C 72% Calm Calm -- 29.39 in995.3 mb 0.00 in0.0 mm 0.00 in0.0 mm 0.02 in0.5 mm
07:22 PM 37.9°F3.3°C 29.7°F-1.3°C 72% Calm Calm -- 29.40 in995.6 mb 0.00 in0.0 mm 0.00 in0.0 mm 0.02 in0.5 mm
07:23 PM 37.9°F3.3°C 29.7°F-1.3°C 72% Calm Calm -- 29.40 in995.6 mb 0.00 in0.0 mm 0.00 in0.0 mm 0.02 in0.5 mm
07:24 PM 37.9°F3.3°C 30.0°F-1.1°C 73% Calm Calm -- 29.40 in995.6 mb 0.00 in0.0 mm 0.00 in0.0 mm 0.02 in0.5 mm
07:25 PM 37.8°F3.2°C 29.9°F-1.2°C 73% Calm Calm -- 29.40 in995.6 mb 0.00 in0.0 mm 0.00 in0.0 mm 0.02 in0.5 mm
07:26 PM 37.8°F3.2°C 29.9°F-1.2°C 73% Calm Calm -- 29.40 in995.6 mb 0.00 in0.0 mm 0.00 in0.0 mm 0.02 in0.5 mm
07:27 PM 37.8°F3.2°C 29.9°F-1.2°C 73% Calm Calm -- 29.40 in995.6 mb 0.00 in0.0 mm 0.00 in0.0 mm 0.02 in0.5 mm
07:28 PM 37.8°F3.2°C 29.9°F-1.2°C 73% Calm Calm -- 29.40 in995.6 mb 0.00 in0.0 mm 0.00 in0.0 mm 0.02 in0.5 mm
07:29 PM 37.8°F3.2°C 29.9°F-1.2°C 73% Calm Calm -- 29.40 in995.6 mb 0.00 in0.0 mm 0.00 in0.0 mm 0.02 in0.5 mm
07:30 PM 37.8°F3.2°C 29.9°F-1.2°C 73% Calm Calm -- 29.40 in995.6 mb 0.00 in0.0 mm 0.00 in0.0 mm 0.02 in0.5 mm
07:31 PM 37.8°F3.2°C 30.3°F-0.9°C 74% Calm Calm -- 29.40 in995.6 mb 0.00 in0.0 mm 0.00 in0.0 mm 0.02 in0.5 mm
07:32 PM 37.6°F3.1°C 30.1°F-1.1°C 74% Calm Calm -- 29.40 in995.6 mb 0.00 in0.0 mm 0.00 in0.0 mm 0.02 in0.5 mm
07:33 PM 37.6°F3.1°C 30.1°F-1.1°C 74% Calm Calm -- 29.40 in995.6 mb 0.00 in0.0 mm 0.00 in0.0 mm 0.02 in0.5 mm
07:34 PM 37.6°F3.1°C 30.1°F-1.1°C 74% Calm Calm -- 29.40 in995.6 mb 0.00 in0.0 mm 0.00 in0.0 mm 0.02 in0.5 mm
07:35 PM 37.6°F3.1°C 30.1°F-1.1°C 74% Calm Calm -- 29.40 in995.6 mb 0.00 in0.0 mm 0.00 in0.0 mm 0.02 in0.5 mm
07:36 PM 37.4°F3.0°C 29.9°F-1.2°C 74% Calm Calm -- 29.40 in995.6 mb 0.00 in0.0 mm 0.00 in0.0 mm 0.02 in0.5 mm
07:37 PM 37.4°F3.0°C 29.9°F-1.2°C 74% Calm Calm -- 29.40 in995.6 mb 0.00 in0.0 mm 0.00 in0.0 mm 0.02 in0.5 mm
07:38 PM 37.4°F3.0°C 29.9°F-1.2°C 74% Calm Calm -- 29.40 in995.6 mb 0.00 in0.0 mm 0.00 in0.0 mm 0.02 in0.5 mm
07:39 PM 37.2°F2.9°C 30.0°F-1.1°C 75% Calm Calm -- 29.40 in995.6 mb 0.00 in0.0 mm 0.00 in0.0 mm 0.02 in0.5 mm
07:40 PM 37.2°F2.9°C 30.0°F-1.1°C 75% Calm Calm -- 29.40 in995.6 mb 0.00 in0.0 mm 0.00 in0.0 mm 0.02 in0.5 mm
07:41 PM 37.2°F2.9°C 30.0°F